<?xml version="1.0" encoding="UTF-8" standalone="no" ?>
<gpx xmlns="http://www.topografix.com/GPX/1/1" xmlns:xsi="http://www.w3.org/2001/XMLSchema-instance" xsi:schemaLocation="http://www.topografix.com/GPX/1/1 http://www.topografix.com/GPX/1/1/gpx.xsd" version="1.1" creator="VisuGPX - https://www.visugpx.com">
  <metadata>
    <name>La draille des Crozes</name>
    <desc><![CDATA[Randonnée # 04, saison 2025/2026 des Pousse-cailloux
A voir sur le circuit, les vestiges du château de Cabrières, le hameau des Crozes, le site de Tibéret (source et moulins), vues sur le Vissou, points de vues sur la crête (soureille d'izarne), etc..
]]></desc>
  </metadata>
  <wpt lat="43.57307" lon="3.36368">
    <ele>158</ele>
    <name><![CDATA[Point de passage 1]]></name>
    <type><![CDATA[GENERIC]]></type>
  </wpt>
  <wpt lat="43.57299" lon="3.36359">
    <ele>158</ele>
    <name><![CDATA[Point de passage 2]]></name>
    <type><![CDATA[GENERIC]]></type>
  </wpt>
  <trk>
    <name><![CDATA[Randonnée du 03/10/2025 à 08:58]]></name>
    <trkseg>
      <trkpt lat="43.57307" lon="3.36368">
        <ele>158</ele>
        <time>2025-10-03T06:58:30.000Z</time>
      </trkpt>
      <trkpt lat="43.57307" lon="3.36364">
        <ele>158</ele>
        <time>2025-10-03T06:58:32.000Z</time>
      </trkpt>
      <trkpt lat="43.57315" lon="3.3636">
        <ele>158</ele>
        <time>2025-10-03T07:02:51.000Z</time>
      </trkpt>
      <trkpt lat="43.57325" lon="3.36357">
        <ele>158</ele>
        <time>2025-10-03T07:03:03.000Z</time>
      </trkpt>
      <trkpt lat="43.57334" lon="3.36358">
        <ele>158</ele>
        <time>2025-10-03T07:03:13.000Z</time>
      </trkpt>
      <trkpt lat="43.57345" lon="3.36359">
        <ele>158</ele>
        <time>2025-10-03T07:03:25.000Z</time>
      </trkpt>
      <trkpt lat="43.57354" lon="3.36363">
        <ele>158</ele>
        <time>2025-10-03T07:03:33.000Z</time>
      </trkpt>
      <trkpt lat="43.57364" lon="3.36366">
        <ele>158</ele>
        <time>2025-10-03T07:03:45.000Z</time>
      </trkpt>
      <trkpt lat="43.57374" lon="3.36367">
        <ele>158</ele>
        <time>2025-10-03T07:03:57.000Z</time>
      </trkpt>
      <trkpt lat="43.57382" lon="3.36363">
        <ele>158</ele>
        <time>2025-10-03T07:04:08.000Z</time>
      </trkpt>
      <trkpt lat="43.57391" lon="3.36359">
        <ele>158</ele>
        <time>2025-10-03T07:04:17.000Z</time>
      </trkpt>
      <trkpt lat="43.574" lon="3.36356">
        <ele>158</ele>
        <time>2025-10-03T07:04:27.000Z</time>
      </trkpt>
      <trkpt lat="43.5741" lon="3.36353">
        <ele>158</ele>
        <time>2025-10-03T07:04:37.000Z</time>
      </trkpt>
      <trkpt lat="43.57419" lon="3.36354">
        <ele>158</ele>
        <time>2025-10-03T07:04:42.000Z</time>
      </trkpt>
      <trkpt lat="43.57428" lon="3.3635">
        <ele>159</ele>
        <time>2025-10-03T07:04:54.000Z</time>
      </trkpt>
      <trkpt lat="43.57438" lon="3.36349">
        <ele>159</ele>
        <time>2025-10-03T07:05:03.000Z</time>
      </trkpt>
      <trkpt lat="43.57448" lon="3.3635">
        <ele>159</ele>
        <time>2025-10-03T07:05:15.000Z</time>
      </trkpt>
      <trkpt lat="43.57457" lon="3.36351">
        <ele>159</ele>
        <time>2025-10-03T07:05:23.000Z</time>
      </trkpt>
      <trkpt lat="43.57466" lon="3.36352">
        <ele>159</ele>
        <time>2025-10-03T07:05:31.000Z</time>
      </trkpt>
      <trkpt lat="43.57475" lon="3.36355">
        <ele>159</ele>
        <time>2025-10-03T07:05:41.000Z</time>
      </trkpt>
      <trkpt lat="43.57484" lon="3.36357">
        <ele>159</ele>
        <time>2025-10-03T07:05:49.000Z</time>
      </trkpt>
      <trkpt lat="43.57493" lon="3.36359">
        <ele>159</ele>
        <time>2025-10-03T07:05:57.000Z</time>
      </trkpt>
      <trkpt lat="43.57503" lon="3.36361">
        <ele>159</ele>
        <time>2025-10-03T07:06:06.000Z</time>
      </trkpt>
      <trkpt lat="43.57513" lon="3.36363">
        <ele>160</ele>
        <time>2025-10-03T07:06:17.000Z</time>
      </trkpt>
      <trkpt lat="43.57523" lon="3.36366">
        <ele>160</ele>
        <time>2025-10-03T07:06:24.000Z</time>
      </trkpt>
      <trkpt lat="43.57532" lon="3.36367">
        <ele>160</ele>
        <time>2025-10-03T07:06:33.000Z</time>
      </trkpt>
      <trkpt lat="43.57541" lon="3.36369">
        <ele>160</ele>
        <time>2025-10-03T07:06:41.000Z</time>
      </trkpt>
      <trkpt lat="43.57549" lon="3.36371">
        <ele>160</ele>
        <time>2025-10-03T07:06:51.000Z</time>
      </trkpt>
      <trkpt lat="43.57559" lon="3.36372">
        <ele>160</ele>
        <time>2025-10-03T07:06:59.000Z</time>
      </trkpt>
      <trkpt lat="43.57569" lon="3.36373">
        <ele>160</ele>
        <time>2025-10-03T07:07:09.000Z</time>
      </trkpt>
      <trkpt lat="43.57577" lon="3.3637">
        <ele>160</ele>
        <time>2025-10-03T07:07:17.000Z</time>
      </trkpt>
      <trkpt lat="43.5758" lon="3.36357">
        <ele>161</ele>
        <time>2025-10-03T07:07:27.000Z</time>
      </trkpt>
      <trkpt lat="43.57579" lon="3.36343">
        <ele>161</ele>
        <time>2025-10-03T07:07:37.000Z</time>
      </trkpt>
      <trkpt lat="43.57581" lon="3.36331">
        <ele>162</ele>
        <time>2025-10-03T07:07:47.000Z</time>
      </trkpt>
      <trkpt lat="43.57581" lon="3.36318">
        <ele>163</ele>
        <time>2025-10-03T07:08:01.000Z</time>
      </trkpt>
      <trkpt lat="43.57582" lon="3.36305">
        <ele>163</ele>
        <time>2025-10-03T07:08:08.000Z</time>
      </trkpt>
      <trkpt lat="43.57583" lon="3.36292">
        <ele>164</ele>
        <time>2025-10-03T07:08:18.000Z</time>
      </trkpt>
      <trkpt lat="43.57588" lon="3.3628">
        <ele>164</ele>
        <time>2025-10-03T07:08:31.000Z</time>
      </trkpt>
      <trkpt lat="43.57594" lon="3.3627">
        <ele>165</ele>
        <time>2025-10-03T07:08:39.000Z</time>
      </trkpt>
      <trkpt lat="43.57602" lon="3.36261">
        <ele>166</ele>
        <time>2025-10-03T07:08:51.000Z</time>
      </trkpt>
      <trkpt lat="43.57609" lon="3.36252">
        <ele>167</ele>
        <time>2025-10-03T07:09:01.000Z</time>
      </trkpt>
      <trkpt lat="43.57617" lon="3.36244">
        <ele>168</ele>
        <time>2025-10-03T07:09:11.000Z</time>
      </trkpt>
      <trkpt lat="43.57623" lon="3.36234">
        <ele>168</ele>
        <time>2025-10-03T07:09:20.000Z</time>
      </trkpt>
      <trkpt lat="43.57631" lon="3.36223">
        <ele>169</ele>
        <time>2025-10-03T07:09:31.000Z</time>
      </trkpt>
      <trkpt lat="43.57636" lon="3.36212">
        <ele>169</ele>
        <time>2025-10-03T07:09:40.000Z</time>
      </trkpt>
      <trkpt lat="43.57645" lon="3.36204">
        <ele>170</ele>
        <time>2025-10-03T07:09:51.000Z</time>
      </trkpt>
      <trkpt lat="43.57654" lon="3.36197">
        <ele>170</ele>
        <time>2025-10-03T07:10:01.000Z</time>
      </trkpt>
      <trkpt lat="43.57663" lon="3.36191">
        <ele>171</ele>
        <time>2025-10-03T07:10:08.000Z</time>
      </trkpt>
      <trkpt lat="43.5767" lon="3.36186">
        <ele>171</ele>
        <time>2025-10-03T07:10:16.000Z</time>
      </trkpt>
      <trkpt lat="43.57676" lon="3.36177">
        <ele>172</ele>
        <time>2025-10-03T07:10:27.000Z</time>
      </trkpt>
      <trkpt lat="43.57675" lon="3.36165">
        <ele>172</ele>
        <time>2025-10-03T07:10:32.000Z</time>
      </trkpt>
      <trkpt lat="43.57675" lon="3.36152">
        <ele>173</ele>
        <time>2025-10-03T07:10:41.000Z</time>
      </trkpt>
      <trkpt lat="43.57672" lon="3.36137">
        <ele>173</ele>
        <time>2025-10-03T07:10:49.000Z</time>
      </trkpt>
      <trkpt lat="43.57669" lon="3.36125">
        <ele>173</ele>
        <time>2025-10-03T07:10:59.000Z</time>
      </trkpt>
      <trkpt lat="43.57663" lon="3.36115">
        <ele>173</ele>
        <time>2025-10-03T07:11:06.000Z</time>
      </trkpt>
      <trkpt lat="43.57661" lon="3.36104">
        <ele>174</ele>
        <time>2025-10-03T07:11:14.000Z</time>
      </trkpt>
      <trkpt lat="43.57658" lon="3.36092">
        <ele>174</ele>
        <time>2025-10-03T07:11:23.000Z</time>
      </trkpt>
      <trkpt lat="43.57654" lon="3.36081">
        <ele>174</ele>
        <time>2025-10-03T07:11:30.000Z</time>
      </trkpt>
      <trkpt lat="43.57649" lon="3.36069">
        <ele>174</ele>
        <time>2025-10-03T07:11:41.000Z</time>
      </trkpt>
      <trkpt lat="43.5765" lon="3.36057">
        <ele>174</ele>
        <time>2025-10-03T07:11:49.000Z</time>
      </trkpt>
      <trkpt lat="43.57647" lon="3.36044">
        <ele>174</ele>
        <time>2025-10-03T07:11:57.000Z</time>
      </trkpt>
      <trkpt lat="43.57642" lon="3.36032">
        <ele>174</ele>
        <time>2025-10-03T07:12:04.000Z</time>
      </trkpt>
      <trkpt lat="43.57637" lon="3.36019">
        <ele>174</ele>
        <time>2025-10-03T07:12:14.000Z</time>
      </trkpt>
      <trkpt lat="43.57631" lon="3.36008">
        <ele>174</ele>
        <time>2025-10-03T07:12:23.000Z</time>
      </trkpt>
      <trkpt lat="43.57627" lon="3.35997">
        <ele>174</ele>
        <time>2025-10-03T07:12:33.000Z</time>
      </trkpt>
      <trkpt lat="43.57622" lon="3.35984">
        <ele>174</ele>
        <time>2025-10-03T07:12:40.000Z</time>
      </trkpt>
      <trkpt lat="43.57617" lon="3.35972">
        <ele>174</ele>
        <time>2025-10-03T07:12:50.000Z</time>
      </trkpt>
      <trkpt lat="43.57614" lon="3.35959">
        <ele>174</ele>
        <time>2025-10-03T07:12:58.000Z</time>
      </trkpt>
      <trkpt lat="43.57614" lon="3.35944">
        <ele>175</ele>
        <time>2025-10-03T07:13:08.000Z</time>
      </trkpt>
      <trkpt lat="43.57613" lon="3.35932">
        <ele>175</ele>
        <time>2025-10-03T07:13:17.000Z</time>
      </trkpt>
      <trkpt lat="43.5761" lon="3.3592">
        <ele>176</ele>
        <time>2025-10-03T07:13:25.000Z</time>
      </trkpt>
      <trkpt lat="43.57606" lon="3.35906">
        <ele>177</ele>
        <time>2025-10-03T07:13:33.000Z</time>
      </trkpt>
      <trkpt lat="43.57605" lon="3.35892">
        <ele>177</ele>
        <time>2025-10-03T07:13:45.000Z</time>
      </trkpt>
      <trkpt lat="43.57605" lon="3.35879">
        <ele>177</ele>
        <time>2025-10-03T07:13:53.000Z</time>
      </trkpt>
      <trkpt lat="43.57605" lon="3.35864">
        <ele>178</ele>
        <time>2025-10-03T07:14:02.000Z</time>
      </trkpt>
      <trkpt lat="43.57603" lon="3.3585">
        <ele>178</ele>
        <time>2025-10-03T07:14:11.000Z</time>
      </trkpt>
      <trkpt lat="43.57601" lon="3.35837">
        <ele>178</ele>
        <time>2025-10-03T07:14:18.000Z</time>
      </trkpt>
      <trkpt lat="43.57601" lon="3.35824">
        <ele>178</ele>
        <time>2025-10-03T07:14:27.000Z</time>
      </trkpt>
      <trkpt lat="43.57601" lon="3.3581">
        <ele>179</ele>
        <time>2025-10-03T07:14:37.000Z</time>
      </trkpt>
      <trkpt lat="43.576" lon="3.35796">
        <ele>178</ele>
        <time>2025-10-03T07:14:44.000Z</time>
      </trkpt>
      <trkpt lat="43.57596" lon="3.35783">
        <ele>178</ele>
        <time>2025-10-03T07:14:55.000Z</time>
      </trkpt>
      <trkpt lat="43.5759" lon="3.35771">
        <ele>178</ele>
        <time>2025-10-03T07:15:03.000Z</time>
      </trkpt>
      <trkpt lat="43.57586" lon="3.3576">
        <ele>177</ele>
        <time>2025-10-03T07:15:10.000Z</time>
      </trkpt>
      <trkpt lat="43.57582" lon="3.35748">
        <ele>177</ele>
        <time>2025-10-03T07:15:19.000Z</time>
      </trkpt>
      <trkpt lat="43.57579" lon="3.35737">
        <ele>177</ele>
        <time>2025-10-03T07:15:25.000Z</time>
      </trkpt>
      <trkpt lat="43.57572" lon="3.35729">
        <ele>177</ele>
        <time>2025-10-03T07:15:35.000Z</time>
      </trkpt>
      <trkpt lat="43.57567" lon="3.35717">
        <ele>177</ele>
        <time>2025-10-03T07:15:44.000Z</time>
      </trkpt>
      <trkpt lat="43.57562" lon="3.35705">
        <ele>178</ele>
        <time>2025-10-03T07:15:55.000Z</time>
      </trkpt>
      <trkpt lat="43.57558" lon="3.35694">
        <ele>178</ele>
        <time>2025-10-03T07:16:03.000Z</time>
      </trkpt>
      <trkpt lat="43.57553" lon="3.35682">
        <ele>178</ele>
        <time>2025-10-03T07:16:10.000Z</time>
      </trkpt>
      <trkpt lat="43.57547" lon="3.35673">
        <ele>178</ele>
        <time>2025-10-03T07:16:17.000Z</time>
      </trkpt>
      <trkpt lat="43.5754" lon="3.35664">
        <ele>179</ele>
        <time>2025-10-03T07:16:25.000Z</time>
      </trkpt>
      <trkpt lat="43.57531" lon="3.3566">
        <ele>179</ele>
        <time>2025-10-03T07:16:34.000Z</time>
      </trkpt>
      <trkpt lat="43.57522" lon="3.35654">
        <ele>179</ele>
        <time>2025-10-03T07:16:45.000Z</time>
      </trkpt>
      <trkpt lat="43.57516" lon="3.35644">
        <ele>179</ele>
        <time>2025-10-03T07:16:54.000Z</time>
      </trkpt>
      <trkpt lat="43.57509" lon="3.35633">
        <ele>179</ele>
        <time>2025-10-03T07:17:03.000Z</time>
      </trkpt>
      <trkpt lat="43.57505" lon="3.35622">
        <ele>180</ele>
        <time>2025-10-03T07:17:11.000Z</time>
      </trkpt>
      <trkpt lat="43.57505" lon="3.3561">
        <ele>180</ele>
        <time>2025-10-03T07:17:19.000Z</time>
      </trkpt>
      <trkpt lat="43.57505" lon="3.35598">
        <ele>180</ele>
        <time>2025-10-03T07:17:27.000Z</time>
      </trkpt>
      <trkpt lat="43.57502" lon="3.35585">
        <ele>180</ele>
        <time>2025-10-03T07:17:35.000Z</time>
      </trkpt>
      <trkpt lat="43.57498" lon="3.35574">
        <ele>181</ele>
        <time>2025-10-03T07:17:45.000Z</time>
      </trkpt>
      <trkpt lat="43.5749" lon="3.35566">
        <ele>181</ele>
        <time>2025-10-03T07:17:57.000Z</time>
      </trkpt>
      <trkpt lat="43.57481" lon="3.35565">
        <ele>181</ele>
        <time>2025-10-03T07:18:12.000Z</time>
      </trkpt>
      <trkpt lat="43.57474" lon="3.35558">
        <ele>181</ele>
        <time>2025-10-03T07:18:24.000Z</time>
      </trkpt>
      <trkpt lat="43.57467" lon="3.3555">
        <ele>181</ele>
        <time>2025-10-03T07:18:41.000Z</time>
      </trkpt>
      <trkpt lat="43.57459" lon="3.35544">
        <ele>181</ele>
        <time>2025-10-03T07:18:54.000Z</time>
      </trkpt>
      <trkpt lat="43.57453" lon="3.35534">
        <ele>181</ele>
        <time>2025-10-03T07:19:06.000Z</time>
      </trkpt>
      <trkpt lat="43.57448" lon="3.35523">
        <ele>181</ele>
        <time>2025-10-03T07:19:15.000Z</time>
      </trkpt>
      <trkpt lat="43.57441" lon="3.35515">
        <ele>181</ele>
        <time>2025-10-03T07:19:29.000Z</time>
      </trkpt>
      <trkpt lat="43.57434" lon="3.35508">
        <ele>181</ele>
        <time>2025-10-03T07:19:44.000Z</time>
      </trkpt>
      <trkpt lat="43.57426" lon="3.35503">
        <ele>181</ele>
        <time>2025-10-03T07:19:59.000Z</time>
      </trkpt>
      <trkpt lat="43.57417" lon="3.35498">
        <ele>182</ele>
        <time>2025-10-03T07:20:13.000Z</time>
      </trkpt>
      <trkpt lat="43.57408" lon="3.35495">
        <ele>184</ele>
        <time>2025-10-03T07:20:23.000Z</time>
      </trkpt>
      <trkpt lat="43.574" lon="3.35489">
        <ele>187</ele>
        <time>2025-10-03T07:20:35.000Z</time>
      </trkpt>
      <trkpt lat="43.57391" lon="3.35483">
        <ele>189</ele>
        <time>2025-10-03T07:20:44.000Z</time>
      </trkpt>
      <trkpt lat="43.57382" lon="3.35478">
        <ele>191</ele>
        <time>2025-10-03T07:20:58.000Z</time>
      </trkpt>
      <trkpt lat="43.57373" lon="3.35475">
        <ele>192</ele>
        <time>2025-10-03T07:21:13.000Z</time>
      </trkpt>
      <trkpt lat="43.57364" lon="3.35476">
        <ele>193</ele>
        <time>2025-10-03T07:21:27.000Z</time>
      </trkpt>
      <trkpt lat="43.57354" lon="3.35476">
        <ele>193</ele>
        <time>2025-10-03T07:21:38.000Z</time>
      </trkpt>
      <trkpt lat="43.57345" lon="3.35475">
        <ele>194</ele>
        <time>2025-10-03T07:21:48.000Z</time>
      </trkpt>
      <trkpt lat="43.57335" lon="3.35475">
        <ele>194</ele>
        <time>2025-10-03T07:21:58.000Z</time>
      </trkpt>
      <trkpt lat="43.57326" lon="3.35476">
        <ele>195</ele>
        <time>2025-10-03T07:22:09.000Z</time>
      </trkpt>
      <trkpt lat="43.57316" lon="3.35476">
        <ele>196</ele>
        <time>2025-10-03T07:22:19.000Z</time>
      </trkpt>
      <trkpt lat="43.57308" lon="3.35471">
        <ele>197</ele>
        <time>2025-10-03T07:22:29.000Z</time>
      </trkpt>
      <trkpt lat="43.57298" lon="3.35468">
        <ele>198</ele>
        <time>2025-10-03T07:22:41.000Z</time>
      </trkpt>
      <trkpt lat="43.57288" lon="3.35466">
        <ele>199</ele>
        <time>2025-10-03T07:22:51.000Z</time>
      </trkpt>
      <trkpt lat="43.57279" lon="3.35462">
        <ele>201</ele>
        <time>2025-10-03T07:22:58.000Z</time>
      </trkpt>
      <trkpt lat="43.5727" lon="3.3546">
        <ele>202</ele>
        <time>2025-10-03T07:23:13.000Z</time>
      </trkpt>
      <trkpt lat="43.57262" lon="3.35455">
        <ele>202</ele>
        <time>2025-10-03T07:23:23.000Z</time>
      </trkpt>
      <trkpt lat="43.57254" lon="3.35448">
        <ele>203</ele>
        <time>2025-10-03T07:23:37.000Z</time>
      </trkpt>
      <trkpt lat="43.57245" lon="3.35442">
        <ele>203</ele>
        <time>2025-10-03T07:23:49.000Z</time>
      </trkpt>
      <trkpt lat="43.57236" lon="3.35434">
        <ele>204</ele>
        <time>2025-10-03T07:23:59.000Z</time>
      </trkpt>
      <trkpt lat="43.57229" lon="3.35426">
        <ele>205</ele>
        <time>2025-10-03T07:24:06.000Z</time>
      </trkpt>
      <trkpt lat="43.57222" lon="3.35417">
        <ele>205</ele>
        <time>2025-10-03T07:24:23.000Z</time>
      </trkpt>
      <trkpt lat="43.57216" lon="3.35407">
        <ele>206</ele>
        <time>2025-10-03T07:24:32.000Z</time>
      </trkpt>
      <trkpt lat="43.57212" lon="3.35395">
        <ele>207</ele>
        <time>2025-10-03T07:24:47.000Z</time>
      </trkpt>
      <trkpt lat="43.57207" lon="3.35384">
        <ele>208</ele>
        <time>2025-10-03T07:25:03.000Z</time>
      </trkpt>
      <trkpt lat="43.57203" lon="3.35374">
        <ele>209</ele>
        <time>2025-10-03T07:25:15.000Z</time>
      </trkpt>
      <trkpt lat="43.57196" lon="3.35365">
        <ele>210</ele>
        <time>2025-10-03T07:25:27.000Z</time>
      </trkpt>
      <trkpt lat="43.57189" lon="3.35357">
        <ele>211</ele>
        <time>2025-10-03T07:25:41.000Z</time>
      </trkpt>
      <trkpt lat="43.57185" lon="3.35346">
        <ele>212</ele>
        <time>2025-10-03T07:25:51.000Z</time>
      </trkpt>
      <trkpt lat="43.57181" lon="3.35334">
        <ele>212</ele>
        <time>2025-10-03T07:26:07.000Z</time>
      </trkpt>
      <trkpt lat="43.57178" lon="3.35322">
        <ele>213</ele>
        <time>2025-10-03T07:26:18.000Z</time>
      </trkpt>
      <trkpt lat="43.57174" lon="3.3531">
        <ele>214</ele>
        <time>2025-10-03T07:26:29.000Z</time>
      </trkpt>
      <trkpt lat="43.57169" lon="3.353">
        <ele>215</ele>
        <time>2025-10-03T07:26:47.000Z</time>
      </trkpt>
      <trkpt lat="43.57164" lon="3.35289">
        <ele>216</ele>
        <time>2025-10-03T07:26:57.000Z</time>
      </trkpt>
      <trkpt lat="43.57159" lon="3.35278">
        <ele>218</ele>
        <time>2025-10-03T07:27:07.000Z</time>
      </trkpt>
      <trkpt lat="43.57152" lon="3.3527">
        <ele>220</ele>
        <time>2025-10-03T07:27:19.000Z</time>
      </trkpt>
      <trkpt lat="43.57146" lon="3.3526">
        <ele>222</ele>
        <time>2025-10-03T07:27:33.000Z</time>
      </trkpt>
      <trkpt lat="43.57139" lon="3.35252">
        <ele>224</ele>
        <time>2025-10-03T07:27:45.000Z</time>
      </trkpt>
      <trkpt lat="43.57131" lon="3.35247">
        <ele>226</ele>
        <time>2025-10-03T07:27:55.000Z</time>
      </trkpt>
      <trkpt lat="43.57122" lon="3.3524">
        <ele>228</ele>
        <time>2025-10-03T07:30:41.000Z</time>
      </trkpt>
      <trkpt lat="43.57113" lon="3.35233">
        <ele>230</ele>
        <time>2025-10-03T07:30:49.000Z</time>
      </trkpt>
      <trkpt lat="43.57104" lon="3.35226">
        <ele>232</ele>
        <time>2025-10-03T07:31:01.000Z</time>
      </trkpt>
      <trkpt lat="43.57096" lon="3.3522">
        <ele>234</ele>
        <time>2025-10-03T07:31:11.000Z</time>
      </trkpt>
      <trkpt lat="43.57089" lon="3.35213">
        <ele>235</ele>
        <time>2025-10-03T07:31:59.000Z</time>
      </trkpt>
      <trkpt lat="43.57081" lon="3.35208">
        <ele>236</ele>
        <time>2025-10-03T07:32:07.000Z</time>
      </trkpt>
      <trkpt lat="43.57075" lon="3.352">
        <ele>236</ele>
        <time>2025-10-03T07:32:25.000Z</time>
      </trkpt>
      <trkpt lat="43.57066" lon="3.35196">
        <ele>236</ele>
        <time>2025-10-03T07:32:47.000Z</time>
      </trkpt>
      <trkpt lat="43.57057" lon="3.35192">
        <ele>237</ele>
        <time>2025-10-03T07:32:55.000Z</time>
      </trkpt>
      <trkpt lat="43.57048" lon="3.35188">
        <ele>238</ele>
        <time>2025-10-03T07:33:06.000Z</time>
      </trkpt>
      <trkpt lat="43.57041" lon="3.3518">
        <ele>239</ele>
        <time>2025-10-03T07:33:17.000Z</time>
      </trkpt>
      <trkpt lat="43.57034" lon="3.35173">
        <ele>241</ele>
        <time>2025-10-03T07:33:28.000Z</time>
      </trkpt>
      <trkpt lat="43.57025" lon="3.35167">
        <ele>242</ele>
        <time>2025-10-03T07:33:38.000Z</time>
      </trkpt>
      <trkpt lat="43.57019" lon="3.35158">
        <ele>242</ele>
        <time>2025-10-03T07:33:53.000Z</time>
      </trkpt>
      <trkpt lat="43.57012" lon="3.35149">
        <ele>243</ele>
        <time>2025-10-03T07:34:01.000Z</time>
      </trkpt>
      <trkpt lat="43.57007" lon="3.35139">
        <ele>243</ele>
        <time>2025-10-03T07:34:09.000Z</time>
      </trkpt>
      <trkpt lat="43.57002" lon="3.35128">
        <ele>243</ele>
        <time>2025-10-03T07:34:20.000Z</time>
      </trkpt>
      <trkpt lat="43.56995" lon="3.35122">
        <ele>243</ele>
        <time>2025-10-03T07:34:28.000Z</time>
      </trkpt>
      <trkpt lat="43.56985" lon="3.35117">
        <ele>244</ele>
        <time>2025-10-03T07:34:40.000Z</time>
      </trkpt>
      <trkpt lat="43.56976" lon="3.35115">
        <ele>245</ele>
        <time>2025-10-03T07:34:57.000Z</time>
      </trkpt>
      <trkpt lat="43.56968" lon="3.3511">
        <ele>246</ele>
        <time>2025-10-03T07:35:05.000Z</time>
      </trkpt>
      <trkpt lat="43.56961" lon="3.35102">
        <ele>248</ele>
        <time>2025-10-03T07:35:14.000Z</time>
      </trkpt>
      <trkpt lat="43.56955" lon="3.35093">
        <ele>250</ele>
        <time>2025-10-03T07:35:22.000Z</time>
      </trkpt>
      <trkpt lat="43.56955" lon="3.35082">
        <ele>252</ele>
        <time>2025-10-03T07:35:37.000Z</time>
      </trkpt>
      <trkpt lat="43.56956" lon="3.35069">
        <ele>254</ele>
        <time>2025-10-03T07:35:59.000Z</time>
      </trkpt>
      <trkpt lat="43.56958" lon="3.35057">
        <ele>256</ele>
        <time>2025-10-03T07:36:12.000Z</time>
      </trkpt>
      <trkpt lat="43.56963" lon="3.35047">
        <ele>258</ele>
        <time>2025-10-03T07:36:25.000Z</time>
      </trkpt>
      <trkpt lat="43.56967" lon="3.35034">
        <ele>260</ele>
        <time>2025-10-03T07:36:37.000Z</time>
      </trkpt>
      <trkpt lat="43.56967" lon="3.35023">
        <ele>261</ele>
        <time>2025-10-03T07:37:07.000Z</time>
      </trkpt>
      <trkpt lat="43.56969" lon="3.35011">
        <ele>262</ele>
        <time>2025-10-03T07:37:17.000Z</time>
      </trkpt>
      <trkpt lat="43.56967" lon="3.35">
        <ele>264</ele>
        <time>2025-10-03T07:37:30.000Z</time>
      </trkpt>
      <trkpt lat="43.56968" lon="3.34988">
        <ele>265</ele>
        <time>2025-10-03T07:37:42.000Z</time>
      </trkpt>
      <trkpt lat="43.56972" lon="3.34977">
        <ele>267</ele>
        <time>2025-10-03T07:37:57.000Z</time>
      </trkpt>
      <trkpt lat="43.5697" lon="3.34965">
        <ele>268</ele>
        <time>2025-10-03T07:38:11.000Z</time>
      </trkpt>
      <trkpt lat="43.56968" lon="3.34954">
        <ele>270</ele>
        <time>2025-10-03T07:38:25.000Z</time>
      </trkpt>
      <trkpt lat="43.56967" lon="3.3494">
        <ele>271</ele>
        <time>2025-10-03T07:38:38.000Z</time>
      </trkpt>
      <trkpt lat="43.56965" lon="3.34928">
        <ele>272</ele>
        <time>2025-10-03T07:38:48.000Z</time>
      </trkpt>
      <trkpt lat="43.56962" lon="3.34916">
        <ele>273</ele>
        <time>2025-10-03T07:39:01.000Z</time>
      </trkpt>
      <trkpt lat="43.56961" lon="3.34905">
        <ele>274</ele>
        <time>2025-10-03T07:39:11.000Z</time>
      </trkpt>
      <trkpt lat="43.56956" lon="3.34894">
        <ele>275</ele>
        <time>2025-10-03T07:39:24.000Z</time>
      </trkpt>
      <trkpt lat="43.56949" lon="3.34888">
        <ele>276</ele>
        <time>2025-10-03T07:39:40.000Z</time>
      </trkpt>
      <trkpt lat="43.56943" lon="3.34879">
        <ele>278</ele>
        <time>2025-10-03T07:39:59.000Z</time>
      </trkpt>
      <trkpt lat="43.56942" lon="3.34867">
        <ele>279</ele>
        <time>2025-10-03T07:40:10.000Z</time>
      </trkpt>
      <trkpt lat="43.5694" lon="3.34853">
        <ele>280</ele>
        <time>2025-10-03T07:40:23.000Z</time>
      </trkpt>
      <trkpt lat="43.56937" lon="3.3484">
        <ele>281</ele>
        <time>2025-10-03T07:40:35.000Z</time>
      </trkpt>
      <trkpt lat="43.56936" lon="3.34828">
        <ele>283</ele>
        <time>2025-10-03T07:40:49.000Z</time>
      </trkpt>
      <trkpt lat="43.56934" lon="3.34816">
        <ele>284</ele>
        <time>2025-10-03T07:40:59.000Z</time>
      </trkpt>
      <trkpt lat="43.56928" lon="3.34807">
        <ele>286</ele>
        <time>2025-10-03T07:41:17.000Z</time>
      </trkpt>
      <trkpt lat="43.56921" lon="3.34804">
        <ele>288</ele>
        <time>2025-10-03T07:41:47.000Z</time>
      </trkpt>
      <trkpt lat="43.56914" lon="3.34806">
        <ele>291</ele>
        <time>2025-10-03T07:42:07.000Z</time>
      </trkpt>
      <trkpt lat="43.56912" lon="3.34796">
        <ele>293</ele>
        <time>2025-10-03T07:42:25.000Z</time>
      </trkpt>
      <trkpt lat="43.56908" lon="3.34789">
        <ele>295</ele>
        <time>2025-10-03T07:42:45.000Z</time>
      </trkpt>
      <trkpt lat="43.56904" lon="3.34798">
        <ele>297</ele>
        <time>2025-10-03T07:43:05.000Z</time>
      </trkpt>
      <trkpt lat="43.56897" lon="3.34808">
        <ele>298</ele>
        <time>2025-10-03T07:43:25.000Z</time>
      </trkpt>
      <trkpt lat="43.56892" lon="3.34817">
        <ele>299</ele>
        <time>2025-10-03T07:43:39.000Z</time>
      </trkpt>
      <trkpt lat="43.5689" lon="3.34829">
        <ele>301</ele>
        <time>2025-10-03T07:43:59.000Z</time>
      </trkpt>
      <trkpt lat="43.56892" lon="3.34841">
        <ele>303</ele>
        <time>2025-10-03T07:44:09.000Z</time>
      </trkpt>
      <trkpt lat="43.56894" lon="3.34853">
        <ele>305</ele>
        <time>2025-10-03T07:44:19.000Z</time>
      </trkpt>
      <trkpt lat="43.56894" lon="3.34867">
        <ele>306</ele>
        <time>2025-10-03T07:44:29.000Z</time>
      </trkpt>
      <trkpt lat="43.56895" lon="3.34878">
        <ele>307</ele>
        <time>2025-10-03T07:44:43.000Z</time>
      </trkpt>
      <trkpt lat="43.56887" lon="3.34876">
        <ele>307</ele>
        <time>2025-10-03T07:45:00.000Z</time>
      </trkpt>
      <trkpt lat="43.56878" lon="3.34874">
        <ele>307</ele>
        <time>2025-10-03T07:45:11.000Z</time>
      </trkpt>
      <trkpt lat="43.5687" lon="3.3488">
        <ele>306</ele>
        <time>2025-10-03T07:49:58.000Z</time>
      </trkpt>
      <trkpt lat="43.56869" lon="3.34892">
        <ele>305</ele>
        <time>2025-10-03T07:50:21.000Z</time>
      </trkpt>
      <trkpt lat="43.56867" lon="3.34902">
        <ele>303</ele>
        <time>2025-10-03T07:50:53.000Z</time>
      </trkpt>
      <trkpt lat="43.56859" lon="3.349">
        <ele>301</ele>
        <time>2025-10-03T07:51:18.000Z</time>
      </trkpt>
      <trkpt lat="43.56851" lon="3.34901">
        <ele>300</ele>
        <time>2025-10-03T07:51:33.000Z</time>
      </trkpt>
      <trkpt lat="43.5685" lon="3.3491">
        <ele>300</ele>
        <time>2025-10-03T07:51:47.000Z</time>
      </trkpt>
      <trkpt lat="43.56858" lon="3.34909">
        <ele>302</ele>
        <time>2025-10-03T07:53:08.000Z</time>
      </trkpt>
      <trkpt lat="43.56865" lon="3.34901">
        <ele>303</ele>
        <time>2025-10-03T07:53:35.000Z</time>
      </trkpt>
      <trkpt lat="43.56868" lon="3.34889">
        <ele>304</ele>
        <time>2025-10-03T07:54:05.000Z</time>
      </trkpt>
      <trkpt lat="43.56875" lon="3.34879">
        <ele>306</ele>
        <time>2025-10-03T07:54:36.000Z</time>
      </trkpt>
      <trkpt lat="43.56879" lon="3.34866">
        <ele>307</ele>
        <time>2025-10-03T07:55:05.000Z</time>
      </trkpt>
      <trkpt lat="43.56884" lon="3.34854">
        <ele>309</ele>
        <time>2025-10-03T07:55:28.000Z</time>
      </trkpt>
      <trkpt lat="43.56883" lon="3.34842">
        <ele>311</ele>
        <time>2025-10-03T07:55:42.000Z</time>
      </trkpt>
      <trkpt lat="43.5688" lon="3.3483">
        <ele>313</ele>
        <time>2025-10-03T07:56:17.000Z</time>
      </trkpt>
      <trkpt lat="43.5688" lon="3.3482">
        <ele>314</ele>
        <time>2025-10-03T07:56:33.000Z</time>
      </trkpt>
      <trkpt lat="43.56873" lon="3.34824">
        <ele>316</ele>
        <time>2025-10-03T07:57:27.000Z</time>
      </trkpt>
      <trkpt lat="43.56866" lon="3.34831">
        <ele>317</ele>
        <time>2025-10-03T07:57:41.000Z</time>
      </trkpt>
      <trkpt lat="43.56861" lon="3.34842">
        <ele>319</ele>
        <time>2025-10-03T07:57:57.000Z</time>
      </trkpt>
      <trkpt lat="43.56857" lon="3.34854">
        <ele>321</ele>
        <time>2025-10-03T07:58:11.000Z</time>
      </trkpt>
      <trkpt lat="43.5685" lon="3.34862">
        <ele>323</ele>
        <time>2025-10-03T07:58:37.000Z</time>
      </trkpt>
      <trkpt lat="43.56841" lon="3.34862">
        <ele>325</ele>
        <time>2025-10-03T07:58:59.000Z</time>
      </trkpt>
      <trkpt lat="43.56834" lon="3.34853">
        <ele>327</ele>
        <time>2025-10-03T07:59:19.000Z</time>
      </trkpt>
      <trkpt lat="43.56829" lon="3.34843">
        <ele>328</ele>
        <time>2025-10-03T07:59:33.000Z</time>
      </trkpt>
      <trkpt lat="43.56825" lon="3.34832">
        <ele>330</ele>
        <time>2025-10-03T07:59:45.000Z</time>
      </trkpt>
      <trkpt lat="43.56828" lon="3.34822">
        <ele>331</ele>
        <time>2025-10-03T08:02:17.000Z</time>
      </trkpt>
      <trkpt lat="43.56824" lon="3.34811">
        <ele>331</ele>
        <time>2025-10-03T08:02:58.000Z</time>
      </trkpt>
      <trkpt lat="43.56821" lon="3.34799">
        <ele>332</ele>
        <time>2025-10-03T08:03:09.000Z</time>
      </trkpt>
      <trkpt lat="43.56822" lon="3.34787">
        <ele>333</ele>
        <time>2025-10-03T08:03:18.000Z</time>
      </trkpt>
      <trkpt lat="43.56827" lon="3.34777">
        <ele>334</ele>
        <time>2025-10-03T08:03:29.000Z</time>
      </trkpt>
      <trkpt lat="43.56828" lon="3.34765">
        <ele>335</ele>
        <time>2025-10-03T08:03:46.000Z</time>
      </trkpt>
      <trkpt lat="43.56825" lon="3.34754">
        <ele>336</ele>
        <time>2025-10-03T08:03:56.000Z</time>
      </trkpt>
      <trkpt lat="43.56824" lon="3.34741">
        <ele>336</ele>
        <time>2025-10-03T08:04:06.000Z</time>
      </trkpt>
      <trkpt lat="43.5683" lon="3.34732">
        <ele>335</ele>
        <time>2025-10-03T08:04:16.000Z</time>
      </trkpt>
      <trkpt lat="43.56839" lon="3.34733">
        <ele>335</ele>
        <time>2025-10-03T08:06:32.000Z</time>
      </trkpt>
      <trkpt lat="43.56846" lon="3.34741">
        <ele>334</ele>
        <time>2025-10-03T08:06:44.000Z</time>
      </trkpt>
      <trkpt lat="43.56848" lon="3.34754">
        <ele>333</ele>
        <time>2025-10-03T08:06:58.000Z</time>
      </trkpt>
      <trkpt lat="43.56846" lon="3.34767">
        <ele>332</ele>
        <time>2025-10-03T08:07:18.000Z</time>
      </trkpt>
      <trkpt lat="43.56849" lon="3.34778">
        <ele>331</ele>
        <time>2025-10-03T08:07:34.000Z</time>
      </trkpt>
      <trkpt lat="43.56854" lon="3.3479">
        <ele>330</ele>
        <time>2025-10-03T08:07:49.000Z</time>
      </trkpt>
      <trkpt lat="43.56858" lon="3.348">
        <ele>328</ele>
        <time>2025-10-03T08:07:58.000Z</time>
      </trkpt>
      <trkpt lat="43.56866" lon="3.34804">
        <ele>326</ele>
        <time>2025-10-03T08:08:16.000Z</time>
      </trkpt>
      <trkpt lat="43.56867" lon="3.34816">
        <ele>324</ele>
        <time>2025-10-03T08:08:34.000Z</time>
      </trkpt>
      <trkpt lat="43.56866" lon="3.34826">
        <ele>322</ele>
        <time>2025-10-03T08:08:50.000Z</time>
      </trkpt>
      <trkpt lat="43.56872" lon="3.34822">
        <ele>320</ele>
        <time>2025-10-03T08:10:08.000Z</time>
      </trkpt>
      <trkpt lat="43.56878" lon="3.34816">
        <ele>318</ele>
        <time>2025-10-03T08:10:22.000Z</time>
      </trkpt>
      <trkpt lat="43.5688" lon="3.34826">
        <ele>316</ele>
        <time>2025-10-03T08:10:46.000Z</time>
      </trkpt>
      <trkpt lat="43.5688" lon="3.3484">
        <ele>314</ele>
        <time>2025-10-03T08:11:13.000Z</time>
      </trkpt>
      <trkpt lat="43.56877" lon="3.34852">
        <ele>311</ele>
        <time>2025-10-03T08:11:21.000Z</time>
      </trkpt>
      <trkpt lat="43.56875" lon="3.34865">
        <ele>309</ele>
        <time>2025-10-03T08:11:36.000Z</time>
      </trkpt>
      <trkpt lat="43.5687" lon="3.34875">
        <ele>308</ele>
        <time>2025-10-03T08:13:29.000Z</time>
      </trkpt>
      <trkpt lat="43.56866" lon="3.34884">
        <ele>306</ele>
        <time>2025-10-03T08:13:44.000Z</time>
      </trkpt>
      <trkpt lat="43.56867" lon="3.34894">
        <ele>305</ele>
        <time>2025-10-03T08:13:54.000Z</time>
      </trkpt>
      <trkpt lat="43.5686" lon="3.34897">
        <ele>302</ele>
        <time>2025-10-03T08:14:24.000Z</time>
      </trkpt>
      <trkpt lat="43.56852" lon="3.349">
        <ele>298</ele>
        <time>2025-10-03T08:14:37.000Z</time>
      </trkpt>
      <trkpt lat="43.56845" lon="3.34908">
        <ele>294</ele>
        <time>2025-10-03T08:14:47.000Z</time>
      </trkpt>
      <trkpt lat="43.56837" lon="3.34914">
        <ele>289</ele>
        <time>2025-10-03T08:15:24.000Z</time>
      </trkpt>
      <trkpt lat="43.56828" lon="3.34913">
        <ele>286</ele>
        <time>2025-10-03T08:17:41.000Z</time>
      </trkpt>
      <trkpt lat="43.56819" lon="3.34915">
        <ele>283</ele>
        <time>2025-10-03T08:17:50.000Z</time>
      </trkpt>
      <trkpt lat="43.5681" lon="3.34915">
        <ele>280</ele>
        <time>2025-10-03T08:18:28.000Z</time>
      </trkpt>
      <trkpt lat="43.56799" lon="3.34914">
        <ele>277</ele>
        <time>2025-10-03T08:19:06.000Z</time>
      </trkpt>
      <trkpt lat="43.5679" lon="3.34915">
        <ele>274</ele>
        <time>2025-10-03T08:19:18.000Z</time>
      </trkpt>
      <trkpt lat="43.56783" lon="3.34922">
        <ele>271</ele>
        <time>2025-10-03T08:19:36.000Z</time>
      </trkpt>
      <trkpt lat="43.56775" lon="3.34917">
        <ele>269</ele>
        <time>2025-10-03T08:21:02.000Z</time>
      </trkpt>
      <trkpt lat="43.56767" lon="3.34912">
        <ele>268</ele>
        <time>2025-10-03T08:21:19.000Z</time>
      </trkpt>
      <trkpt lat="43.56762" lon="3.34904">
        <ele>267</ele>
        <time>2025-10-03T08:21:31.000Z</time>
      </trkpt>
      <trkpt lat="43.5676" lon="3.34892">
        <ele>266</ele>
        <time>2025-10-03T08:21:43.000Z</time>
      </trkpt>
      <trkpt lat="43.56758" lon="3.34879">
        <ele>265</ele>
        <time>2025-10-03T08:22:01.000Z</time>
      </trkpt>
      <trkpt lat="43.56756" lon="3.34865">
        <ele>264</ele>
        <time>2025-10-03T08:22:10.000Z</time>
      </trkpt>
      <trkpt lat="43.56752" lon="3.34853">
        <ele>262</ele>
        <time>2025-10-03T08:22:20.000Z</time>
      </trkpt>
      <trkpt lat="43.56748" lon="3.34841">
        <ele>261</ele>
        <time>2025-10-03T08:22:26.000Z</time>
      </trkpt>
      <trkpt lat="43.56745" lon="3.34829">
        <ele>260</ele>
        <time>2025-10-03T08:22:34.000Z</time>
      </trkpt>
      <trkpt lat="43.56739" lon="3.34821">
        <ele>259</ele>
        <time>2025-10-03T08:22:41.000Z</time>
      </trkpt>
      <trkpt lat="43.56732" lon="3.34813">
        <ele>258</ele>
        <time>2025-10-03T08:22:50.000Z</time>
      </trkpt>
      <trkpt lat="43.56728" lon="3.34802">
        <ele>257</ele>
        <time>2025-10-03T08:22:58.000Z</time>
      </trkpt>
      <trkpt lat="43.56723" lon="3.3479">
        <ele>257</ele>
        <time>2025-10-03T08:23:08.000Z</time>
      </trkpt>
      <trkpt lat="43.5672" lon="3.34777">
        <ele>257</ele>
        <time>2025-10-03T08:23:18.000Z</time>
      </trkpt>
      <trkpt lat="43.56718" lon="3.34765">
        <ele>257</ele>
        <time>2025-10-03T08:23:25.000Z</time>
      </trkpt>
      <trkpt lat="43.56718" lon="3.34752">
        <ele>257</ele>
        <time>2025-10-03T08:23:40.000Z</time>
      </trkpt>
      <trkpt lat="43.56717" lon="3.34739">
        <ele>257</ele>
        <time>2025-10-03T08:23:51.000Z</time>
      </trkpt>
      <trkpt lat="43.56716" lon="3.34727">
        <ele>258</ele>
        <time>2025-10-03T08:24:04.000Z</time>
      </trkpt>
      <trkpt lat="43.56717" lon="3.34715">
        <ele>258</ele>
        <time>2025-10-03T08:24:18.000Z</time>
      </trkpt>
      <trkpt lat="43.56721" lon="3.34704">
        <ele>259</ele>
        <time>2025-10-03T08:24:28.000Z</time>
      </trkpt>
      <trkpt lat="43.56727" lon="3.34695">
        <ele>259</ele>
        <time>2025-10-03T08:24:44.000Z</time>
      </trkpt>
      <trkpt lat="43.56732" lon="3.34685">
        <ele>260</ele>
        <time>2025-10-03T08:25:02.000Z</time>
      </trkpt>
      <trkpt lat="43.56737" lon="3.34675">
        <ele>260</ele>
        <time>2025-10-03T08:25:10.000Z</time>
      </trkpt>
      <trkpt lat="43.56744" lon="3.34671">
        <ele>261</ele>
        <time>2025-10-03T08:25:20.000Z</time>
      </trkpt>
      <trkpt lat="43.56752" lon="3.34663">
        <ele>261</ele>
        <time>2025-10-03T08:25:31.000Z</time>
      </trkpt>
      <trkpt lat="43.56759" lon="3.34655">
        <ele>262</ele>
        <time>2025-10-03T08:25:40.000Z</time>
      </trkpt>
      <trkpt lat="43.56765" lon="3.34645">
        <ele>262</ele>
        <time>2025-10-03T08:25:48.000Z</time>
      </trkpt>
      <trkpt lat="43.5677" lon="3.34636">
        <ele>263</ele>
        <time>2025-10-03T08:25:58.000Z</time>
      </trkpt>
      <trkpt lat="43.56777" lon="3.34628">
        <ele>263</ele>
        <time>2025-10-03T08:26:12.000Z</time>
      </trkpt>
      <trkpt lat="43.56785" lon="3.34621">
        <ele>264</ele>
        <time>2025-10-03T08:26:20.000Z</time>
      </trkpt>
      <trkpt lat="43.56793" lon="3.34612">
        <ele>265</ele>
        <time>2025-10-03T08:26:27.000Z</time>
      </trkpt>
      <trkpt lat="43.56801" lon="3.34605">
        <ele>267</ele>
        <time>2025-10-03T08:26:38.000Z</time>
      </trkpt>
      <trkpt lat="43.56809" lon="3.34598">
        <ele>268</ele>
        <time>2025-10-03T08:26:50.000Z</time>
      </trkpt>
      <trkpt lat="43.56818" lon="3.34594">
        <ele>270</ele>
        <time>2025-10-03T08:27:02.000Z</time>
      </trkpt>
      <trkpt lat="43.56827" lon="3.34592">
        <ele>271</ele>
        <time>2025-10-03T08:27:12.000Z</time>
      </trkpt>
      <trkpt lat="43.56837" lon="3.3459">
        <ele>272</ele>
        <time>2025-10-03T08:27:22.000Z</time>
      </trkpt>
      <trkpt lat="43.56846" lon="3.34588">
        <ele>273</ele>
        <time>2025-10-03T08:27:31.000Z</time>
      </trkpt>
      <trkpt lat="43.56855" lon="3.34587">
        <ele>274</ele>
        <time>2025-10-03T08:27:39.000Z</time>
      </trkpt>
      <trkpt lat="43.56864" lon="3.34586">
        <ele>274</ele>
        <time>2025-10-03T08:27:48.000Z</time>
      </trkpt>
      <trkpt lat="43.56873" lon="3.34587">
        <ele>274</ele>
        <time>2025-10-03T08:27:58.000Z</time>
      </trkpt>
      <trkpt lat="43.56883" lon="3.34585">
        <ele>274</ele>
        <time>2025-10-03T08:28:08.000Z</time>
      </trkpt>
      <trkpt lat="43.56891" lon="3.34582">
        <ele>273</ele>
        <time>2025-10-03T08:28:18.000Z</time>
      </trkpt>
      <trkpt lat="43.56901" lon="3.34579">
        <ele>272</ele>
        <time>2025-10-03T08:28:28.000Z</time>
      </trkpt>
      <trkpt lat="43.5691" lon="3.34575">
        <ele>271</ele>
        <time>2025-10-03T08:28:36.000Z</time>
      </trkpt>
      <trkpt lat="43.56916" lon="3.34565">
        <ele>269</ele>
        <time>2025-10-03T08:28:50.000Z</time>
      </trkpt>
      <trkpt lat="43.56918" lon="3.34552">
        <ele>268</ele>
        <time>2025-10-03T08:29:34.000Z</time>
      </trkpt>
      <trkpt lat="43.5692" lon="3.34538">
        <ele>267</ele>
        <time>2025-10-03T08:29:45.000Z</time>
      </trkpt>
      <trkpt lat="43.56919" lon="3.34525">
        <ele>267</ele>
        <time>2025-10-03T08:29:56.000Z</time>
      </trkpt>
      <trkpt lat="43.5692" lon="3.34513">
        <ele>267</ele>
        <time>2025-10-03T08:30:07.000Z</time>
      </trkpt>
      <trkpt lat="43.5692" lon="3.345">
        <ele>267</ele>
        <time>2025-10-03T08:30:22.000Z</time>
      </trkpt>
      <trkpt lat="43.56922" lon="3.34485">
        <ele>266</ele>
        <time>2025-10-03T08:30:29.000Z</time>
      </trkpt>
      <trkpt lat="43.56925" lon="3.34472">
        <ele>265</ele>
        <time>2025-10-03T08:30:42.000Z</time>
      </trkpt>
      <trkpt lat="43.56927" lon="3.34458">
        <ele>264</ele>
        <time>2025-10-03T08:30:50.000Z</time>
      </trkpt>
      <trkpt lat="43.56931" lon="3.34445">
        <ele>263</ele>
        <time>2025-10-03T08:30:59.000Z</time>
      </trkpt>
      <trkpt lat="43.56937" lon="3.34432">
        <ele>263</ele>
        <time>2025-10-03T08:31:07.000Z</time>
      </trkpt>
      <trkpt lat="43.56945" lon="3.34426">
        <ele>263</ele>
        <time>2025-10-03T08:31:20.000Z</time>
      </trkpt>
      <trkpt lat="43.56952" lon="3.3443">
        <ele>262</ele>
        <time>2025-10-03T08:31:32.000Z</time>
      </trkpt>
      <trkpt lat="43.56962" lon="3.3443">
        <ele>261</ele>
        <time>2025-10-03T08:31:44.000Z</time>
      </trkpt>
      <trkpt lat="43.56972" lon="3.34427">
        <ele>260</ele>
        <time>2025-10-03T08:31:54.000Z</time>
      </trkpt>
      <trkpt lat="43.5698" lon="3.3442">
        <ele>260</ele>
        <time>2025-10-03T08:32:02.000Z</time>
      </trkpt>
      <trkpt lat="43.56987" lon="3.34411">
        <ele>259</ele>
        <time>2025-10-03T08:32:11.000Z</time>
      </trkpt>
      <trkpt lat="43.56992" lon="3.344">
        <ele>259</ele>
        <time>2025-10-03T08:32:21.000Z</time>
      </trkpt>
      <trkpt lat="43.56996" lon="3.34387">
        <ele>259</ele>
        <time>2025-10-03T08:32:31.000Z</time>
      </trkpt>
      <trkpt lat="43.56995" lon="3.34373">
        <ele>258</ele>
        <time>2025-10-03T08:33:10.000Z</time>
      </trkpt>
      <trkpt lat="43.56996" lon="3.34359">
        <ele>257</ele>
        <time>2025-10-03T08:33:18.000Z</time>
      </trkpt>
      <trkpt lat="43.56994" lon="3.34346">
        <ele>255</ele>
        <time>2025-10-03T08:33:25.000Z</time>
      </trkpt>
      <trkpt lat="43.5699" lon="3.34335">
        <ele>254</ele>
        <time>2025-10-03T08:33:34.000Z</time>
      </trkpt>
      <trkpt lat="43.56986" lon="3.34324">
        <ele>253</ele>
        <time>2025-10-03T08:33:42.000Z</time>
      </trkpt>
      <trkpt lat="43.56981" lon="3.34314">
        <ele>253</ele>
        <time>2025-10-03T08:33:49.000Z</time>
      </trkpt>
      <trkpt lat="43.56977" lon="3.34302">
        <ele>252</ele>
        <time>2025-10-03T08:34:00.000Z</time>
      </trkpt>
      <trkpt lat="43.56977" lon="3.34288">
        <ele>252</ele>
        <time>2025-10-03T08:34:10.000Z</time>
      </trkpt>
      <trkpt lat="43.56982" lon="3.34276">
        <ele>252</ele>
        <time>2025-10-03T08:34:22.000Z</time>
      </trkpt>
      <trkpt lat="43.56987" lon="3.34265">
        <ele>253</ele>
        <time>2025-10-03T08:34:30.000Z</time>
      </trkpt>
      <trkpt lat="43.56991" lon="3.34251">
        <ele>254</ele>
        <time>2025-10-03T08:34:44.000Z</time>
      </trkpt>
      <trkpt lat="43.56992" lon="3.34236">
        <ele>255</ele>
        <time>2025-10-03T08:34:52.000Z</time>
      </trkpt>
      <trkpt lat="43.56992" lon="3.34222">
        <ele>256</ele>
        <time>2025-10-03T08:35:00.000Z</time>
      </trkpt>
      <trkpt lat="43.56995" lon="3.34209">
        <ele>257</ele>
        <time>2025-10-03T08:35:10.000Z</time>
      </trkpt>
      <trkpt lat="43.56995" lon="3.34197">
        <ele>258</ele>
        <time>2025-10-03T08:35:19.000Z</time>
      </trkpt>
      <trkpt lat="43.56996" lon="3.34185">
        <ele>259</ele>
        <time>2025-10-03T08:35:26.000Z</time>
      </trkpt>
      <trkpt lat="43.56997" lon="3.34171">
        <ele>260</ele>
        <time>2025-10-03T08:35:36.000Z</time>
      </trkpt>
      <trkpt lat="43.56997" lon="3.34156">
        <ele>260</ele>
        <time>2025-10-03T08:35:45.000Z</time>
      </trkpt>
      <trkpt lat="43.56998" lon="3.34142">
        <ele>261</ele>
        <time>2025-10-03T08:35:52.000Z</time>
      </trkpt>
      <trkpt lat="43.56998" lon="3.34127">
        <ele>261</ele>
        <time>2025-10-03T08:35:59.000Z</time>
      </trkpt>
      <trkpt lat="43.57003" lon="3.34116">
        <ele>261</ele>
        <time>2025-10-03T08:36:08.000Z</time>
      </trkpt>
      <trkpt lat="43.57006" lon="3.34102">
        <ele>260</ele>
        <time>2025-10-03T08:36:16.000Z</time>
      </trkpt>
      <trkpt lat="43.57006" lon="3.34088">
        <ele>260</ele>
        <time>2025-10-03T08:36:24.000Z</time>
      </trkpt>
      <trkpt lat="43.57006" lon="3.34073">
        <ele>259</ele>
        <time>2025-10-03T08:36:34.000Z</time>
      </trkpt>
      <trkpt lat="43.57008" lon="3.3406">
        <ele>258</ele>
        <time>2025-10-03T08:36:39.000Z</time>
      </trkpt>
      <trkpt lat="43.57011" lon="3.34049">
        <ele>256</ele>
        <time>2025-10-03T08:36:46.000Z</time>
      </trkpt>
      <trkpt lat="43.57015" lon="3.34036">
        <ele>255</ele>
        <time>2025-10-03T08:36:56.000Z</time>
      </trkpt>
      <trkpt lat="43.57021" lon="3.34025">
        <ele>255</ele>
        <time>2025-10-03T08:37:09.000Z</time>
      </trkpt>
      <trkpt lat="43.57025" lon="3.34013">
        <ele>254</ele>
        <time>2025-10-03T08:37:17.000Z</time>
      </trkpt>
      <trkpt lat="43.5703" lon="3.34">
        <ele>254</ele>
        <time>2025-10-03T08:37:26.000Z</time>
      </trkpt>
      <trkpt lat="43.57037" lon="3.3399">
        <ele>254</ele>
        <time>2025-10-03T08:37:32.000Z</time>
      </trkpt>
      <trkpt lat="43.57044" lon="3.33983">
        <ele>253</ele>
        <time>2025-10-03T08:37:40.000Z</time>
      </trkpt>
      <trkpt lat="43.57053" lon="3.33978">
        <ele>253</ele>
        <time>2025-10-03T08:37:46.000Z</time>
      </trkpt>
      <trkpt lat="43.57061" lon="3.33971">
        <ele>253</ele>
        <time>2025-10-03T08:37:54.000Z</time>
      </trkpt>
      <trkpt lat="43.57069" lon="3.33964">
        <ele>253</ele>
        <time>2025-10-03T08:38:04.000Z</time>
      </trkpt>
      <trkpt lat="43.57078" lon="3.33957">
        <ele>253</ele>
        <time>2025-10-03T08:38:12.000Z</time>
      </trkpt>
      <trkpt lat="43.57087" lon="3.33954">
        <ele>253</ele>
        <time>2025-10-03T08:38:22.000Z</time>
      </trkpt>
      <trkpt lat="43.57097" lon="3.33949">
        <ele>254</ele>
        <time>2025-10-03T08:38:32.000Z</time>
      </trkpt>
      <trkpt lat="43.57106" lon="3.33943">
        <ele>254</ele>
        <time>2025-10-03T08:38:40.000Z</time>
      </trkpt>
      <trkpt lat="43.57115" lon="3.33939">
        <ele>255</ele>
        <time>2025-10-03T08:38:48.000Z</time>
      </trkpt>
      <trkpt lat="43.57123" lon="3.33939">
        <ele>255</ele>
        <time>2025-10-03T08:38:58.000Z</time>
      </trkpt>
      <trkpt lat="43.57132" lon="3.33943">
        <ele>256</ele>
        <time>2025-10-03T08:39:06.000Z</time>
      </trkpt>
      <trkpt lat="43.57142" lon="3.33945">
        <ele>255</ele>
        <time>2025-10-03T08:39:16.000Z</time>
      </trkpt>
      <trkpt lat="43.57152" lon="3.33944">
        <ele>255</ele>
        <time>2025-10-03T08:39:26.000Z</time>
      </trkpt>
      <trkpt lat="43.57161" lon="3.33941">
        <ele>254</ele>
        <time>2025-10-03T08:39:31.000Z</time>
      </trkpt>
      <trkpt lat="43.57169" lon="3.33934">
        <ele>253</ele>
        <time>2025-10-03T08:39:38.000Z</time>
      </trkpt>
      <trkpt lat="43.57177" lon="3.33927">
        <ele>252</ele>
        <time>2025-10-03T08:39:46.000Z</time>
      </trkpt>
      <trkpt lat="43.57186" lon="3.33924">
        <ele>251</ele>
        <time>2025-10-03T08:39:53.000Z</time>
      </trkpt>
      <trkpt lat="43.57195" lon="3.33921">
        <ele>251</ele>
        <time>2025-10-03T08:40:02.000Z</time>
      </trkpt>
      <trkpt lat="43.57203" lon="3.33919">
        <ele>250</ele>
        <time>2025-10-03T08:40:12.000Z</time>
      </trkpt>
      <trkpt lat="43.57212" lon="3.33915">
        <ele>251</ele>
        <time>2025-10-03T08:40:19.000Z</time>
      </trkpt>
      <trkpt lat="43.57219" lon="3.3391">
        <ele>251</ele>
        <time>2025-10-03T08:40:26.000Z</time>
      </trkpt>
      <trkpt lat="43.57228" lon="3.33903">
        <ele>252</ele>
        <time>2025-10-03T08:40:34.000Z</time>
      </trkpt>
      <trkpt lat="43.57236" lon="3.33897">
        <ele>253</ele>
        <time>2025-10-03T08:40:41.000Z</time>
      </trkpt>
      <trkpt lat="43.57244" lon="3.33899">
        <ele>254</ele>
        <time>2025-10-03T08:40:50.000Z</time>
      </trkpt>
      <trkpt lat="43.57252" lon="3.33898">
        <ele>255</ele>
        <time>2025-10-03T08:41:00.000Z</time>
      </trkpt>
      <trkpt lat="43.5726" lon="3.33891">
        <ele>256</ele>
        <time>2025-10-03T08:41:10.000Z</time>
      </trkpt>
      <trkpt lat="43.57265" lon="3.3388">
        <ele>256</ele>
        <time>2025-10-03T08:41:23.000Z</time>
      </trkpt>
      <trkpt lat="43.5727" lon="3.33868">
        <ele>257</ele>
        <time>2025-10-03T08:41:31.000Z</time>
      </trkpt>
      <trkpt lat="43.57273" lon="3.33856">
        <ele>258</ele>
        <time>2025-10-03T08:41:39.000Z</time>
      </trkpt>
      <trkpt lat="43.5727" lon="3.33845">
        <ele>259</ele>
        <time>2025-10-03T08:41:47.000Z</time>
      </trkpt>
      <trkpt lat="43.57264" lon="3.33833">
        <ele>259</ele>
        <time>2025-10-03T08:42:04.000Z</time>
      </trkpt>
      <trkpt lat="43.5726" lon="3.33821">
        <ele>259</ele>
        <time>2025-10-03T08:42:10.000Z</time>
      </trkpt>
      <trkpt lat="43.57255" lon="3.3381">
        <ele>260</ele>
        <time>2025-10-03T08:42:19.000Z</time>
      </trkpt>
      <trkpt lat="43.57251" lon="3.33799">
        <ele>261</ele>
        <time>2025-10-03T08:42:28.000Z</time>
      </trkpt>
      <trkpt lat="43.57245" lon="3.33787">
        <ele>262</ele>
        <time>2025-10-03T08:42:38.000Z</time>
      </trkpt>
      <trkpt lat="43.57239" lon="3.33776">
        <ele>262</ele>
        <time>2025-10-03T08:42:46.000Z</time>
      </trkpt>
      <trkpt lat="43.57234" lon="3.33766">
        <ele>263</ele>
        <time>2025-10-03T08:42:53.000Z</time>
      </trkpt>
      <trkpt lat="43.57229" lon="3.33756">
        <ele>264</ele>
        <time>2025-10-03T08:43:01.000Z</time>
      </trkpt>
      <trkpt lat="43.57224" lon="3.33744">
        <ele>265</ele>
        <time>2025-10-03T08:43:12.000Z</time>
      </trkpt>
      <trkpt lat="43.57218" lon="3.33734">
        <ele>266</ele>
        <time>2025-10-03T08:43:20.000Z</time>
      </trkpt>
      <trkpt lat="43.57213" lon="3.33723">
        <ele>267</ele>
        <time>2025-10-03T08:43:28.000Z</time>
      </trkpt>
      <trkpt lat="43.57207" lon="3.33713">
        <ele>268</ele>
        <time>2025-10-03T08:43:35.000Z</time>
      </trkpt>
      <trkpt lat="43.57203" lon="3.33701">
        <ele>268</ele>
        <time>2025-10-03T08:43:44.000Z</time>
      </trkpt>
      <trkpt lat="43.57199" lon="3.3369">
        <ele>269</ele>
        <time>2025-10-03T08:43:52.000Z</time>
      </trkpt>
      <trkpt lat="43.57197" lon="3.33678">
        <ele>270</ele>
        <time>2025-10-03T08:44:00.000Z</time>
      </trkpt>
      <trkpt lat="43.57195" lon="3.33665">
        <ele>270</ele>
        <time>2025-10-03T08:44:07.000Z</time>
      </trkpt>
      <trkpt lat="43.57192" lon="3.33653">
        <ele>271</ele>
        <time>2025-10-03T08:44:16.000Z</time>
      </trkpt>
      <trkpt lat="43.57189" lon="3.33642">
        <ele>271</ele>
        <time>2025-10-03T08:44:27.000Z</time>
      </trkpt>
      <trkpt lat="43.57185" lon="3.3363">
        <ele>272</ele>
        <time>2025-10-03T08:44:38.000Z</time>
      </trkpt>
      <trkpt lat="43.57184" lon="3.33618">
        <ele>273</ele>
        <time>2025-10-03T08:44:44.000Z</time>
      </trkpt>
      <trkpt lat="43.57183" lon="3.33604">
        <ele>274</ele>
        <time>2025-10-03T08:44:52.000Z</time>
      </trkpt>
      <trkpt lat="43.57182" lon="3.33592">
        <ele>275</ele>
        <time>2025-10-03T08:45:00.000Z</time>
      </trkpt>
      <trkpt lat="43.57186" lon="3.33579">
        <ele>277</ele>
        <time>2025-10-03T08:45:10.000Z</time>
      </trkpt>
      <trkpt lat="43.57191" lon="3.33568">
        <ele>278</ele>
        <time>2025-10-03T08:45:18.000Z</time>
      </trkpt>
      <trkpt lat="43.57197" lon="3.33558">
        <ele>279</ele>
        <time>2025-10-03T08:45:26.000Z</time>
      </trkpt>
      <trkpt lat="43.57202" lon="3.33548">
        <ele>280</ele>
        <time>2025-10-03T08:45:34.000Z</time>
      </trkpt>
      <trkpt lat="43.57208" lon="3.33536">
        <ele>281</ele>
        <time>2025-10-03T08:45:43.000Z</time>
      </trkpt>
      <trkpt lat="43.57213" lon="3.33526">
        <ele>282</ele>
        <time>2025-10-03T08:45:51.000Z</time>
      </trkpt>
      <trkpt lat="43.57221" lon="3.33514">
        <ele>282</ele>
        <time>2025-10-03T08:46:00.000Z</time>
      </trkpt>
      <trkpt lat="43.57227" lon="3.33502">
        <ele>283</ele>
        <time>2025-10-03T08:46:10.000Z</time>
      </trkpt>
      <trkpt lat="43.5723" lon="3.33488">
        <ele>283</ele>
        <time>2025-10-03T08:46:18.000Z</time>
      </trkpt>
      <trkpt lat="43.57229" lon="3.33475">
        <ele>284</ele>
        <time>2025-10-03T08:46:26.000Z</time>
      </trkpt>
      <trkpt lat="43.5723" lon="3.33462">
        <ele>284</ele>
        <time>2025-10-03T08:46:32.000Z</time>
      </trkpt>
      <trkpt lat="43.57231" lon="3.3345">
        <ele>285</ele>
        <time>2025-10-03T08:46:39.000Z</time>
      </trkpt>
      <trkpt lat="43.57231" lon="3.33437">
        <ele>286</ele>
        <time>2025-10-03T08:46:50.000Z</time>
      </trkpt>
      <trkpt lat="43.57232" lon="3.33424">
        <ele>287</ele>
        <time>2025-10-03T08:46:57.000Z</time>
      </trkpt>
      <trkpt lat="43.57233" lon="3.33411">
        <ele>288</ele>
        <time>2025-10-03T08:47:06.000Z</time>
      </trkpt>
      <trkpt lat="43.57233" lon="3.33397">
        <ele>290</ele>
        <time>2025-10-03T08:47:14.000Z</time>
      </trkpt>
      <trkpt lat="43.57235" lon="3.33385">
        <ele>291</ele>
        <time>2025-10-03T08:47:21.000Z</time>
      </trkpt>
      <trkpt lat="43.57238" lon="3.33372">
        <ele>292</ele>
        <time>2025-10-03T08:47:30.000Z</time>
      </trkpt>
      <trkpt lat="43.57244" lon="3.33362">
        <ele>294</ele>
        <time>2025-10-03T08:47:39.000Z</time>
      </trkpt>
      <trkpt lat="43.57251" lon="3.33353">
        <ele>296</ele>
        <time>2025-10-03T08:47:52.000Z</time>
      </trkpt>
      <trkpt lat="43.57258" lon="3.33339">
        <ele>297</ele>
        <time>2025-10-03T08:53:02.000Z</time>
      </trkpt>
      <trkpt lat="43.57265" lon="3.3333">
        <ele>298</ele>
        <time>2025-10-03T08:53:13.000Z</time>
      </trkpt>
      <trkpt lat="43.57273" lon="3.33325">
        <ele>299</ele>
        <time>2025-10-03T08:53:26.000Z</time>
      </trkpt>
      <trkpt lat="43.5728" lon="3.33316">
        <ele>301</ele>
        <time>2025-10-03T08:53:39.000Z</time>
      </trkpt>
      <trkpt lat="43.57286" lon="3.33305">
        <ele>302</ele>
        <time>2025-10-03T08:53:50.000Z</time>
      </trkpt>
      <trkpt lat="43.5729" lon="3.33292">
        <ele>303</ele>
        <time>2025-10-03T08:53:55.000Z</time>
      </trkpt>
      <trkpt lat="43.57295" lon="3.33281">
        <ele>304</ele>
        <time>2025-10-03T08:54:01.000Z</time>
      </trkpt>
      <trkpt lat="43.57297" lon="3.33267">
        <ele>305</ele>
        <time>2025-10-03T08:54:13.000Z</time>
      </trkpt>
      <trkpt lat="43.57299" lon="3.33252">
        <ele>307</ele>
        <time>2025-10-03T08:54:30.000Z</time>
      </trkpt>
      <trkpt lat="43.57303" lon="3.3324">
        <ele>309</ele>
        <time>2025-10-03T08:54:42.000Z</time>
      </trkpt>
      <trkpt lat="43.57307" lon="3.33229">
        <ele>311</ele>
        <time>2025-10-03T08:54:53.000Z</time>
      </trkpt>
      <trkpt lat="43.57312" lon="3.33218">
        <ele>314</ele>
        <time>2025-10-03T08:55:02.000Z</time>
      </trkpt>
      <trkpt lat="43.57317" lon="3.33207">
        <ele>316</ele>
        <time>2025-10-03T08:55:09.000Z</time>
      </trkpt>
      <trkpt lat="43.57322" lon="3.33197">
        <ele>319</ele>
        <time>2025-10-03T08:55:23.000Z</time>
      </trkpt>
      <trkpt lat="43.57327" lon="3.33186">
        <ele>321</ele>
        <time>2025-10-03T08:55:39.000Z</time>
      </trkpt>
      <trkpt lat="43.57333" lon="3.33176">
        <ele>323</ele>
        <time>2025-10-03T08:55:48.000Z</time>
      </trkpt>
      <trkpt lat="43.57339" lon="3.33167">
        <ele>325</ele>
        <time>2025-10-03T08:56:06.000Z</time>
      </trkpt>
      <trkpt lat="43.57346" lon="3.33157">
        <ele>326</ele>
        <time>2025-10-03T08:56:16.000Z</time>
      </trkpt>
      <trkpt lat="43.57352" lon="3.33148">
        <ele>328</ele>
        <time>2025-10-03T08:56:26.000Z</time>
      </trkpt>
      <trkpt lat="43.57359" lon="3.33136">
        <ele>330</ele>
        <time>2025-10-03T08:56:34.000Z</time>
      </trkpt>
      <trkpt lat="43.57365" lon="3.33126">
        <ele>333</ele>
        <time>2025-10-03T08:56:53.000Z</time>
      </trkpt>
      <trkpt lat="43.57372" lon="3.33117">
        <ele>335</ele>
        <time>2025-10-03T08:57:06.000Z</time>
      </trkpt>
      <trkpt lat="43.57375" lon="3.33105">
        <ele>338</ele>
        <time>2025-10-03T08:58:31.000Z</time>
      </trkpt>
      <trkpt lat="43.57379" lon="3.33092">
        <ele>340</ele>
        <time>2025-10-03T08:58:54.000Z</time>
      </trkpt>
      <trkpt lat="43.57383" lon="3.33079">
        <ele>342</ele>
        <time>2025-10-03T08:59:06.000Z</time>
      </trkpt>
      <trkpt lat="43.57386" lon="3.33067">
        <ele>344</ele>
        <time>2025-10-03T08:59:17.000Z</time>
      </trkpt>
      <trkpt lat="43.57389" lon="3.33054">
        <ele>345</ele>
        <time>2025-10-03T08:59:27.000Z</time>
      </trkpt>
      <trkpt lat="43.57393" lon="3.33043">
        <ele>346</ele>
        <time>2025-10-03T08:59:40.000Z</time>
      </trkpt>
      <trkpt lat="43.57398" lon="3.33032">
        <ele>348</ele>
        <time>2025-10-03T08:59:50.000Z</time>
      </trkpt>
      <trkpt lat="43.57403" lon="3.33022">
        <ele>349</ele>
        <time>2025-10-03T09:00:06.000Z</time>
      </trkpt>
      <trkpt lat="43.57407" lon="3.3301">
        <ele>351</ele>
        <time>2025-10-03T09:00:16.000Z</time>
      </trkpt>
      <trkpt lat="43.57412" lon="3.32997">
        <ele>352</ele>
        <time>2025-10-03T09:00:36.000Z</time>
      </trkpt>
      <trkpt lat="43.57416" lon="3.32984">
        <ele>354</ele>
        <time>2025-10-03T09:00:52.000Z</time>
      </trkpt>
      <trkpt lat="43.57419" lon="3.32973">
        <ele>355</ele>
        <time>2025-10-03T09:01:04.000Z</time>
      </trkpt>
      <trkpt lat="43.57423" lon="3.32962">
        <ele>357</ele>
        <time>2025-10-03T09:01:18.000Z</time>
      </trkpt>
      <trkpt lat="43.57428" lon="3.3295">
        <ele>358</ele>
        <time>2025-10-03T09:01:32.000Z</time>
      </trkpt>
      <trkpt lat="43.57431" lon="3.32938">
        <ele>359</ele>
        <time>2025-10-03T09:01:44.000Z</time>
      </trkpt>
      <trkpt lat="43.57435" lon="3.32927">
        <ele>361</ele>
        <time>2025-10-03T09:01:54.000Z</time>
      </trkpt>
      <trkpt lat="43.57441" lon="3.32919">
        <ele>362</ele>
        <time>2025-10-03T09:02:06.000Z</time>
      </trkpt>
      <trkpt lat="43.57448" lon="3.3291">
        <ele>364</ele>
        <time>2025-10-03T09:02:16.000Z</time>
      </trkpt>
      <trkpt lat="43.57456" lon="3.32903">
        <ele>367</ele>
        <time>2025-10-03T09:02:30.000Z</time>
      </trkpt>
      <trkpt lat="43.57463" lon="3.32894">
        <ele>370</ele>
        <time>2025-10-03T09:02:42.000Z</time>
      </trkpt>
      <trkpt lat="43.57471" lon="3.32886">
        <ele>372</ele>
        <time>2025-10-03T09:02:56.000Z</time>
      </trkpt>
      <trkpt lat="43.57478" lon="3.32878">
        <ele>374</ele>
        <time>2025-10-03T09:03:10.000Z</time>
      </trkpt>
      <trkpt lat="43.57486" lon="3.3287">
        <ele>376</ele>
        <time>2025-10-03T09:03:24.000Z</time>
      </trkpt>
      <trkpt lat="43.57495" lon="3.32862">
        <ele>378</ele>
        <time>2025-10-03T09:03:34.000Z</time>
      </trkpt>
      <trkpt lat="43.57502" lon="3.32855">
        <ele>379</ele>
        <time>2025-10-03T09:03:42.000Z</time>
      </trkpt>
      <trkpt lat="43.5751" lon="3.32846">
        <ele>381</ele>
        <time>2025-10-03T09:03:49.000Z</time>
      </trkpt>
      <trkpt lat="43.57517" lon="3.32839">
        <ele>383</ele>
        <time>2025-10-03T09:03:59.000Z</time>
      </trkpt>
      <trkpt lat="43.57525" lon="3.32831">
        <ele>384</ele>
        <time>2025-10-03T09:04:12.000Z</time>
      </trkpt>
      <trkpt lat="43.57532" lon="3.32823">
        <ele>385</ele>
        <time>2025-10-03T09:04:26.000Z</time>
      </trkpt>
      <trkpt lat="43.57541" lon="3.32815">
        <ele>386</ele>
        <time>2025-10-03T09:04:36.000Z</time>
      </trkpt>
      <trkpt lat="43.57548" lon="3.32807">
        <ele>387</ele>
        <time>2025-10-03T09:04:44.000Z</time>
      </trkpt>
      <trkpt lat="43.57555" lon="3.32798">
        <ele>388</ele>
        <time>2025-10-03T09:04:58.000Z</time>
      </trkpt>
      <trkpt lat="43.57562" lon="3.32787">
        <ele>389</ele>
        <time>2025-10-03T09:05:16.000Z</time>
      </trkpt>
      <trkpt lat="43.5757" lon="3.32777">
        <ele>390</ele>
        <time>2025-10-03T09:05:25.000Z</time>
      </trkpt>
      <trkpt lat="43.57578" lon="3.32768">
        <ele>391</ele>
        <time>2025-10-03T09:05:44.000Z</time>
      </trkpt>
      <trkpt lat="43.57587" lon="3.32762">
        <ele>393</ele>
        <time>2025-10-03T09:05:55.000Z</time>
      </trkpt>
      <trkpt lat="43.57595" lon="3.32755">
        <ele>394</ele>
        <time>2025-10-03T09:06:10.000Z</time>
      </trkpt>
      <trkpt lat="43.57604" lon="3.3275">
        <ele>395</ele>
        <time>2025-10-03T09:06:25.000Z</time>
      </trkpt>
      <trkpt lat="43.57612" lon="3.32744">
        <ele>396</ele>
        <time>2025-10-03T09:06:36.000Z</time>
      </trkpt>
      <trkpt lat="43.57621" lon="3.32742">
        <ele>397</ele>
        <time>2025-10-03T09:06:47.000Z</time>
      </trkpt>
      <trkpt lat="43.57631" lon="3.32738">
        <ele>398</ele>
        <time>2025-10-03T09:07:00.000Z</time>
      </trkpt>
      <trkpt lat="43.5764" lon="3.32733">
        <ele>398</ele>
        <time>2025-10-03T09:07:10.000Z</time>
      </trkpt>
      <trkpt lat="43.57649" lon="3.32727">
        <ele>399</ele>
        <time>2025-10-03T09:07:21.000Z</time>
      </trkpt>
      <trkpt lat="43.57657" lon="3.32721">
        <ele>400</ele>
        <time>2025-10-03T09:07:29.000Z</time>
      </trkpt>
      <trkpt lat="43.57665" lon="3.32715">
        <ele>401</ele>
        <time>2025-10-03T09:07:41.000Z</time>
      </trkpt>
      <trkpt lat="43.57674" lon="3.32711">
        <ele>402</ele>
        <time>2025-10-03T09:07:50.000Z</time>
      </trkpt>
      <trkpt lat="43.57682" lon="3.32707">
        <ele>403</ele>
        <time>2025-10-03T09:07:57.000Z</time>
      </trkpt>
      <trkpt lat="43.5769" lon="3.32703">
        <ele>404</ele>
        <time>2025-10-03T09:08:06.000Z</time>
      </trkpt>
      <trkpt lat="43.57698" lon="3.32698">
        <ele>406</ele>
        <time>2025-10-03T09:08:16.000Z</time>
      </trkpt>
      <trkpt lat="43.57707" lon="3.32693">
        <ele>407</ele>
        <time>2025-10-03T09:08:22.000Z</time>
      </trkpt>
      <trkpt lat="43.57716" lon="3.32688">
        <ele>408</ele>
        <time>2025-10-03T09:08:32.000Z</time>
      </trkpt>
      <trkpt lat="43.57725" lon="3.32682">
        <ele>409</ele>
        <time>2025-10-03T09:08:42.000Z</time>
      </trkpt>
      <trkpt lat="43.57733" lon="3.32675">
        <ele>409</ele>
        <time>2025-10-03T09:08:52.000Z</time>
      </trkpt>
      <trkpt lat="43.5774" lon="3.32665">
        <ele>409</ele>
        <time>2025-10-03T09:09:02.000Z</time>
      </trkpt>
      <trkpt lat="43.57747" lon="3.32655">
        <ele>408</ele>
        <time>2025-10-03T09:09:11.000Z</time>
      </trkpt>
      <trkpt lat="43.57753" lon="3.32644">
        <ele>408</ele>
        <time>2025-10-03T09:09:20.000Z</time>
      </trkpt>
      <trkpt lat="43.57761" lon="3.32632">
        <ele>407</ele>
        <time>2025-10-03T09:09:28.000Z</time>
      </trkpt>
      <trkpt lat="43.57767" lon="3.32621">
        <ele>407</ele>
        <time>2025-10-03T09:09:34.000Z</time>
      </trkpt>
      <trkpt lat="43.57772" lon="3.32608">
        <ele>406</ele>
        <time>2025-10-03T09:09:44.000Z</time>
      </trkpt>
      <trkpt lat="43.57777" lon="3.32597">
        <ele>405</ele>
        <time>2025-10-03T09:09:52.000Z</time>
      </trkpt>
      <trkpt lat="43.57783" lon="3.32588">
        <ele>405</ele>
        <time>2025-10-03T09:10:02.000Z</time>
      </trkpt>
      <trkpt lat="43.57791" lon="3.3258">
        <ele>405</ele>
        <time>2025-10-03T09:10:12.000Z</time>
      </trkpt>
      <trkpt lat="43.578" lon="3.32573">
        <ele>405</ele>
        <time>2025-10-03T09:10:20.000Z</time>
      </trkpt>
      <trkpt lat="43.57806" lon="3.32563">
        <ele>406</ele>
        <time>2025-10-03T09:10:28.000Z</time>
      </trkpt>
      <trkpt lat="43.57813" lon="3.32553">
        <ele>405</ele>
        <time>2025-10-03T09:10:38.000Z</time>
      </trkpt>
      <trkpt lat="43.5782" lon="3.32545">
        <ele>405</ele>
        <time>2025-10-03T09:11:38.000Z</time>
      </trkpt>
      <trkpt lat="43.57827" lon="3.32537">
        <ele>405</ele>
        <time>2025-10-03T09:12:03.000Z</time>
      </trkpt>
      <trkpt lat="43.57837" lon="3.32535">
        <ele>404</ele>
        <time>2025-10-03T09:13:50.000Z</time>
      </trkpt>
      <trkpt lat="43.57846" lon="3.32532">
        <ele>404</ele>
        <time>2025-10-03T09:14:08.000Z</time>
      </trkpt>
      <trkpt lat="43.57855" lon="3.32527">
        <ele>405</ele>
        <time>2025-10-03T09:14:18.000Z</time>
      </trkpt>
      <trkpt lat="43.57863" lon="3.32522">
        <ele>406</ele>
        <time>2025-10-03T09:14:26.000Z</time>
      </trkpt>
      <trkpt lat="43.57872" lon="3.32518">
        <ele>406</ele>
        <time>2025-10-03T09:14:35.000Z</time>
      </trkpt>
      <trkpt lat="43.57881" lon="3.32515">
        <ele>406</ele>
        <time>2025-10-03T09:14:44.000Z</time>
      </trkpt>
      <trkpt lat="43.5789" lon="3.32515">
        <ele>406</ele>
        <time>2025-10-03T09:14:52.000Z</time>
      </trkpt>
      <trkpt lat="43.579" lon="3.32515">
        <ele>406</ele>
        <time>2025-10-03T09:15:00.000Z</time>
      </trkpt>
      <trkpt lat="43.57909" lon="3.32509">
        <ele>405</ele>
        <time>2025-10-03T09:15:12.000Z</time>
      </trkpt>
      <trkpt lat="43.57917" lon="3.32503">
        <ele>405</ele>
        <time>2025-10-03T09:15:17.000Z</time>
      </trkpt>
      <trkpt lat="43.57925" lon="3.32497">
        <ele>404</ele>
        <time>2025-10-03T09:15:29.000Z</time>
      </trkpt>
      <trkpt lat="43.57934" lon="3.32491">
        <ele>404</ele>
        <time>2025-10-03T09:15:39.000Z</time>
      </trkpt>
      <trkpt lat="43.57941" lon="3.32483">
        <ele>404</ele>
        <time>2025-10-03T09:15:48.000Z</time>
      </trkpt>
      <trkpt lat="43.57948" lon="3.32474">
        <ele>403</ele>
        <time>2025-10-03T09:15:56.000Z</time>
      </trkpt>
      <trkpt lat="43.57955" lon="3.32465">
        <ele>402</ele>
        <time>2025-10-03T09:16:03.000Z</time>
      </trkpt>
      <trkpt lat="43.57961" lon="3.32456">
        <ele>401</ele>
        <time>2025-10-03T09:16:12.000Z</time>
      </trkpt>
      <trkpt lat="43.57965" lon="3.32445">
        <ele>400</ele>
        <time>2025-10-03T09:16:20.000Z</time>
      </trkpt>
      <trkpt lat="43.57968" lon="3.32433">
        <ele>399</ele>
        <time>2025-10-03T09:16:30.000Z</time>
      </trkpt>
      <trkpt lat="43.57973" lon="3.32421">
        <ele>398</ele>
        <time>2025-10-03T09:16:40.000Z</time>
      </trkpt>
      <trkpt lat="43.57976" lon="3.32408">
        <ele>397</ele>
        <time>2025-10-03T09:16:52.000Z</time>
      </trkpt>
      <trkpt lat="43.5798" lon="3.32393">
        <ele>396</ele>
        <time>2025-10-03T09:17:04.000Z</time>
      </trkpt>
      <trkpt lat="43.57981" lon="3.3238">
        <ele>395</ele>
        <time>2025-10-03T09:17:14.000Z</time>
      </trkpt>
      <trkpt lat="43.57983" lon="3.32366">
        <ele>394</ele>
        <time>2025-10-03T09:17:24.000Z</time>
      </trkpt>
      <trkpt lat="43.57985" lon="3.32353">
        <ele>393</ele>
        <time>2025-10-03T09:17:33.000Z</time>
      </trkpt>
      <trkpt lat="43.57986" lon="3.32339">
        <ele>392</ele>
        <time>2025-10-03T09:17:44.000Z</time>
      </trkpt>
      <trkpt lat="43.57986" lon="3.32326">
        <ele>392</ele>
        <time>2025-10-03T09:17:52.000Z</time>
      </trkpt>
      <trkpt lat="43.57986" lon="3.32314">
        <ele>392</ele>
        <time>2025-10-03T09:18:01.000Z</time>
      </trkpt>
      <trkpt lat="43.57989" lon="3.32302">
        <ele>392</ele>
        <time>2025-10-03T09:18:18.000Z</time>
      </trkpt>
      <trkpt lat="43.5799" lon="3.32289">
        <ele>391</ele>
        <time>2025-10-03T09:18:29.000Z</time>
      </trkpt>
      <trkpt lat="43.57991" lon="3.32275">
        <ele>390</ele>
        <time>2025-10-03T09:18:43.000Z</time>
      </trkpt>
      <trkpt lat="43.57993" lon="3.32261">
        <ele>388</ele>
        <time>2025-10-03T09:18:55.000Z</time>
      </trkpt>
      <trkpt lat="43.57994" lon="3.32249">
        <ele>386</ele>
        <time>2025-10-03T09:19:03.000Z</time>
      </trkpt>
      <trkpt lat="43.57992" lon="3.32236">
        <ele>384</ele>
        <time>2025-10-03T09:19:17.000Z</time>
      </trkpt>
      <trkpt lat="43.57989" lon="3.32224">
        <ele>382</ele>
        <time>2025-10-03T09:19:32.000Z</time>
      </trkpt>
      <trkpt lat="43.57982" lon="3.32212">
        <ele>380</ele>
        <time>2025-10-03T09:19:44.000Z</time>
      </trkpt>
      <trkpt lat="43.57976" lon="3.32204">
        <ele>378</ele>
        <time>2025-10-03T09:20:00.000Z</time>
      </trkpt>
      <trkpt lat="43.57969" lon="3.32195">
        <ele>376</ele>
        <time>2025-10-03T09:20:14.000Z</time>
      </trkpt>
      <trkpt lat="43.57962" lon="3.32186">
        <ele>374</ele>
        <time>2025-10-03T09:20:34.000Z</time>
      </trkpt>
      <trkpt lat="43.57954" lon="3.32178">
        <ele>371</ele>
        <time>2025-10-03T09:21:06.000Z</time>
      </trkpt>
      <trkpt lat="43.57942" lon="3.32173">
        <ele>368</ele>
        <time>2025-10-03T09:21:34.000Z</time>
      </trkpt>
      <trkpt lat="43.57933" lon="3.32166">
        <ele>366</ele>
        <time>2025-10-03T09:21:46.000Z</time>
      </trkpt>
      <trkpt lat="43.57925" lon="3.3216">
        <ele>363</ele>
        <time>2025-10-03T09:21:58.000Z</time>
      </trkpt>
      <trkpt lat="43.57919" lon="3.32151">
        <ele>360</ele>
        <time>2025-10-03T09:22:22.000Z</time>
      </trkpt>
      <trkpt lat="43.57912" lon="3.32143">
        <ele>358</ele>
        <time>2025-10-03T09:22:54.000Z</time>
      </trkpt>
      <trkpt lat="43.57905" lon="3.32139">
        <ele>356</ele>
        <time>2025-10-03T09:23:29.000Z</time>
      </trkpt>
      <trkpt lat="43.57899" lon="3.32148">
        <ele>353</ele>
        <time>2025-10-03T09:23:46.000Z</time>
      </trkpt>
      <trkpt lat="43.57897" lon="3.3216">
        <ele>351</ele>
        <time>2025-10-03T09:24:00.000Z</time>
      </trkpt>
      <trkpt lat="43.57897" lon="3.32173">
        <ele>349</ele>
        <time>2025-10-03T09:24:10.000Z</time>
      </trkpt>
      <trkpt lat="43.57898" lon="3.32186">
        <ele>347</ele>
        <time>2025-10-03T09:24:22.000Z</time>
      </trkpt>
      <trkpt lat="43.57896" lon="3.32196">
        <ele>346</ele>
        <time>2025-10-03T09:24:35.000Z</time>
      </trkpt>
      <trkpt lat="43.57887" lon="3.32199">
        <ele>344</ele>
        <time>2025-10-03T09:24:54.000Z</time>
      </trkpt>
      <trkpt lat="43.57879" lon="3.32205">
        <ele>342</ele>
        <time>2025-10-03T09:25:09.000Z</time>
      </trkpt>
      <trkpt lat="43.5787" lon="3.3221">
        <ele>340</ele>
        <time>2025-10-03T09:25:21.000Z</time>
      </trkpt>
      <trkpt lat="43.57862" lon="3.32213">
        <ele>338</ele>
        <time>2025-10-03T09:25:34.000Z</time>
      </trkpt>
      <trkpt lat="43.57855" lon="3.32221">
        <ele>337</ele>
        <time>2025-10-03T09:25:46.000Z</time>
      </trkpt>
      <trkpt lat="43.5785" lon="3.32232">
        <ele>336</ele>
        <time>2025-10-03T09:25:55.000Z</time>
      </trkpt>
      <trkpt lat="43.57846" lon="3.32242">
        <ele>336</ele>
        <time>2025-10-03T09:26:08.000Z</time>
      </trkpt>
      <trkpt lat="43.5784" lon="3.32251">
        <ele>337</ele>
        <time>2025-10-03T09:26:22.000Z</time>
      </trkpt>
      <trkpt lat="43.57833" lon="3.32249">
        <ele>338</ele>
        <time>2025-10-03T09:26:34.000Z</time>
      </trkpt>
      <trkpt lat="43.57825" lon="3.32243">
        <ele>339</ele>
        <time>2025-10-03T09:26:45.000Z</time>
      </trkpt>
      <trkpt lat="43.57816" lon="3.32242">
        <ele>339</ele>
        <time>2025-10-03T09:26:56.000Z</time>
      </trkpt>
      <trkpt lat="43.57806" lon="3.32238">
        <ele>339</ele>
        <time>2025-10-03T09:27:05.000Z</time>
      </trkpt>
      <trkpt lat="43.57797" lon="3.32233">
        <ele>337</ele>
        <time>2025-10-03T09:27:13.000Z</time>
      </trkpt>
      <trkpt lat="43.57788" lon="3.32231">
        <ele>335</ele>
        <time>2025-10-03T09:27:24.000Z</time>
      </trkpt>
      <trkpt lat="43.57779" lon="3.32233">
        <ele>334</ele>
        <time>2025-10-03T09:27:34.000Z</time>
      </trkpt>
      <trkpt lat="43.57769" lon="3.32235">
        <ele>332</ele>
        <time>2025-10-03T09:27:48.000Z</time>
      </trkpt>
      <trkpt lat="43.57761" lon="3.3223">
        <ele>328</ele>
        <time>2025-10-03T09:28:05.000Z</time>
      </trkpt>
      <trkpt lat="43.57753" lon="3.32226">
        <ele>325</ele>
        <time>2025-10-03T09:28:24.000Z</time>
      </trkpt>
      <trkpt lat="43.57744" lon="3.32227">
        <ele>321</ele>
        <time>2025-10-03T09:28:38.000Z</time>
      </trkpt>
      <trkpt lat="43.57738" lon="3.32235">
        <ele>319</ele>
        <time>2025-10-03T09:28:54.000Z</time>
      </trkpt>
      <trkpt lat="43.57731" lon="3.32245">
        <ele>318</ele>
        <time>2025-10-03T09:30:18.000Z</time>
      </trkpt>
      <trkpt lat="43.57722" lon="3.32245">
        <ele>317</ele>
        <time>2025-10-03T09:30:50.000Z</time>
      </trkpt>
      <trkpt lat="43.57715" lon="3.32238">
        <ele>314</ele>
        <time>2025-10-03T09:31:16.000Z</time>
      </trkpt>
      <trkpt lat="43.5771" lon="3.32228">
        <ele>311</ele>
        <time>2025-10-03T09:31:51.000Z</time>
      </trkpt>
      <trkpt lat="43.57703" lon="3.32218">
        <ele>309</ele>
        <time>2025-10-03T09:32:08.000Z</time>
      </trkpt>
      <trkpt lat="43.577" lon="3.32212">
        <ele>306</ele>
        <time>2025-10-03T09:32:24.000Z</time>
      </trkpt>
      <trkpt lat="43.57709" lon="3.32219">
        <ele>306</ele>
        <time>2025-10-03T09:33:45.000Z</time>
      </trkpt>
      <trkpt lat="43.57698" lon="3.32206">
        <ele>305</ele>
        <time>2025-10-03T09:33:47.000Z</time>
      </trkpt>
      <trkpt lat="43.57689" lon="3.322">
        <ele>304</ele>
        <time>2025-10-03T09:35:45.000Z</time>
      </trkpt>
      <trkpt lat="43.5768" lon="3.32201">
        <ele>304</ele>
        <time>2025-10-03T09:38:54.000Z</time>
      </trkpt>
      <trkpt lat="43.57671" lon="3.322">
        <ele>303</ele>
        <time>2025-10-03T09:39:04.000Z</time>
      </trkpt>
      <trkpt lat="43.57662" lon="3.32201">
        <ele>302</ele>
        <time>2025-10-03T09:39:21.000Z</time>
      </trkpt>
      <trkpt lat="43.57653" lon="3.32204">
        <ele>302</ele>
        <time>2025-10-03T09:39:31.000Z</time>
      </trkpt>
      <trkpt lat="43.57643" lon="3.32203">
        <ele>303</ele>
        <time>2025-10-03T09:39:43.000Z</time>
      </trkpt>
      <trkpt lat="43.57633" lon="3.32203">
        <ele>304</ele>
        <time>2025-10-03T09:40:19.000Z</time>
      </trkpt>
      <trkpt lat="43.57623" lon="3.32202">
        <ele>305</ele>
        <time>2025-10-03T09:40:43.000Z</time>
      </trkpt>
      <trkpt lat="43.57614" lon="3.322">
        <ele>307</ele>
        <time>2025-10-03T09:40:51.000Z</time>
      </trkpt>
      <trkpt lat="43.57605" lon="3.32202">
        <ele>309</ele>
        <time>2025-10-03T09:41:09.000Z</time>
      </trkpt>
      <trkpt lat="43.57597" lon="3.32205">
        <ele>311</ele>
        <time>2025-10-03T09:41:19.000Z</time>
      </trkpt>
      <trkpt lat="43.57589" lon="3.32205">
        <ele>312</ele>
        <time>2025-10-03T09:41:37.000Z</time>
      </trkpt>
      <trkpt lat="43.57586" lon="3.32194">
        <ele>314</ele>
        <time>2025-10-03T09:41:51.000Z</time>
      </trkpt>
      <trkpt lat="43.57583" lon="3.32183">
        <ele>314</ele>
        <time>2025-10-03T09:41:59.000Z</time>
      </trkpt>
      <trkpt lat="43.57576" lon="3.32174">
        <ele>315</ele>
        <time>2025-10-03T09:42:13.000Z</time>
      </trkpt>
      <trkpt lat="43.57572" lon="3.32163">
        <ele>316</ele>
        <time>2025-10-03T09:42:21.000Z</time>
      </trkpt>
      <trkpt lat="43.57564" lon="3.3216">
        <ele>317</ele>
        <time>2025-10-03T09:42:29.000Z</time>
      </trkpt>
      <trkpt lat="43.57556" lon="3.32166">
        <ele>317</ele>
        <time>2025-10-03T09:42:37.000Z</time>
      </trkpt>
      <trkpt lat="43.5755" lon="3.32175">
        <ele>318</ele>
        <time>2025-10-03T09:42:50.000Z</time>
      </trkpt>
      <trkpt lat="43.57544" lon="3.32185">
        <ele>319</ele>
        <time>2025-10-03T09:42:58.000Z</time>
      </trkpt>
      <trkpt lat="43.57537" lon="3.32194">
        <ele>321</ele>
        <time>2025-10-03T09:43:11.000Z</time>
      </trkpt>
      <trkpt lat="43.57528" lon="3.32199">
        <ele>323</ele>
        <time>2025-10-03T09:43:22.000Z</time>
      </trkpt>
      <trkpt lat="43.57521" lon="3.322">
        <ele>325</ele>
        <time>2025-10-03T09:43:31.000Z</time>
      </trkpt>
      <trkpt lat="43.57522" lon="3.32189">
        <ele>327</ele>
        <time>2025-10-03T09:44:13.000Z</time>
      </trkpt>
      <trkpt lat="43.57525" lon="3.32175">
        <ele>329</ele>
        <time>2025-10-03T09:44:34.000Z</time>
      </trkpt>
      <trkpt lat="43.57528" lon="3.32161">
        <ele>330</ele>
        <time>2025-10-03T09:44:47.000Z</time>
      </trkpt>
      <trkpt lat="43.5753" lon="3.32148">
        <ele>331</ele>
        <time>2025-10-03T09:45:01.000Z</time>
      </trkpt>
      <trkpt lat="43.57527" lon="3.32135">
        <ele>332</ele>
        <time>2025-10-03T09:45:17.000Z</time>
      </trkpt>
      <trkpt lat="43.57522" lon="3.32125">
        <ele>334</ele>
        <time>2025-10-03T09:45:29.000Z</time>
      </trkpt>
      <trkpt lat="43.57522" lon="3.32112">
        <ele>335</ele>
        <time>2025-10-03T09:45:42.000Z</time>
      </trkpt>
      <trkpt lat="43.57522" lon="3.32098">
        <ele>337</ele>
        <time>2025-10-03T09:45:52.000Z</time>
      </trkpt>
      <trkpt lat="43.5752" lon="3.32087">
        <ele>338</ele>
        <time>2025-10-03T09:46:02.000Z</time>
      </trkpt>
      <trkpt lat="43.57513" lon="3.32079">
        <ele>340</ele>
        <time>2025-10-03T09:46:27.000Z</time>
      </trkpt>
      <trkpt lat="43.57509" lon="3.32068">
        <ele>342</ele>
        <time>2025-10-03T09:46:43.000Z</time>
      </trkpt>
      <trkpt lat="43.57505" lon="3.32055">
        <ele>344</ele>
        <time>2025-10-03T09:46:56.000Z</time>
      </trkpt>
      <trkpt lat="43.57501" lon="3.32043">
        <ele>346</ele>
        <time>2025-10-03T09:47:08.000Z</time>
      </trkpt>
      <trkpt lat="43.57495" lon="3.32031">
        <ele>347</ele>
        <time>2025-10-03T09:47:18.000Z</time>
      </trkpt>
      <trkpt lat="43.57492" lon="3.3202">
        <ele>349</ele>
        <time>2025-10-03T09:47:30.000Z</time>
      </trkpt>
      <trkpt lat="43.57488" lon="3.32009">
        <ele>351</ele>
        <time>2025-10-03T09:47:38.000Z</time>
      </trkpt>
      <trkpt lat="43.57482" lon="3.32">
        <ele>352</ele>
        <time>2025-10-03T09:47:51.000Z</time>
      </trkpt>
      <trkpt lat="43.57479" lon="3.31987">
        <ele>353</ele>
        <time>2025-10-03T09:48:01.000Z</time>
      </trkpt>
      <trkpt lat="43.57476" lon="3.31975">
        <ele>354</ele>
        <time>2025-10-03T09:48:15.000Z</time>
      </trkpt>
      <trkpt lat="43.5747" lon="3.31963">
        <ele>355</ele>
        <time>2025-10-03T09:48:25.000Z</time>
      </trkpt>
      <trkpt lat="43.57466" lon="3.31952">
        <ele>356</ele>
        <time>2025-10-03T09:48:41.000Z</time>
      </trkpt>
      <trkpt lat="43.57463" lon="3.31939">
        <ele>358</ele>
        <time>2025-10-03T09:48:51.000Z</time>
      </trkpt>
      <trkpt lat="43.57461" lon="3.31927">
        <ele>360</ele>
        <time>2025-10-03T09:49:03.000Z</time>
      </trkpt>
      <trkpt lat="43.57457" lon="3.31915">
        <ele>362</ele>
        <time>2025-10-03T09:49:15.000Z</time>
      </trkpt>
      <trkpt lat="43.57452" lon="3.31905">
        <ele>364</ele>
        <time>2025-10-03T09:49:26.000Z</time>
      </trkpt>
      <trkpt lat="43.57448" lon="3.31894">
        <ele>366</ele>
        <time>2025-10-03T09:49:34.000Z</time>
      </trkpt>
      <trkpt lat="43.57444" lon="3.31883">
        <ele>368</ele>
        <time>2025-10-03T09:49:45.000Z</time>
      </trkpt>
      <trkpt lat="43.57439" lon="3.31872">
        <ele>369</ele>
        <time>2025-10-03T09:49:56.000Z</time>
      </trkpt>
      <trkpt lat="43.57435" lon="3.31861">
        <ele>371</ele>
        <time>2025-10-03T09:50:05.000Z</time>
      </trkpt>
      <trkpt lat="43.5743" lon="3.31851">
        <ele>372</ele>
        <time>2025-10-03T09:50:17.000Z</time>
      </trkpt>
      <trkpt lat="43.57424" lon="3.3184">
        <ele>372</ele>
        <time>2025-10-03T09:51:51.000Z</time>
      </trkpt>
      <trkpt lat="43.57419" lon="3.3183">
        <ele>373</ele>
        <time>2025-10-03T09:52:01.000Z</time>
      </trkpt>
      <trkpt lat="43.57415" lon="3.31819">
        <ele>374</ele>
        <time>2025-10-03T09:52:13.000Z</time>
      </trkpt>
      <trkpt lat="43.5741" lon="3.31809">
        <ele>375</ele>
        <time>2025-10-03T09:52:23.000Z</time>
      </trkpt>
      <trkpt lat="43.57405" lon="3.31797">
        <ele>375</ele>
        <time>2025-10-03T09:52:35.000Z</time>
      </trkpt>
      <trkpt lat="43.57399" lon="3.31788">
        <ele>376</ele>
        <time>2025-10-03T09:52:44.000Z</time>
      </trkpt>
      <trkpt lat="43.57398" lon="3.31776">
        <ele>377</ele>
        <time>2025-10-03T09:52:53.000Z</time>
      </trkpt>
      <trkpt lat="43.57393" lon="3.31766">
        <ele>378</ele>
        <time>2025-10-03T09:53:07.000Z</time>
      </trkpt>
      <trkpt lat="43.57388" lon="3.31756">
        <ele>379</ele>
        <time>2025-10-03T09:53:17.000Z</time>
      </trkpt>
      <trkpt lat="43.57384" lon="3.31744">
        <ele>379</ele>
        <time>2025-10-03T09:54:03.000Z</time>
      </trkpt>
      <trkpt lat="43.57384" lon="3.31731">
        <ele>380</ele>
        <time>2025-10-03T09:54:10.000Z</time>
      </trkpt>
      <trkpt lat="43.57384" lon="3.31718">
        <ele>380</ele>
        <time>2025-10-03T09:54:23.000Z</time>
      </trkpt>
      <trkpt lat="43.57384" lon="3.31704">
        <ele>380</ele>
        <time>2025-10-03T09:54:32.000Z</time>
      </trkpt>
      <trkpt lat="43.57385" lon="3.3169">
        <ele>380</ele>
        <time>2025-10-03T09:54:43.000Z</time>
      </trkpt>
      <trkpt lat="43.57384" lon="3.31677">
        <ele>380</ele>
        <time>2025-10-03T09:54:54.000Z</time>
      </trkpt>
      <trkpt lat="43.57382" lon="3.31665">
        <ele>380</ele>
        <time>2025-10-03T09:55:05.000Z</time>
      </trkpt>
      <trkpt lat="43.57378" lon="3.31654">
        <ele>380</ele>
        <time>2025-10-03T09:55:11.000Z</time>
      </trkpt>
      <trkpt lat="43.57375" lon="3.31643">
        <ele>380</ele>
        <time>2025-10-03T09:55:20.000Z</time>
      </trkpt>
      <trkpt lat="43.57371" lon="3.31632">
        <ele>381</ele>
        <time>2025-10-03T09:55:30.000Z</time>
      </trkpt>
      <trkpt lat="43.57366" lon="3.31621">
        <ele>381</ele>
        <time>2025-10-03T09:55:43.000Z</time>
      </trkpt>
      <trkpt lat="43.57367" lon="3.31608">
        <ele>382</ele>
        <time>2025-10-03T09:55:53.000Z</time>
      </trkpt>
      <trkpt lat="43.5737" lon="3.31595">
        <ele>382</ele>
        <time>2025-10-03T09:56:04.000Z</time>
      </trkpt>
      <trkpt lat="43.57373" lon="3.31582">
        <ele>383</ele>
        <time>2025-10-03T09:56:12.000Z</time>
      </trkpt>
      <trkpt lat="43.57375" lon="3.31569">
        <ele>383</ele>
        <time>2025-10-03T09:56:21.000Z</time>
      </trkpt>
      <trkpt lat="43.5738" lon="3.31558">
        <ele>382</ele>
        <time>2025-10-03T09:56:29.000Z</time>
      </trkpt>
      <trkpt lat="43.57385" lon="3.31547">
        <ele>381</ele>
        <time>2025-10-03T09:56:38.000Z</time>
      </trkpt>
      <trkpt lat="43.5739" lon="3.31536">
        <ele>380</ele>
        <time>2025-10-03T09:56:47.000Z</time>
      </trkpt>
      <trkpt lat="43.57395" lon="3.31525">
        <ele>380</ele>
        <time>2025-10-03T09:56:57.000Z</time>
      </trkpt>
      <trkpt lat="43.57396" lon="3.31512">
        <ele>379</ele>
        <time>2025-10-03T09:57:08.000Z</time>
      </trkpt>
      <trkpt lat="43.57392" lon="3.31499">
        <ele>378</ele>
        <time>2025-10-03T09:57:19.000Z</time>
      </trkpt>
      <trkpt lat="43.57391" lon="3.31487">
        <ele>377</ele>
        <time>2025-10-03T09:57:27.000Z</time>
      </trkpt>
      <trkpt lat="43.57392" lon="3.31475">
        <ele>375</ele>
        <time>2025-10-03T09:57:59.000Z</time>
      </trkpt>
      <trkpt lat="43.57387" lon="3.31464">
        <ele>373</ele>
        <time>2025-10-03T09:58:08.000Z</time>
      </trkpt>
      <trkpt lat="43.57384" lon="3.31453">
        <ele>371</ele>
        <time>2025-10-03T09:58:21.000Z</time>
      </trkpt>
      <trkpt lat="43.57381" lon="3.31441">
        <ele>370</ele>
        <time>2025-10-03T09:58:36.000Z</time>
      </trkpt>
      <trkpt lat="43.57377" lon="3.3143">
        <ele>369</ele>
        <time>2025-10-03T09:58:45.000Z</time>
      </trkpt>
      <trkpt lat="43.57372" lon="3.31418">
        <ele>369</ele>
        <time>2025-10-03T09:58:55.000Z</time>
      </trkpt>
      <trkpt lat="43.57366" lon="3.31408">
        <ele>368</ele>
        <time>2025-10-03T09:59:04.000Z</time>
      </trkpt>
      <trkpt lat="43.57357" lon="3.31403">
        <ele>368</ele>
        <time>2025-10-03T09:59:24.000Z</time>
      </trkpt>
      <trkpt lat="43.57347" lon="3.31401">
        <ele>368</ele>
        <time>2025-10-03T09:59:39.000Z</time>
      </trkpt>
      <trkpt lat="43.57338" lon="3.31401">
        <ele>368</ele>
        <time>2025-10-03T09:59:51.000Z</time>
      </trkpt>
      <trkpt lat="43.57329" lon="3.31401">
        <ele>367</ele>
        <time>2025-10-03T10:00:01.000Z</time>
      </trkpt>
      <trkpt lat="43.5732" lon="3.31399">
        <ele>366</ele>
        <time>2025-10-03T10:00:11.000Z</time>
      </trkpt>
      <trkpt lat="43.5731" lon="3.31399">
        <ele>366</ele>
        <time>2025-10-03T10:00:21.000Z</time>
      </trkpt>
      <trkpt lat="43.573" lon="3.31399">
        <ele>365</ele>
        <time>2025-10-03T10:00:33.000Z</time>
      </trkpt>
      <trkpt lat="43.57291" lon="3.314">
        <ele>365</ele>
        <time>2025-10-03T10:00:42.000Z</time>
      </trkpt>
      <trkpt lat="43.57282" lon="3.31403">
        <ele>365</ele>
        <time>2025-10-03T10:00:51.000Z</time>
      </trkpt>
      <trkpt lat="43.57272" lon="3.31405">
        <ele>365</ele>
        <time>2025-10-03T10:01:01.000Z</time>
      </trkpt>
      <trkpt lat="43.57262" lon="3.31402">
        <ele>365</ele>
        <time>2025-10-03T10:01:13.000Z</time>
      </trkpt>
      <trkpt lat="43.57252" lon="3.31401">
        <ele>365</ele>
        <time>2025-10-03T10:01:23.000Z</time>
      </trkpt>
      <trkpt lat="43.57243" lon="3.31403">
        <ele>365</ele>
        <time>2025-10-03T10:01:35.000Z</time>
      </trkpt>
      <trkpt lat="43.57233" lon="3.31403">
        <ele>365</ele>
        <time>2025-10-03T10:01:43.000Z</time>
      </trkpt>
      <trkpt lat="43.57224" lon="3.31404">
        <ele>364</ele>
        <time>2025-10-03T10:01:52.000Z</time>
      </trkpt>
      <trkpt lat="43.57215" lon="3.31404">
        <ele>364</ele>
        <time>2025-10-03T10:02:03.000Z</time>
      </trkpt>
      <trkpt lat="43.57205" lon="3.31402">
        <ele>363</ele>
        <time>2025-10-03T10:02:13.000Z</time>
      </trkpt>
      <trkpt lat="43.57196" lon="3.314">
        <ele>362</ele>
        <time>2025-10-03T10:02:22.000Z</time>
      </trkpt>
      <trkpt lat="43.57186" lon="3.314">
        <ele>361</ele>
        <time>2025-10-03T10:02:33.000Z</time>
      </trkpt>
      <trkpt lat="43.57177" lon="3.31396">
        <ele>360</ele>
        <time>2025-10-03T10:02:44.000Z</time>
      </trkpt>
      <trkpt lat="43.57168" lon="3.31392">
        <ele>359</ele>
        <time>2025-10-03T10:02:53.000Z</time>
      </trkpt>
      <trkpt lat="43.5716" lon="3.31387">
        <ele>359</ele>
        <time>2025-10-03T10:03:00.000Z</time>
      </trkpt>
      <trkpt lat="43.57152" lon="3.31381">
        <ele>358</ele>
        <time>2025-10-03T10:03:10.000Z</time>
      </trkpt>
      <trkpt lat="43.57143" lon="3.31375">
        <ele>358</ele>
        <time>2025-10-03T10:03:21.000Z</time>
      </trkpt>
      <trkpt lat="43.57135" lon="3.3137">
        <ele>357</ele>
        <time>2025-10-03T10:03:31.000Z</time>
      </trkpt>
      <trkpt lat="43.57126" lon="3.31365">
        <ele>357</ele>
        <time>2025-10-03T10:03:39.000Z</time>
      </trkpt>
      <trkpt lat="43.57118" lon="3.31358">
        <ele>356</ele>
        <time>2025-10-03T10:03:51.000Z</time>
      </trkpt>
      <trkpt lat="43.5711" lon="3.3135">
        <ele>355</ele>
        <time>2025-10-03T10:04:03.000Z</time>
      </trkpt>
      <trkpt lat="43.57103" lon="3.31342">
        <ele>354</ele>
        <time>2025-10-03T10:04:15.000Z</time>
      </trkpt>
      <trkpt lat="43.57096" lon="3.31334">
        <ele>354</ele>
        <time>2025-10-03T10:04:29.000Z</time>
      </trkpt>
      <trkpt lat="43.57088" lon="3.31326">
        <ele>354</ele>
        <time>2025-10-03T10:04:41.000Z</time>
      </trkpt>
      <trkpt lat="43.57083" lon="3.31315">
        <ele>354</ele>
        <time>2025-10-03T10:04:52.000Z</time>
      </trkpt>
      <trkpt lat="43.57079" lon="3.31304">
        <ele>354</ele>
        <time>2025-10-03T10:05:00.000Z</time>
      </trkpt>
      <trkpt lat="43.57075" lon="3.31292">
        <ele>355</ele>
        <time>2025-10-03T10:05:10.000Z</time>
      </trkpt>
      <trkpt lat="43.57072" lon="3.31277">
        <ele>355</ele>
        <time>2025-10-03T10:08:17.000Z</time>
      </trkpt>
      <trkpt lat="43.57072" lon="3.31283">
        <ele>355</ele>
        <time>2025-10-03T10:09:23.000Z</time>
      </trkpt>
      <trkpt lat="43.57066" lon="3.31281">
        <ele>355</ele>
        <time>2025-10-03T10:11:51.000Z</time>
      </trkpt>
      <trkpt lat="43.57073" lon="3.3128">
        <ele>354</ele>
        <time>2025-10-03T10:12:11.000Z</time>
      </trkpt>
      <trkpt lat="43.57075" lon="3.31288">
        <ele>353</ele>
        <time>2025-10-03T10:13:01.000Z</time>
      </trkpt>
      <trkpt lat="43.57075" lon="3.3128">
        <ele>351</ele>
        <time>2025-10-03T10:13:43.000Z</time>
      </trkpt>
      <trkpt lat="43.57081" lon="3.31276">
        <ele>350</ele>
        <time>2025-10-03T10:17:45.000Z</time>
      </trkpt>
      <trkpt lat="43.5708" lon="3.31283">
        <ele>349</ele>
        <time>2025-10-03T10:18:07.000Z</time>
      </trkpt>
      <trkpt lat="43.57084" lon="3.31278">
        <ele>350</ele>
        <time>2025-10-03T10:22:33.000Z</time>
      </trkpt>
      <trkpt lat="43.57078" lon="3.3128">
        <ele>349</ele>
        <time>2025-10-03T10:23:15.000Z</time>
      </trkpt>
      <trkpt lat="43.57076" lon="3.31289">
        <ele>349</ele>
        <time>2025-10-03T10:39:18.000Z</time>
      </trkpt>
      <trkpt lat="43.57069" lon="3.31286">
        <ele>349</ele>
        <time>2025-10-03T10:39:48.000Z</time>
      </trkpt>
      <trkpt lat="43.57074" lon="3.31281">
        <ele>348</ele>
        <time>2025-10-03T10:41:56.000Z</time>
      </trkpt>
      <trkpt lat="43.57073" lon="3.31287">
        <ele>349</ele>
        <time>2025-10-03T10:44:36.000Z</time>
      </trkpt>
      <trkpt lat="43.57071" lon="3.3128">
        <ele>349</ele>
        <time>2025-10-03T10:47:12.000Z</time>
      </trkpt>
      <trkpt lat="43.57065" lon="3.31284">
        <ele>350</ele>
        <time>2025-10-03T10:47:56.000Z</time>
      </trkpt>
      <trkpt lat="43.57058" lon="3.31279">
        <ele>351</ele>
        <time>2025-10-03T10:48:40.000Z</time>
      </trkpt>
      <trkpt lat="43.57049" lon="3.31281">
        <ele>351</ele>
        <time>2025-10-03T10:48:54.000Z</time>
      </trkpt>
      <trkpt lat="43.5704" lon="3.31285">
        <ele>351</ele>
        <time>2025-10-03T10:49:07.000Z</time>
      </trkpt>
      <trkpt lat="43.57031" lon="3.31289">
        <ele>350</ele>
        <time>2025-10-03T10:49:20.000Z</time>
      </trkpt>
      <trkpt lat="43.57021" lon="3.3129">
        <ele>349</ele>
        <time>2025-10-03T10:49:30.000Z</time>
      </trkpt>
      <trkpt lat="43.57012" lon="3.31292">
        <ele>348</ele>
        <time>2025-10-03T10:49:42.000Z</time>
      </trkpt>
      <trkpt lat="43.57003" lon="3.31295">
        <ele>347</ele>
        <time>2025-10-03T10:49:56.000Z</time>
      </trkpt>
      <trkpt lat="43.56995" lon="3.31298">
        <ele>346</ele>
        <time>2025-10-03T10:50:08.000Z</time>
      </trkpt>
      <trkpt lat="43.56985" lon="3.31303">
        <ele>345</ele>
        <time>2025-10-03T10:50:18.000Z</time>
      </trkpt>
      <trkpt lat="43.56976" lon="3.31309">
        <ele>345</ele>
        <time>2025-10-03T10:50:26.000Z</time>
      </trkpt>
      <trkpt lat="43.56968" lon="3.31316">
        <ele>344</ele>
        <time>2025-10-03T10:50:36.000Z</time>
      </trkpt>
      <trkpt lat="43.56961" lon="3.31324">
        <ele>344</ele>
        <time>2025-10-03T10:50:44.000Z</time>
      </trkpt>
      <trkpt lat="43.56953" lon="3.31331">
        <ele>344</ele>
        <time>2025-10-03T10:50:52.000Z</time>
      </trkpt>
      <trkpt lat="43.56946" lon="3.31339">
        <ele>344</ele>
        <time>2025-10-03T10:50:59.000Z</time>
      </trkpt>
      <trkpt lat="43.56938" lon="3.31344">
        <ele>344</ele>
        <time>2025-10-03T10:51:11.000Z</time>
      </trkpt>
      <trkpt lat="43.5693" lon="3.31352">
        <ele>344</ele>
        <time>2025-10-03T10:51:22.000Z</time>
      </trkpt>
      <trkpt lat="43.56923" lon="3.3136">
        <ele>345</ele>
        <time>2025-10-03T10:51:36.000Z</time>
      </trkpt>
      <trkpt lat="43.56915" lon="3.31364">
        <ele>345</ele>
        <time>2025-10-03T10:51:43.000Z</time>
      </trkpt>
      <trkpt lat="43.56905" lon="3.31366">
        <ele>346</ele>
        <time>2025-10-03T10:51:54.000Z</time>
      </trkpt>
      <trkpt lat="43.56896" lon="3.31369">
        <ele>347</ele>
        <time>2025-10-03T10:52:03.000Z</time>
      </trkpt>
      <trkpt lat="43.56886" lon="3.31372">
        <ele>348</ele>
        <time>2025-10-03T10:52:11.000Z</time>
      </trkpt>
      <trkpt lat="43.56876" lon="3.31372">
        <ele>348</ele>
        <time>2025-10-03T10:52:20.000Z</time>
      </trkpt>
      <trkpt lat="43.56867" lon="3.31372">
        <ele>348</ele>
        <time>2025-10-03T10:52:31.000Z</time>
      </trkpt>
      <trkpt lat="43.56859" lon="3.31373">
        <ele>348</ele>
        <time>2025-10-03T10:52:40.000Z</time>
      </trkpt>
      <trkpt lat="43.5685" lon="3.31376">
        <ele>347</ele>
        <time>2025-10-03T10:52:47.000Z</time>
      </trkpt>
      <trkpt lat="43.56842" lon="3.31378">
        <ele>346</ele>
        <time>2025-10-03T10:53:00.000Z</time>
      </trkpt>
      <trkpt lat="43.56832" lon="3.31378">
        <ele>344</ele>
        <time>2025-10-03T10:53:07.000Z</time>
      </trkpt>
      <trkpt lat="43.56823" lon="3.31377">
        <ele>343</ele>
        <time>2025-10-03T10:53:18.000Z</time>
      </trkpt>
      <trkpt lat="43.56813" lon="3.31378">
        <ele>341</ele>
        <time>2025-10-03T10:53:30.000Z</time>
      </trkpt>
      <trkpt lat="43.56804" lon="3.31382">
        <ele>339</ele>
        <time>2025-10-03T10:53:37.000Z</time>
      </trkpt>
      <trkpt lat="43.56794" lon="3.31386">
        <ele>337</ele>
        <time>2025-10-03T10:53:46.000Z</time>
      </trkpt>
      <trkpt lat="43.56786" lon="3.31393">
        <ele>336</ele>
        <time>2025-10-03T10:53:56.000Z</time>
      </trkpt>
      <trkpt lat="43.56778" lon="3.31399">
        <ele>335</ele>
        <time>2025-10-03T10:54:06.000Z</time>
      </trkpt>
      <trkpt lat="43.5677" lon="3.31403">
        <ele>335</ele>
        <time>2025-10-03T10:54:17.000Z</time>
      </trkpt>
      <trkpt lat="43.56762" lon="3.31407">
        <ele>334</ele>
        <time>2025-10-03T10:54:27.000Z</time>
      </trkpt>
      <trkpt lat="43.56753" lon="3.31409">
        <ele>333</ele>
        <time>2025-10-03T10:54:40.000Z</time>
      </trkpt>
      <trkpt lat="43.56744" lon="3.31406">
        <ele>333</ele>
        <time>2025-10-03T10:54:50.000Z</time>
      </trkpt>
      <trkpt lat="43.56734" lon="3.31404">
        <ele>333</ele>
        <time>2025-10-03T10:55:02.000Z</time>
      </trkpt>
      <trkpt lat="43.56725" lon="3.31402">
        <ele>333</ele>
        <time>2025-10-03T10:55:10.000Z</time>
      </trkpt>
      <trkpt lat="43.56715" lon="3.31402">
        <ele>332</ele>
        <time>2025-10-03T10:55:20.000Z</time>
      </trkpt>
      <trkpt lat="43.56705" lon="3.31402">
        <ele>332</ele>
        <time>2025-10-03T10:55:33.000Z</time>
      </trkpt>
      <trkpt lat="43.56695" lon="3.31399">
        <ele>332</ele>
        <time>2025-10-03T10:55:41.000Z</time>
      </trkpt>
      <trkpt lat="43.56686" lon="3.31397">
        <ele>331</ele>
        <time>2025-10-03T10:55:49.000Z</time>
      </trkpt>
      <trkpt lat="43.56676" lon="3.31399">
        <ele>331</ele>
        <time>2025-10-03T10:56:01.000Z</time>
      </trkpt>
      <trkpt lat="43.56667" lon="3.314">
        <ele>330</ele>
        <time>2025-10-03T10:56:12.000Z</time>
      </trkpt>
      <trkpt lat="43.56657" lon="3.31401">
        <ele>329</ele>
        <time>2025-10-03T10:56:22.000Z</time>
      </trkpt>
      <trkpt lat="43.56648" lon="3.31406">
        <ele>328</ele>
        <time>2025-10-03T10:56:34.000Z</time>
      </trkpt>
      <trkpt lat="43.5664" lon="3.31413">
        <ele>328</ele>
        <time>2025-10-03T10:56:42.000Z</time>
      </trkpt>
      <trkpt lat="43.56632" lon="3.31415">
        <ele>328</ele>
        <time>2025-10-03T10:56:53.000Z</time>
      </trkpt>
      <trkpt lat="43.56623" lon="3.31413">
        <ele>328</ele>
        <time>2025-10-03T10:57:08.000Z</time>
      </trkpt>
      <trkpt lat="43.56614" lon="3.31407">
        <ele>327</ele>
        <time>2025-10-03T10:57:26.000Z</time>
      </trkpt>
      <trkpt lat="43.56604" lon="3.31403">
        <ele>327</ele>
        <time>2025-10-03T10:57:36.000Z</time>
      </trkpt>
      <trkpt lat="43.56595" lon="3.31402">
        <ele>326</ele>
        <time>2025-10-03T10:57:48.000Z</time>
      </trkpt>
      <trkpt lat="43.56585" lon="3.31401">
        <ele>325</ele>
        <time>2025-10-03T10:57:58.000Z</time>
      </trkpt>
      <trkpt lat="43.56575" lon="3.31401">
        <ele>324</ele>
        <time>2025-10-03T10:58:06.000Z</time>
      </trkpt>
      <trkpt lat="43.56566" lon="3.31397">
        <ele>323</ele>
        <time>2025-10-03T10:58:16.000Z</time>
      </trkpt>
      <trkpt lat="43.56556" lon="3.31395">
        <ele>322</ele>
        <time>2025-10-03T10:58:26.000Z</time>
      </trkpt>
      <trkpt lat="43.56547" lon="3.31393">
        <ele>321</ele>
        <time>2025-10-03T10:58:33.000Z</time>
      </trkpt>
      <trkpt lat="43.56537" lon="3.31391">
        <ele>321</ele>
        <time>2025-10-03T10:58:44.000Z</time>
      </trkpt>
      <trkpt lat="43.56527" lon="3.31387">
        <ele>320</ele>
        <time>2025-10-03T10:58:54.000Z</time>
      </trkpt>
      <trkpt lat="43.56517" lon="3.31386">
        <ele>320</ele>
        <time>2025-10-03T10:59:04.000Z</time>
      </trkpt>
      <trkpt lat="43.56506" lon="3.31383">
        <ele>320</ele>
        <time>2025-10-03T10:59:14.000Z</time>
      </trkpt>
      <trkpt lat="43.56497" lon="3.31382">
        <ele>320</ele>
        <time>2025-10-03T10:59:20.000Z</time>
      </trkpt>
      <trkpt lat="43.56488" lon="3.31381">
        <ele>319</ele>
        <time>2025-10-03T10:59:30.000Z</time>
      </trkpt>
      <trkpt lat="43.56479" lon="3.31379">
        <ele>319</ele>
        <time>2025-10-03T10:59:36.000Z</time>
      </trkpt>
      <trkpt lat="43.5647" lon="3.31376">
        <ele>319</ele>
        <time>2025-10-03T10:59:45.000Z</time>
      </trkpt>
      <trkpt lat="43.5646" lon="3.31375">
        <ele>319</ele>
        <time>2025-10-03T10:59:53.000Z</time>
      </trkpt>
      <trkpt lat="43.5645" lon="3.31374">
        <ele>319</ele>
        <time>2025-10-03T11:00:01.000Z</time>
      </trkpt>
      <trkpt lat="43.5644" lon="3.31372">
        <ele>320</ele>
        <time>2025-10-03T11:00:14.000Z</time>
      </trkpt>
      <trkpt lat="43.5643" lon="3.31369">
        <ele>321</ele>
        <time>2025-10-03T11:00:21.000Z</time>
      </trkpt>
      <trkpt lat="43.5642" lon="3.31365">
        <ele>322</ele>
        <time>2025-10-03T11:00:32.000Z</time>
      </trkpt>
      <trkpt lat="43.56411" lon="3.31363">
        <ele>323</ele>
        <time>2025-10-03T11:00:41.000Z</time>
      </trkpt>
      <trkpt lat="43.56403" lon="3.31359">
        <ele>324</ele>
        <time>2025-10-03T11:00:53.000Z</time>
      </trkpt>
      <trkpt lat="43.56393" lon="3.31353">
        <ele>324</ele>
        <time>2025-10-03T11:01:02.000Z</time>
      </trkpt>
      <trkpt lat="43.56385" lon="3.31345">
        <ele>325</ele>
        <time>2025-10-03T11:01:14.000Z</time>
      </trkpt>
      <trkpt lat="43.56378" lon="3.31338">
        <ele>325</ele>
        <time>2025-10-03T11:01:22.000Z</time>
      </trkpt>
      <trkpt lat="43.56369" lon="3.31334">
        <ele>326</ele>
        <time>2025-10-03T11:01:31.000Z</time>
      </trkpt>
      <trkpt lat="43.56362" lon="3.31327">
        <ele>327</ele>
        <time>2025-10-03T11:01:40.000Z</time>
      </trkpt>
      <trkpt lat="43.56356" lon="3.31317">
        <ele>328</ele>
        <time>2025-10-03T11:01:50.000Z</time>
      </trkpt>
      <trkpt lat="43.5635" lon="3.31307">
        <ele>329</ele>
        <time>2025-10-03T11:02:02.000Z</time>
      </trkpt>
      <trkpt lat="43.56343" lon="3.31297">
        <ele>330</ele>
        <time>2025-10-03T11:02:14.000Z</time>
      </trkpt>
      <trkpt lat="43.56335" lon="3.3129">
        <ele>331</ele>
        <time>2025-10-03T11:02:20.000Z</time>
      </trkpt>
      <trkpt lat="43.56327" lon="3.31283">
        <ele>332</ele>
        <time>2025-10-03T11:02:30.000Z</time>
      </trkpt>
      <trkpt lat="43.56318" lon="3.31278">
        <ele>331</ele>
        <time>2025-10-03T11:02:41.000Z</time>
      </trkpt>
      <trkpt lat="43.56309" lon="3.31275">
        <ele>331</ele>
        <time>2025-10-03T11:02:49.000Z</time>
      </trkpt>
      <trkpt lat="43.56301" lon="3.31269">
        <ele>330</ele>
        <time>2025-10-03T11:06:33.000Z</time>
      </trkpt>
      <trkpt lat="43.56291" lon="3.31264">
        <ele>328</ele>
        <time>2025-10-03T11:06:50.000Z</time>
      </trkpt>
      <trkpt lat="43.5628" lon="3.3125">
        <ele>327</ele>
        <time>2025-10-03T11:07:08.000Z</time>
      </trkpt>
      <trkpt lat="43.56272" lon="3.31242">
        <ele>326</ele>
        <time>2025-10-03T11:07:17.000Z</time>
      </trkpt>
      <trkpt lat="43.56264" lon="3.31236">
        <ele>325</ele>
        <time>2025-10-03T11:07:30.000Z</time>
      </trkpt>
      <trkpt lat="43.56258" lon="3.31228">
        <ele>324</ele>
        <time>2025-10-03T11:07:44.000Z</time>
      </trkpt>
      <trkpt lat="43.56251" lon="3.31218">
        <ele>324</ele>
        <time>2025-10-03T11:07:54.000Z</time>
      </trkpt>
      <trkpt lat="43.56244" lon="3.31209">
        <ele>323</ele>
        <time>2025-10-03T11:08:02.000Z</time>
      </trkpt>
      <trkpt lat="43.56237" lon="3.31201">
        <ele>323</ele>
        <time>2025-10-03T11:08:11.000Z</time>
      </trkpt>
      <trkpt lat="43.56229" lon="3.31192">
        <ele>322</ele>
        <time>2025-10-03T11:08:24.000Z</time>
      </trkpt>
      <trkpt lat="43.56221" lon="3.31184">
        <ele>323</ele>
        <time>2025-10-03T11:08:34.000Z</time>
      </trkpt>
      <trkpt lat="43.56215" lon="3.31175">
        <ele>323</ele>
        <time>2025-10-03T11:08:45.000Z</time>
      </trkpt>
      <trkpt lat="43.56211" lon="3.31164">
        <ele>323</ele>
        <time>2025-10-03T11:09:00.000Z</time>
      </trkpt>
      <trkpt lat="43.56206" lon="3.31155">
        <ele>323</ele>
        <time>2025-10-03T11:09:08.000Z</time>
      </trkpt>
      <trkpt lat="43.56201" lon="3.31144">
        <ele>322</ele>
        <time>2025-10-03T11:09:21.000Z</time>
      </trkpt>
      <trkpt lat="43.56195" lon="3.31133">
        <ele>322</ele>
        <time>2025-10-03T11:09:33.000Z</time>
      </trkpt>
      <trkpt lat="43.56189" lon="3.31122">
        <ele>322</ele>
        <time>2025-10-03T11:09:44.000Z</time>
      </trkpt>
      <trkpt lat="43.56183" lon="3.31112">
        <ele>322</ele>
        <time>2025-10-03T11:09:52.000Z</time>
      </trkpt>
      <trkpt lat="43.56176" lon="3.31102">
        <ele>322</ele>
        <time>2025-10-03T11:10:04.000Z</time>
      </trkpt>
      <trkpt lat="43.56169" lon="3.31092">
        <ele>322</ele>
        <time>2025-10-03T11:10:11.000Z</time>
      </trkpt>
      <trkpt lat="43.56165" lon="3.31081">
        <ele>322</ele>
        <time>2025-10-03T11:10:25.000Z</time>
      </trkpt>
      <trkpt lat="43.5616" lon="3.3107">
        <ele>322</ele>
        <time>2025-10-03T11:10:32.000Z</time>
      </trkpt>
      <trkpt lat="43.56154" lon="3.31058">
        <ele>322</ele>
        <time>2025-10-03T11:10:48.000Z</time>
      </trkpt>
      <trkpt lat="43.56148" lon="3.31046">
        <ele>322</ele>
        <time>2025-10-03T11:10:56.000Z</time>
      </trkpt>
      <trkpt lat="43.56142" lon="3.31035">
        <ele>322</ele>
        <time>2025-10-03T11:11:06.000Z</time>
      </trkpt>
      <trkpt lat="43.56134" lon="3.31026">
        <ele>322</ele>
        <time>2025-10-03T11:11:20.000Z</time>
      </trkpt>
      <trkpt lat="43.56125" lon="3.31023">
        <ele>322</ele>
        <time>2025-10-03T11:11:28.000Z</time>
      </trkpt>
      <trkpt lat="43.56115" lon="3.31023">
        <ele>322</ele>
        <time>2025-10-03T11:11:34.000Z</time>
      </trkpt>
      <trkpt lat="43.56106" lon="3.31024">
        <ele>322</ele>
        <time>2025-10-03T11:11:44.000Z</time>
      </trkpt>
      <trkpt lat="43.56097" lon="3.31023">
        <ele>322</ele>
        <time>2025-10-03T11:11:53.000Z</time>
      </trkpt>
      <trkpt lat="43.56088" lon="3.31022">
        <ele>322</ele>
        <time>2025-10-03T11:12:00.000Z</time>
      </trkpt>
      <trkpt lat="43.56079" lon="3.31026">
        <ele>321</ele>
        <time>2025-10-03T11:12:07.000Z</time>
      </trkpt>
      <trkpt lat="43.56069" lon="3.31029">
        <ele>321</ele>
        <time>2025-10-03T11:12:16.000Z</time>
      </trkpt>
      <trkpt lat="43.5606" lon="3.31038">
        <ele>320</ele>
        <time>2025-10-03T11:12:24.000Z</time>
      </trkpt>
      <trkpt lat="43.56052" lon="3.31045">
        <ele>319</ele>
        <time>2025-10-03T11:12:34.000Z</time>
      </trkpt>
      <trkpt lat="43.56042" lon="3.31047">
        <ele>318</ele>
        <time>2025-10-03T11:12:44.000Z</time>
      </trkpt>
      <trkpt lat="43.56033" lon="3.31047">
        <ele>318</ele>
        <time>2025-10-03T11:12:56.000Z</time>
      </trkpt>
      <trkpt lat="43.56023" lon="3.31049">
        <ele>318</ele>
        <time>2025-10-03T11:13:03.000Z</time>
      </trkpt>
      <trkpt lat="43.56013" lon="3.31044">
        <ele>318</ele>
        <time>2025-10-03T11:13:12.000Z</time>
      </trkpt>
      <trkpt lat="43.56004" lon="3.31044">
        <ele>318</ele>
        <time>2025-10-03T11:13:24.000Z</time>
      </trkpt>
      <trkpt lat="43.55994" lon="3.31045">
        <ele>317</ele>
        <time>2025-10-03T11:14:04.000Z</time>
      </trkpt>
      <trkpt lat="43.55989" lon="3.31053">
        <ele>317</ele>
        <time>2025-10-03T11:22:16.000Z</time>
      </trkpt>
      <trkpt lat="43.5599" lon="3.31065">
        <ele>316</ele>
        <time>2025-10-03T11:22:32.000Z</time>
      </trkpt>
      <trkpt lat="43.55993" lon="3.31078">
        <ele>315</ele>
        <time>2025-10-03T11:22:48.000Z</time>
      </trkpt>
      <trkpt lat="43.55995" lon="3.3109">
        <ele>314</ele>
        <time>2025-10-03T11:23:02.000Z</time>
      </trkpt>
      <trkpt lat="43.55999" lon="3.31101">
        <ele>312</ele>
        <time>2025-10-03T11:23:16.000Z</time>
      </trkpt>
      <trkpt lat="43.56003" lon="3.31113">
        <ele>311</ele>
        <time>2025-10-03T11:23:27.000Z</time>
      </trkpt>
      <trkpt lat="43.56005" lon="3.31126">
        <ele>311</ele>
        <time>2025-10-03T11:23:38.000Z</time>
      </trkpt>
      <trkpt lat="43.5601" lon="3.31138">
        <ele>310</ele>
        <time>2025-10-03T11:23:47.000Z</time>
      </trkpt>
      <trkpt lat="43.56013" lon="3.3115">
        <ele>310</ele>
        <time>2025-10-03T11:23:58.000Z</time>
      </trkpt>
      <trkpt lat="43.56015" lon="3.31163">
        <ele>310</ele>
        <time>2025-10-03T11:24:09.000Z</time>
      </trkpt>
      <trkpt lat="43.56013" lon="3.31175">
        <ele>310</ele>
        <time>2025-10-03T11:24:18.000Z</time>
      </trkpt>
      <trkpt lat="43.56012" lon="3.31187">
        <ele>309</ele>
        <time>2025-10-03T11:24:28.000Z</time>
      </trkpt>
      <trkpt lat="43.56015" lon="3.312">
        <ele>308</ele>
        <time>2025-10-03T11:24:36.000Z</time>
      </trkpt>
      <trkpt lat="43.56018" lon="3.31212">
        <ele>306</ele>
        <time>2025-10-03T11:24:46.000Z</time>
      </trkpt>
      <trkpt lat="43.56025" lon="3.31224">
        <ele>305</ele>
        <time>2025-10-03T11:25:05.000Z</time>
      </trkpt>
      <trkpt lat="43.56031" lon="3.31233">
        <ele>303</ele>
        <time>2025-10-03T11:25:15.000Z</time>
      </trkpt>
      <trkpt lat="43.56036" lon="3.31244">
        <ele>301</ele>
        <time>2025-10-03T11:25:26.000Z</time>
      </trkpt>
      <trkpt lat="43.56041" lon="3.31256">
        <ele>301</ele>
        <time>2025-10-03T11:25:36.000Z</time>
      </trkpt>
      <trkpt lat="43.56047" lon="3.31267">
        <ele>300</ele>
        <time>2025-10-03T11:25:44.000Z</time>
      </trkpt>
      <trkpt lat="43.56049" lon="3.31281">
        <ele>301</ele>
        <time>2025-10-03T11:25:58.000Z</time>
      </trkpt>
      <trkpt lat="43.56049" lon="3.31295">
        <ele>301</ele>
        <time>2025-10-03T11:26:08.000Z</time>
      </trkpt>
      <trkpt lat="43.56048" lon="3.31308">
        <ele>302</ele>
        <time>2025-10-03T11:26:18.000Z</time>
      </trkpt>
      <trkpt lat="43.56049" lon="3.3132">
        <ele>303</ele>
        <time>2025-10-03T11:26:27.000Z</time>
      </trkpt>
      <trkpt lat="43.56051" lon="3.31333">
        <ele>303</ele>
        <time>2025-10-03T11:26:37.000Z</time>
      </trkpt>
      <trkpt lat="43.56049" lon="3.31346">
        <ele>303</ele>
        <time>2025-10-03T11:26:46.000Z</time>
      </trkpt>
      <trkpt lat="43.56047" lon="3.3136">
        <ele>302</ele>
        <time>2025-10-03T11:26:55.000Z</time>
      </trkpt>
      <trkpt lat="43.56045" lon="3.31374">
        <ele>301</ele>
        <time>2025-10-03T11:27:04.000Z</time>
      </trkpt>
      <trkpt lat="43.56044" lon="3.31387">
        <ele>300</ele>
        <time>2025-10-03T11:27:12.000Z</time>
      </trkpt>
      <trkpt lat="43.56044" lon="3.314">
        <ele>299</ele>
        <time>2025-10-03T11:27:22.000Z</time>
      </trkpt>
      <trkpt lat="43.56043" lon="3.31412">
        <ele>298</ele>
        <time>2025-10-03T11:27:30.000Z</time>
      </trkpt>
      <trkpt lat="43.56043" lon="3.31425">
        <ele>297</ele>
        <time>2025-10-03T11:27:40.000Z</time>
      </trkpt>
      <trkpt lat="43.56042" lon="3.31437">
        <ele>297</ele>
        <time>2025-10-03T11:27:48.000Z</time>
      </trkpt>
      <trkpt lat="43.5604" lon="3.31449">
        <ele>296</ele>
        <time>2025-10-03T11:27:55.000Z</time>
      </trkpt>
      <trkpt lat="43.56037" lon="3.31462">
        <ele>295</ele>
        <time>2025-10-03T11:28:04.000Z</time>
      </trkpt>
      <trkpt lat="43.56036" lon="3.31477">
        <ele>295</ele>
        <time>2025-10-03T11:28:14.000Z</time>
      </trkpt>
      <trkpt lat="43.56033" lon="3.3149">
        <ele>295</ele>
        <time>2025-10-03T11:28:24.000Z</time>
      </trkpt>
      <trkpt lat="43.56028" lon="3.31501">
        <ele>295</ele>
        <time>2025-10-03T11:28:31.000Z</time>
      </trkpt>
      <trkpt lat="43.56024" lon="3.31514">
        <ele>295</ele>
        <time>2025-10-03T11:28:42.000Z</time>
      </trkpt>
      <trkpt lat="43.5602" lon="3.31526">
        <ele>294</ele>
        <time>2025-10-03T11:28:48.000Z</time>
      </trkpt>
      <trkpt lat="43.56016" lon="3.31538">
        <ele>294</ele>
        <time>2025-10-03T11:28:57.000Z</time>
      </trkpt>
      <trkpt lat="43.56014" lon="3.31551">
        <ele>294</ele>
        <time>2025-10-03T11:29:06.000Z</time>
      </trkpt>
      <trkpt lat="43.56012" lon="3.31563">
        <ele>294</ele>
        <time>2025-10-03T11:29:15.000Z</time>
      </trkpt>
      <trkpt lat="43.56008" lon="3.31574">
        <ele>294</ele>
        <time>2025-10-03T11:29:24.000Z</time>
      </trkpt>
      <trkpt lat="43.56005" lon="3.31586">
        <ele>294</ele>
        <time>2025-10-03T11:29:33.000Z</time>
      </trkpt>
      <trkpt lat="43.56001" lon="3.31598">
        <ele>293</ele>
        <time>2025-10-03T11:29:43.000Z</time>
      </trkpt>
      <trkpt lat="43.56" lon="3.31611">
        <ele>293</ele>
        <time>2025-10-03T11:29:53.000Z</time>
      </trkpt>
      <trkpt lat="43.56001" lon="3.31623">
        <ele>293</ele>
        <time>2025-10-03T11:29:59.000Z</time>
      </trkpt>
      <trkpt lat="43.56001" lon="3.31636">
        <ele>293</ele>
        <time>2025-10-03T11:30:10.000Z</time>
      </trkpt>
      <trkpt lat="43.56001" lon="3.3165">
        <ele>293</ele>
        <time>2025-10-03T11:30:18.000Z</time>
      </trkpt>
      <trkpt lat="43.55998" lon="3.31662">
        <ele>293</ele>
        <time>2025-10-03T11:30:30.000Z</time>
      </trkpt>
      <trkpt lat="43.55999" lon="3.31676">
        <ele>292</ele>
        <time>2025-10-03T11:30:38.000Z</time>
      </trkpt>
      <trkpt lat="43.56003" lon="3.3169">
        <ele>291</ele>
        <time>2025-10-03T11:30:46.000Z</time>
      </trkpt>
      <trkpt lat="43.56006" lon="3.31704">
        <ele>290</ele>
        <time>2025-10-03T11:30:56.000Z</time>
      </trkpt>
      <trkpt lat="43.5601" lon="3.31716">
        <ele>289</ele>
        <time>2025-10-03T11:31:06.000Z</time>
      </trkpt>
      <trkpt lat="43.56015" lon="3.31727">
        <ele>287</ele>
        <time>2025-10-03T11:31:14.000Z</time>
      </trkpt>
      <trkpt lat="43.56024" lon="3.31734">
        <ele>285</ele>
        <time>2025-10-03T11:31:22.000Z</time>
      </trkpt>
      <trkpt lat="43.56033" lon="3.3174">
        <ele>284</ele>
        <time>2025-10-03T11:31:34.000Z</time>
      </trkpt>
      <trkpt lat="43.56043" lon="3.31746">
        <ele>282</ele>
        <time>2025-10-03T11:31:42.000Z</time>
      </trkpt>
      <trkpt lat="43.56052" lon="3.3175">
        <ele>280</ele>
        <time>2025-10-03T11:31:51.000Z</time>
      </trkpt>
      <trkpt lat="43.5606" lon="3.31758">
        <ele>279</ele>
        <time>2025-10-03T11:32:03.000Z</time>
      </trkpt>
      <trkpt lat="43.56068" lon="3.31766">
        <ele>278</ele>
        <time>2025-10-03T11:32:13.000Z</time>
      </trkpt>
      <trkpt lat="43.56076" lon="3.31773">
        <ele>276</ele>
        <time>2025-10-03T11:32:25.000Z</time>
      </trkpt>
      <trkpt lat="43.56083" lon="3.31782">
        <ele>275</ele>
        <time>2025-10-03T11:32:33.000Z</time>
      </trkpt>
      <trkpt lat="43.56086" lon="3.31794">
        <ele>274</ele>
        <time>2025-10-03T11:32:47.000Z</time>
      </trkpt>
      <trkpt lat="43.56086" lon="3.31807">
        <ele>273</ele>
        <time>2025-10-03T11:32:57.000Z</time>
      </trkpt>
      <trkpt lat="43.56092" lon="3.31817">
        <ele>272</ele>
        <time>2025-10-03T11:33:08.000Z</time>
      </trkpt>
      <trkpt lat="43.56098" lon="3.31827">
        <ele>271</ele>
        <time>2025-10-03T11:33:16.000Z</time>
      </trkpt>
      <trkpt lat="43.56103" lon="3.31837">
        <ele>270</ele>
        <time>2025-10-03T11:33:24.000Z</time>
      </trkpt>
      <trkpt lat="43.56111" lon="3.31845">
        <ele>269</ele>
        <time>2025-10-03T11:33:31.000Z</time>
      </trkpt>
      <trkpt lat="43.56119" lon="3.31853">
        <ele>268</ele>
        <time>2025-10-03T11:33:42.000Z</time>
      </trkpt>
      <trkpt lat="43.56125" lon="3.31862">
        <ele>266</ele>
        <time>2025-10-03T11:33:50.000Z</time>
      </trkpt>
      <trkpt lat="43.56131" lon="3.31873">
        <ele>264</ele>
        <time>2025-10-03T11:33:59.000Z</time>
      </trkpt>
      <trkpt lat="43.56139" lon="3.31881">
        <ele>262</ele>
        <time>2025-10-03T11:34:13.000Z</time>
      </trkpt>
      <trkpt lat="43.56146" lon="3.3189">
        <ele>260</ele>
        <time>2025-10-03T11:34:25.000Z</time>
      </trkpt>
      <trkpt lat="43.56151" lon="3.31902">
        <ele>259</ele>
        <time>2025-10-03T11:34:38.000Z</time>
      </trkpt>
      <trkpt lat="43.56155" lon="3.31913">
        <ele>258</ele>
        <time>2025-10-03T11:34:54.000Z</time>
      </trkpt>
      <trkpt lat="43.56159" lon="3.31926">
        <ele>257</ele>
        <time>2025-10-03T11:35:06.000Z</time>
      </trkpt>
      <trkpt lat="43.56163" lon="3.31936">
        <ele>256</ele>
        <time>2025-10-03T11:35:17.000Z</time>
      </trkpt>
      <trkpt lat="43.5617" lon="3.31937">
        <ele>254</ele>
        <time>2025-10-03T11:35:32.000Z</time>
      </trkpt>
      <trkpt lat="43.5617" lon="3.31947">
        <ele>253</ele>
        <time>2025-10-03T11:35:45.000Z</time>
      </trkpt>
      <trkpt lat="43.56173" lon="3.3196">
        <ele>251</ele>
        <time>2025-10-03T11:35:56.000Z</time>
      </trkpt>
      <trkpt lat="43.5618" lon="3.31969">
        <ele>250</ele>
        <time>2025-10-03T11:36:06.000Z</time>
      </trkpt>
      <trkpt lat="43.56187" lon="3.31978">
        <ele>249</ele>
        <time>2025-10-03T11:36:18.000Z</time>
      </trkpt>
      <trkpt lat="43.56193" lon="3.31987">
        <ele>248</ele>
        <time>2025-10-03T11:36:28.000Z</time>
      </trkpt>
      <trkpt lat="43.56199" lon="3.31997">
        <ele>247</ele>
        <time>2025-10-03T11:36:37.000Z</time>
      </trkpt>
      <trkpt lat="43.56204" lon="3.32008">
        <ele>246</ele>
        <time>2025-10-03T11:36:47.000Z</time>
      </trkpt>
      <trkpt lat="43.5621" lon="3.32017">
        <ele>245</ele>
        <time>2025-10-03T11:37:00.000Z</time>
      </trkpt>
      <trkpt lat="43.5621" lon="3.32031">
        <ele>244</ele>
        <time>2025-10-03T11:37:14.000Z</time>
      </trkpt>
      <trkpt lat="43.56212" lon="3.32042">
        <ele>242</ele>
        <time>2025-10-03T11:37:26.000Z</time>
      </trkpt>
      <trkpt lat="43.56219" lon="3.32052">
        <ele>240</ele>
        <time>2025-10-03T11:37:42.000Z</time>
      </trkpt>
      <trkpt lat="43.56226" lon="3.32061">
        <ele>238</ele>
        <time>2025-10-03T11:37:54.000Z</time>
      </trkpt>
      <trkpt lat="43.56232" lon="3.3207">
        <ele>236</ele>
        <time>2025-10-03T11:38:09.000Z</time>
      </trkpt>
      <trkpt lat="43.5624" lon="3.32077">
        <ele>235</ele>
        <time>2025-10-03T11:38:21.000Z</time>
      </trkpt>
      <trkpt lat="43.56249" lon="3.32082">
        <ele>234</ele>
        <time>2025-10-03T11:38:30.000Z</time>
      </trkpt>
      <trkpt lat="43.56257" lon="3.3209">
        <ele>234</ele>
        <time>2025-10-03T11:38:38.000Z</time>
      </trkpt>
      <trkpt lat="43.56264" lon="3.32101">
        <ele>234</ele>
        <time>2025-10-03T11:38:48.000Z</time>
      </trkpt>
      <trkpt lat="43.56271" lon="3.3211">
        <ele>233</ele>
        <time>2025-10-03T11:38:56.000Z</time>
      </trkpt>
      <trkpt lat="43.56274" lon="3.32123">
        <ele>232</ele>
        <time>2025-10-03T11:39:07.000Z</time>
      </trkpt>
      <trkpt lat="43.56275" lon="3.32136">
        <ele>232</ele>
        <time>2025-10-03T11:39:18.000Z</time>
      </trkpt>
      <trkpt lat="43.56278" lon="3.32148">
        <ele>231</ele>
        <time>2025-10-03T11:39:28.000Z</time>
      </trkpt>
      <trkpt lat="43.5628" lon="3.3216">
        <ele>231</ele>
        <time>2025-10-03T11:39:36.000Z</time>
      </trkpt>
      <trkpt lat="43.56279" lon="3.32173">
        <ele>231</ele>
        <time>2025-10-03T11:39:44.000Z</time>
      </trkpt>
      <trkpt lat="43.56279" lon="3.32186">
        <ele>230</ele>
        <time>2025-10-03T11:39:52.000Z</time>
      </trkpt>
      <trkpt lat="43.56285" lon="3.32198">
        <ele>229</ele>
        <time>2025-10-03T11:40:00.000Z</time>
      </trkpt>
      <trkpt lat="43.56292" lon="3.32207">
        <ele>228</ele>
        <time>2025-10-03T11:40:07.000Z</time>
      </trkpt>
      <trkpt lat="43.56297" lon="3.32218">
        <ele>227</ele>
        <time>2025-10-03T11:40:18.000Z</time>
      </trkpt>
      <trkpt lat="43.56305" lon="3.32225">
        <ele>227</ele>
        <time>2025-10-03T11:40:28.000Z</time>
      </trkpt>
      <trkpt lat="43.56312" lon="3.32232">
        <ele>226</ele>
        <time>2025-10-03T11:40:37.000Z</time>
      </trkpt>
      <trkpt lat="43.56319" lon="3.32231">
        <ele>226</ele>
        <time>2025-10-03T11:44:30.000Z</time>
      </trkpt>
      <trkpt lat="43.56319" lon="3.32242">
        <ele>226</ele>
        <time>2025-10-03T11:45:08.000Z</time>
      </trkpt>
      <trkpt lat="43.56317" lon="3.32256">
        <ele>226</ele>
        <time>2025-10-03T11:45:16.000Z</time>
      </trkpt>
      <trkpt lat="43.56314" lon="3.32269">
        <ele>226</ele>
        <time>2025-10-03T11:45:26.000Z</time>
      </trkpt>
      <trkpt lat="43.56309" lon="3.32281">
        <ele>227</ele>
        <time>2025-10-03T11:45:36.000Z</time>
      </trkpt>
      <trkpt lat="43.56304" lon="3.32293">
        <ele>227</ele>
        <time>2025-10-03T11:45:44.000Z</time>
      </trkpt>
      <trkpt lat="43.563" lon="3.32306">
        <ele>229</ele>
        <time>2025-10-03T11:45:54.000Z</time>
      </trkpt>
      <trkpt lat="43.56295" lon="3.32315">
        <ele>231</ele>
        <time>2025-10-03T11:46:02.000Z</time>
      </trkpt>
      <trkpt lat="43.56289" lon="3.32325">
        <ele>232</ele>
        <time>2025-10-03T11:46:09.000Z</time>
      </trkpt>
      <trkpt lat="43.56285" lon="3.32335">
        <ele>233</ele>
        <time>2025-10-03T11:46:18.000Z</time>
      </trkpt>
      <trkpt lat="43.5628" lon="3.32346">
        <ele>234</ele>
        <time>2025-10-03T11:46:27.000Z</time>
      </trkpt>
      <trkpt lat="43.56275" lon="3.32358">
        <ele>235</ele>
        <time>2025-10-03T11:46:38.000Z</time>
      </trkpt>
      <trkpt lat="43.56271" lon="3.32369">
        <ele>235</ele>
        <time>2025-10-03T11:46:47.000Z</time>
      </trkpt>
      <trkpt lat="43.56266" lon="3.32381">
        <ele>236</ele>
        <time>2025-10-03T11:46:56.000Z</time>
      </trkpt>
      <trkpt lat="43.56261" lon="3.32392">
        <ele>236</ele>
        <time>2025-10-03T11:47:04.000Z</time>
      </trkpt>
      <trkpt lat="43.56258" lon="3.32403">
        <ele>237</ele>
        <time>2025-10-03T11:47:13.000Z</time>
      </trkpt>
      <trkpt lat="43.56253" lon="3.32414">
        <ele>237</ele>
        <time>2025-10-03T11:47:22.000Z</time>
      </trkpt>
      <trkpt lat="43.5625" lon="3.32426">
        <ele>237</ele>
        <time>2025-10-03T11:47:30.000Z</time>
      </trkpt>
      <trkpt lat="43.56247" lon="3.32438">
        <ele>237</ele>
        <time>2025-10-03T11:47:38.000Z</time>
      </trkpt>
      <trkpt lat="43.56245" lon="3.32453">
        <ele>238</ele>
        <time>2025-10-03T11:47:47.000Z</time>
      </trkpt>
      <trkpt lat="43.56243" lon="3.32467">
        <ele>239</ele>
        <time>2025-10-03T11:47:56.000Z</time>
      </trkpt>
      <trkpt lat="43.56239" lon="3.32479">
        <ele>240</ele>
        <time>2025-10-03T11:48:04.000Z</time>
      </trkpt>
      <trkpt lat="43.56235" lon="3.32491">
        <ele>241</ele>
        <time>2025-10-03T11:48:14.000Z</time>
      </trkpt>
      <trkpt lat="43.56231" lon="3.32502">
        <ele>242</ele>
        <time>2025-10-03T11:48:21.000Z</time>
      </trkpt>
      <trkpt lat="43.56224" lon="3.32512">
        <ele>243</ele>
        <time>2025-10-03T11:48:32.000Z</time>
      </trkpt>
      <trkpt lat="43.56217" lon="3.32517">
        <ele>244</ele>
        <time>2025-10-03T11:48:40.000Z</time>
      </trkpt>
      <trkpt lat="43.56217" lon="3.32507">
        <ele>245</ele>
        <time>2025-10-03T11:49:13.000Z</time>
      </trkpt>
      <trkpt lat="43.5622" lon="3.32495">
        <ele>245</ele>
        <time>2025-10-03T11:49:22.000Z</time>
      </trkpt>
      <trkpt lat="43.56223" lon="3.32482">
        <ele>246</ele>
        <time>2025-10-03T11:49:32.000Z</time>
      </trkpt>
      <trkpt lat="43.56224" lon="3.32469">
        <ele>247</ele>
        <time>2025-10-03T11:49:39.000Z</time>
      </trkpt>
      <trkpt lat="43.56224" lon="3.32457">
        <ele>247</ele>
        <time>2025-10-03T11:49:47.000Z</time>
      </trkpt>
      <trkpt lat="43.56224" lon="3.32445">
        <ele>248</ele>
        <time>2025-10-03T11:49:56.000Z</time>
      </trkpt>
      <trkpt lat="43.56223" lon="3.32433">
        <ele>249</ele>
        <time>2025-10-03T11:50:04.000Z</time>
      </trkpt>
      <trkpt lat="43.56224" lon="3.3242">
        <ele>249</ele>
        <time>2025-10-03T11:50:14.000Z</time>
      </trkpt>
      <trkpt lat="43.56225" lon="3.32407">
        <ele>250</ele>
        <time>2025-10-03T11:50:24.000Z</time>
      </trkpt>
      <trkpt lat="43.56225" lon="3.32395">
        <ele>251</ele>
        <time>2025-10-03T11:50:32.000Z</time>
      </trkpt>
      <trkpt lat="43.56223" lon="3.32381">
        <ele>252</ele>
        <time>2025-10-03T11:50:41.000Z</time>
      </trkpt>
      <trkpt lat="43.56217" lon="3.32374">
        <ele>254</ele>
        <time>2025-10-03T11:50:50.000Z</time>
      </trkpt>
      <trkpt lat="43.5621" lon="3.32381">
        <ele>255</ele>
        <time>2025-10-03T11:50:57.000Z</time>
      </trkpt>
      <trkpt lat="43.56205" lon="3.3239">
        <ele>257</ele>
        <time>2025-10-03T11:51:06.000Z</time>
      </trkpt>
      <trkpt lat="43.56202" lon="3.32402">
        <ele>258</ele>
        <time>2025-10-03T11:51:13.000Z</time>
      </trkpt>
      <trkpt lat="43.56199" lon="3.32414">
        <ele>259</ele>
        <time>2025-10-03T11:51:22.000Z</time>
      </trkpt>
      <trkpt lat="43.56196" lon="3.32426">
        <ele>260</ele>
        <time>2025-10-03T11:51:31.000Z</time>
      </trkpt>
      <trkpt lat="43.56194" lon="3.32439">
        <ele>261</ele>
        <time>2025-10-03T11:51:42.000Z</time>
      </trkpt>
      <trkpt lat="43.56191" lon="3.32452">
        <ele>262</ele>
        <time>2025-10-03T11:51:49.000Z</time>
      </trkpt>
      <trkpt lat="43.56187" lon="3.32463">
        <ele>263</ele>
        <time>2025-10-03T11:51:57.000Z</time>
      </trkpt>
      <trkpt lat="43.56183" lon="3.32474">
        <ele>264</ele>
        <time>2025-10-03T11:52:06.000Z</time>
      </trkpt>
      <trkpt lat="43.56178" lon="3.32485">
        <ele>265</ele>
        <time>2025-10-03T11:52:14.000Z</time>
      </trkpt>
      <trkpt lat="43.56171" lon="3.32495">
        <ele>265</ele>
        <time>2025-10-03T11:52:24.000Z</time>
      </trkpt>
      <trkpt lat="43.56165" lon="3.32504">
        <ele>265</ele>
        <time>2025-10-03T11:52:34.000Z</time>
      </trkpt>
      <trkpt lat="43.5616" lon="3.32514">
        <ele>265</ele>
        <time>2025-10-03T11:52:42.000Z</time>
      </trkpt>
      <trkpt lat="43.56156" lon="3.32527">
        <ele>264</ele>
        <time>2025-10-03T11:52:50.000Z</time>
      </trkpt>
      <trkpt lat="43.5615" lon="3.32538">
        <ele>264</ele>
        <time>2025-10-03T11:52:59.000Z</time>
      </trkpt>
      <trkpt lat="43.56144" lon="3.32548">
        <ele>264</ele>
        <time>2025-10-03T11:53:08.000Z</time>
      </trkpt>
      <trkpt lat="43.56138" lon="3.32557">
        <ele>265</ele>
        <time>2025-10-03T11:53:18.000Z</time>
      </trkpt>
      <trkpt lat="43.56131" lon="3.32566">
        <ele>266</ele>
        <time>2025-10-03T11:53:28.000Z</time>
      </trkpt>
      <trkpt lat="43.56124" lon="3.32576">
        <ele>267</ele>
        <time>2025-10-03T11:53:38.000Z</time>
      </trkpt>
      <trkpt lat="43.56116" lon="3.32585">
        <ele>268</ele>
        <time>2025-10-03T11:53:45.000Z</time>
      </trkpt>
      <trkpt lat="43.56107" lon="3.32593">
        <ele>269</ele>
        <time>2025-10-03T11:53:53.000Z</time>
      </trkpt>
      <trkpt lat="43.56099" lon="3.32599">
        <ele>269</ele>
        <time>2025-10-03T11:54:04.000Z</time>
      </trkpt>
      <trkpt lat="43.5609" lon="3.32604">
        <ele>270</ele>
        <time>2025-10-03T11:54:16.000Z</time>
      </trkpt>
      <trkpt lat="43.5608" lon="3.32608">
        <ele>271</ele>
        <time>2025-10-03T11:54:25.000Z</time>
      </trkpt>
      <trkpt lat="43.56071" lon="3.32611">
        <ele>271</ele>
        <time>2025-10-03T11:54:35.000Z</time>
      </trkpt>
      <trkpt lat="43.56061" lon="3.32615">
        <ele>272</ele>
        <time>2025-10-03T11:54:45.000Z</time>
      </trkpt>
      <trkpt lat="43.56052" lon="3.32623">
        <ele>273</ele>
        <time>2025-10-03T11:54:53.000Z</time>
      </trkpt>
      <trkpt lat="43.56044" lon="3.3263">
        <ele>273</ele>
        <time>2025-10-03T11:55:00.000Z</time>
      </trkpt>
      <trkpt lat="43.56038" lon="3.3264">
        <ele>274</ele>
        <time>2025-10-03T11:55:11.000Z</time>
      </trkpt>
      <trkpt lat="43.56034" lon="3.32652">
        <ele>274</ele>
        <time>2025-10-03T11:55:19.000Z</time>
      </trkpt>
      <trkpt lat="43.5603" lon="3.32664">
        <ele>275</ele>
        <time>2025-10-03T11:55:27.000Z</time>
      </trkpt>
      <trkpt lat="43.56025" lon="3.32675">
        <ele>275</ele>
        <time>2025-10-03T11:55:34.000Z</time>
      </trkpt>
      <trkpt lat="43.56023" lon="3.32688">
        <ele>275</ele>
        <time>2025-10-03T11:55:43.000Z</time>
      </trkpt>
      <trkpt lat="43.56024" lon="3.32699">
        <ele>275</ele>
        <time>2025-10-03T11:55:50.000Z</time>
      </trkpt>
      <trkpt lat="43.56022" lon="3.32712">
        <ele>274</ele>
        <time>2025-10-03T11:55:59.000Z</time>
      </trkpt>
      <trkpt lat="43.56021" lon="3.32725">
        <ele>274</ele>
        <time>2025-10-03T11:56:08.000Z</time>
      </trkpt>
      <trkpt lat="43.56025" lon="3.32736">
        <ele>274</ele>
        <time>2025-10-03T11:56:17.000Z</time>
      </trkpt>
      <trkpt lat="43.56031" lon="3.32746">
        <ele>274</ele>
        <time>2025-10-03T11:56:25.000Z</time>
      </trkpt>
      <trkpt lat="43.56036" lon="3.32757">
        <ele>274</ele>
        <time>2025-10-03T11:56:33.000Z</time>
      </trkpt>
      <trkpt lat="43.56038" lon="3.32769">
        <ele>274</ele>
        <time>2025-10-03T11:56:40.000Z</time>
      </trkpt>
      <trkpt lat="43.56039" lon="3.32783">
        <ele>274</ele>
        <time>2025-10-03T11:56:50.000Z</time>
      </trkpt>
      <trkpt lat="43.5604" lon="3.32797">
        <ele>275</ele>
        <time>2025-10-03T11:57:01.000Z</time>
      </trkpt>
      <trkpt lat="43.5604" lon="3.32811">
        <ele>275</ele>
        <time>2025-10-03T11:57:09.000Z</time>
      </trkpt>
      <trkpt lat="43.56036" lon="3.32822">
        <ele>276</ele>
        <time>2025-10-03T11:57:19.000Z</time>
      </trkpt>
      <trkpt lat="43.56033" lon="3.32833">
        <ele>277</ele>
        <time>2025-10-03T11:57:26.000Z</time>
      </trkpt>
      <trkpt lat="43.56031" lon="3.32845">
        <ele>278</ele>
        <time>2025-10-03T11:57:35.000Z</time>
      </trkpt>
      <trkpt lat="43.56028" lon="3.32857">
        <ele>279</ele>
        <time>2025-10-03T11:57:45.000Z</time>
      </trkpt>
      <trkpt lat="43.56025" lon="3.32869">
        <ele>281</ele>
        <time>2025-10-03T11:57:54.000Z</time>
      </trkpt>
      <trkpt lat="43.56018" lon="3.3288">
        <ele>283</ele>
        <time>2025-10-03T11:58:05.000Z</time>
      </trkpt>
      <trkpt lat="43.5601" lon="3.32888">
        <ele>285</ele>
        <time>2025-10-03T11:58:13.000Z</time>
      </trkpt>
      <trkpt lat="43.56003" lon="3.32897">
        <ele>286</ele>
        <time>2025-10-03T11:58:21.000Z</time>
      </trkpt>
      <trkpt lat="43.55999" lon="3.32908">
        <ele>287</ele>
        <time>2025-10-03T11:58:33.000Z</time>
      </trkpt>
      <trkpt lat="43.55997" lon="3.32921">
        <ele>288</ele>
        <time>2025-10-03T11:58:47.000Z</time>
      </trkpt>
      <trkpt lat="43.55992" lon="3.32933">
        <ele>288</ele>
        <time>2025-10-03T11:59:01.000Z</time>
      </trkpt>
      <trkpt lat="43.55988" lon="3.32945">
        <ele>288</ele>
        <time>2025-10-03T12:00:27.000Z</time>
      </trkpt>
      <trkpt lat="43.55984" lon="3.32957">
        <ele>288</ele>
        <time>2025-10-03T12:00:35.000Z</time>
      </trkpt>
      <trkpt lat="43.55988" lon="3.32967">
        <ele>286</ele>
        <time>2025-10-03T12:00:40.000Z</time>
      </trkpt>
      <trkpt lat="43.55994" lon="3.32976">
        <ele>283</ele>
        <time>2025-10-03T12:00:53.000Z</time>
      </trkpt>
      <trkpt lat="43.56001" lon="3.32985">
        <ele>280</ele>
        <time>2025-10-03T12:01:03.000Z</time>
      </trkpt>
      <trkpt lat="43.56008" lon="3.32993">
        <ele>276</ele>
        <time>2025-10-03T12:01:21.000Z</time>
      </trkpt>
      <trkpt lat="43.56014" lon="3.33001">
        <ele>273</ele>
        <time>2025-10-03T12:02:25.000Z</time>
      </trkpt>
      <trkpt lat="43.56027" lon="3.33002">
        <ele>270</ele>
        <time>2025-10-03T12:04:15.000Z</time>
      </trkpt>
      <trkpt lat="43.5603" lon="3.32993">
        <ele>268</ele>
        <time>2025-10-03T12:04:43.000Z</time>
      </trkpt>
      <trkpt lat="43.56025" lon="3.32991">
        <ele>265</ele>
        <time>2025-10-03T12:05:13.000Z</time>
      </trkpt>
      <trkpt lat="43.5603" lon="3.32997">
        <ele>263</ele>
        <time>2025-10-03T12:05:49.000Z</time>
      </trkpt>
      <trkpt lat="43.56038" lon="3.33006">
        <ele>260</ele>
        <time>2025-10-03T12:06:42.000Z</time>
      </trkpt>
      <trkpt lat="43.56044" lon="3.33016">
        <ele>260</ele>
        <time>2025-10-03T12:07:02.000Z</time>
      </trkpt>
      <trkpt lat="43.56052" lon="3.33013">
        <ele>260</ele>
        <time>2025-10-03T12:07:33.000Z</time>
      </trkpt>
      <trkpt lat="43.56051" lon="3.33002">
        <ele>262</ele>
        <time>2025-10-03T12:08:19.000Z</time>
      </trkpt>
      <trkpt lat="43.56043" lon="3.32997">
        <ele>265</ele>
        <time>2025-10-03T12:08:29.000Z</time>
      </trkpt>
      <trkpt lat="43.56033" lon="3.32994">
        <ele>268</ele>
        <time>2025-10-03T12:10:03.000Z</time>
      </trkpt>
      <trkpt lat="43.56024" lon="3.32995">
        <ele>271</ele>
        <time>2025-10-03T12:10:13.000Z</time>
      </trkpt>
      <trkpt lat="43.56015" lon="3.32995">
        <ele>274</ele>
        <time>2025-10-03T12:11:19.000Z</time>
      </trkpt>
      <trkpt lat="43.56006" lon="3.32986">
        <ele>276</ele>
        <time>2025-10-03T12:13:01.000Z</time>
      </trkpt>
      <trkpt lat="43.55999" lon="3.32977">
        <ele>278</ele>
        <time>2025-10-03T12:13:09.000Z</time>
      </trkpt>
      <trkpt lat="43.55993" lon="3.32969">
        <ele>280</ele>
        <time>2025-10-03T12:13:20.000Z</time>
      </trkpt>
      <trkpt lat="43.55994" lon="3.32957">
        <ele>281</ele>
        <time>2025-10-03T12:13:33.000Z</time>
      </trkpt>
      <trkpt lat="43.55996" lon="3.32944">
        <ele>282</ele>
        <time>2025-10-03T12:13:57.000Z</time>
      </trkpt>
      <trkpt lat="43.56" lon="3.32933">
        <ele>283</ele>
        <time>2025-10-03T12:15:43.000Z</time>
      </trkpt>
      <trkpt lat="43.55993" lon="3.32935">
        <ele>284</ele>
        <time>2025-10-03T12:16:14.000Z</time>
      </trkpt>
      <trkpt lat="43.5599" lon="3.32947">
        <ele>284</ele>
        <time>2025-10-03T12:17:47.000Z</time>
      </trkpt>
      <trkpt lat="43.55988" lon="3.32955">
        <ele>285</ele>
        <time>2025-10-03T12:18:03.000Z</time>
      </trkpt>
      <trkpt lat="43.55993" lon="3.32949">
        <ele>285</ele>
        <time>2025-10-03T12:18:47.000Z</time>
      </trkpt>
      <trkpt lat="43.55995" lon="3.32937">
        <ele>285</ele>
        <time>2025-10-03T12:18:54.000Z</time>
      </trkpt>
      <trkpt lat="43.55992" lon="3.32925">
        <ele>285</ele>
        <time>2025-10-03T12:19:23.000Z</time>
      </trkpt>
      <trkpt lat="43.55987" lon="3.32915">
        <ele>285</ele>
        <time>2025-10-03T12:20:11.000Z</time>
      </trkpt>
      <trkpt lat="43.55978" lon="3.32913">
        <ele>284</ele>
        <time>2025-10-03T12:20:17.000Z</time>
      </trkpt>
      <trkpt lat="43.55968" lon="3.32915">
        <ele>284</ele>
        <time>2025-10-03T12:20:23.000Z</time>
      </trkpt>
      <trkpt lat="43.55959" lon="3.32919">
        <ele>284</ele>
        <time>2025-10-03T12:20:29.000Z</time>
      </trkpt>
      <trkpt lat="43.55951" lon="3.32925">
        <ele>284</ele>
        <time>2025-10-03T12:20:34.000Z</time>
      </trkpt>
      <trkpt lat="43.55944" lon="3.32932">
        <ele>284</ele>
        <time>2025-10-03T12:20:43.000Z</time>
      </trkpt>
      <trkpt lat="43.55937" lon="3.3294">
        <ele>285</ele>
        <time>2025-10-03T12:20:51.000Z</time>
      </trkpt>
      <trkpt lat="43.55932" lon="3.32951">
        <ele>286</ele>
        <time>2025-10-03T12:21:01.000Z</time>
      </trkpt>
      <trkpt lat="43.55927" lon="3.32963">
        <ele>287</ele>
        <time>2025-10-03T12:21:11.000Z</time>
      </trkpt>
      <trkpt lat="43.55922" lon="3.32975">
        <ele>288</ele>
        <time>2025-10-03T12:21:19.000Z</time>
      </trkpt>
      <trkpt lat="43.55915" lon="3.32984">
        <ele>288</ele>
        <time>2025-10-03T12:21:26.000Z</time>
      </trkpt>
      <trkpt lat="43.55908" lon="3.32996">
        <ele>288</ele>
        <time>2025-10-03T12:21:39.000Z</time>
      </trkpt>
      <trkpt lat="43.55905" lon="3.33008">
        <ele>287</ele>
        <time>2025-10-03T12:21:47.000Z</time>
      </trkpt>
      <trkpt lat="43.55902" lon="3.3302">
        <ele>287</ele>
        <time>2025-10-03T12:21:54.000Z</time>
      </trkpt>
      <trkpt lat="43.55897" lon="3.33031">
        <ele>287</ele>
        <time>2025-10-03T12:22:03.000Z</time>
      </trkpt>
      <trkpt lat="43.55892" lon="3.33042">
        <ele>287</ele>
        <time>2025-10-03T12:22:11.000Z</time>
      </trkpt>
      <trkpt lat="43.55886" lon="3.33051">
        <ele>288</ele>
        <time>2025-10-03T12:22:19.000Z</time>
      </trkpt>
      <trkpt lat="43.55879" lon="3.33061">
        <ele>289</ele>
        <time>2025-10-03T12:22:29.000Z</time>
      </trkpt>
      <trkpt lat="43.55873" lon="3.33071">
        <ele>290</ele>
        <time>2025-10-03T12:22:36.000Z</time>
      </trkpt>
      <trkpt lat="43.55866" lon="3.3308">
        <ele>291</ele>
        <time>2025-10-03T12:22:45.000Z</time>
      </trkpt>
      <trkpt lat="43.55859" lon="3.33091">
        <ele>291</ele>
        <time>2025-10-03T12:22:55.000Z</time>
      </trkpt>
      <trkpt lat="43.55853" lon="3.33101">
        <ele>292</ele>
        <time>2025-10-03T12:23:03.000Z</time>
      </trkpt>
      <trkpt lat="43.55847" lon="3.33113">
        <ele>292</ele>
        <time>2025-10-03T12:23:13.000Z</time>
      </trkpt>
      <trkpt lat="43.55841" lon="3.33123">
        <ele>292</ele>
        <time>2025-10-03T12:23:19.000Z</time>
      </trkpt>
      <trkpt lat="43.55835" lon="3.33134">
        <ele>291</ele>
        <time>2025-10-03T12:23:26.000Z</time>
      </trkpt>
      <trkpt lat="43.55829" lon="3.33146">
        <ele>291</ele>
        <time>2025-10-03T12:23:37.000Z</time>
      </trkpt>
      <trkpt lat="43.55824" lon="3.33157">
        <ele>292</ele>
        <time>2025-10-03T12:23:44.000Z</time>
      </trkpt>
      <trkpt lat="43.55817" lon="3.33167">
        <ele>292</ele>
        <time>2025-10-03T12:23:53.000Z</time>
      </trkpt>
      <trkpt lat="43.55811" lon="3.33179">
        <ele>293</ele>
        <time>2025-10-03T12:24:00.000Z</time>
      </trkpt>
      <trkpt lat="43.55806" lon="3.3319">
        <ele>293</ele>
        <time>2025-10-03T12:24:10.000Z</time>
      </trkpt>
      <trkpt lat="43.55802" lon="3.33201">
        <ele>294</ele>
        <time>2025-10-03T12:24:21.000Z</time>
      </trkpt>
      <trkpt lat="43.55797" lon="3.33212">
        <ele>294</ele>
        <time>2025-10-03T12:24:28.000Z</time>
      </trkpt>
      <trkpt lat="43.55795" lon="3.33224">
        <ele>295</ele>
        <time>2025-10-03T12:24:37.000Z</time>
      </trkpt>
      <trkpt lat="43.55793" lon="3.33237">
        <ele>295</ele>
        <time>2025-10-03T12:24:44.000Z</time>
      </trkpt>
      <trkpt lat="43.5579" lon="3.33249">
        <ele>296</ele>
        <time>2025-10-03T12:24:53.000Z</time>
      </trkpt>
      <trkpt lat="43.55787" lon="3.33261">
        <ele>296</ele>
        <time>2025-10-03T12:25:00.000Z</time>
      </trkpt>
      <trkpt lat="43.55783" lon="3.33272">
        <ele>297</ele>
        <time>2025-10-03T12:25:09.000Z</time>
      </trkpt>
      <trkpt lat="43.55778" lon="3.33284">
        <ele>298</ele>
        <time>2025-10-03T12:25:19.000Z</time>
      </trkpt>
      <trkpt lat="43.55774" lon="3.33296">
        <ele>299</ele>
        <time>2025-10-03T12:25:27.000Z</time>
      </trkpt>
      <trkpt lat="43.5577" lon="3.33308">
        <ele>301</ele>
        <time>2025-10-03T12:25:36.000Z</time>
      </trkpt>
      <trkpt lat="43.55767" lon="3.33321">
        <ele>302</ele>
        <time>2025-10-03T12:25:47.000Z</time>
      </trkpt>
      <trkpt lat="43.55761" lon="3.33332">
        <ele>302</ele>
        <time>2025-10-03T12:25:54.000Z</time>
      </trkpt>
      <trkpt lat="43.55757" lon="3.33343">
        <ele>302</ele>
        <time>2025-10-03T12:26:03.000Z</time>
      </trkpt>
      <trkpt lat="43.55752" lon="3.33355">
        <ele>302</ele>
        <time>2025-10-03T12:26:13.000Z</time>
      </trkpt>
      <trkpt lat="43.55746" lon="3.33365">
        <ele>302</ele>
        <time>2025-10-03T12:26:21.000Z</time>
      </trkpt>
      <trkpt lat="43.55741" lon="3.33375">
        <ele>302</ele>
        <time>2025-10-03T12:26:28.000Z</time>
      </trkpt>
      <trkpt lat="43.55735" lon="3.33385">
        <ele>303</ele>
        <time>2025-10-03T12:26:37.000Z</time>
      </trkpt>
      <trkpt lat="43.55728" lon="3.33392">
        <ele>303</ele>
        <time>2025-10-03T12:26:44.000Z</time>
      </trkpt>
      <trkpt lat="43.55721" lon="3.334">
        <ele>303</ele>
        <time>2025-10-03T12:26:52.000Z</time>
      </trkpt>
      <trkpt lat="43.55715" lon="3.33409">
        <ele>303</ele>
        <time>2025-10-03T12:27:01.000Z</time>
      </trkpt>
      <trkpt lat="43.5571" lon="3.3342">
        <ele>303</ele>
        <time>2025-10-03T12:27:08.000Z</time>
      </trkpt>
      <trkpt lat="43.55707" lon="3.33431">
        <ele>304</ele>
        <time>2025-10-03T12:27:16.000Z</time>
      </trkpt>
      <trkpt lat="43.55703" lon="3.33444">
        <ele>305</ele>
        <time>2025-10-03T12:27:27.000Z</time>
      </trkpt>
      <trkpt lat="43.557" lon="3.33457">
        <ele>306</ele>
        <time>2025-10-03T12:27:59.000Z</time>
      </trkpt>
      <trkpt lat="43.55695" lon="3.33469">
        <ele>308</ele>
        <time>2025-10-03T12:28:09.000Z</time>
      </trkpt>
      <trkpt lat="43.5569" lon="3.33479">
        <ele>309</ele>
        <time>2025-10-03T12:28:17.000Z</time>
      </trkpt>
      <trkpt lat="43.55686" lon="3.33491">
        <ele>311</ele>
        <time>2025-10-03T12:28:29.000Z</time>
      </trkpt>
      <trkpt lat="43.55683" lon="3.33502">
        <ele>312</ele>
        <time>2025-10-03T12:28:37.000Z</time>
      </trkpt>
      <trkpt lat="43.55682" lon="3.33515">
        <ele>313</ele>
        <time>2025-10-03T12:28:45.000Z</time>
      </trkpt>
      <trkpt lat="43.55681" lon="3.33528">
        <ele>313</ele>
        <time>2025-10-03T12:28:55.000Z</time>
      </trkpt>
      <trkpt lat="43.55679" lon="3.33542">
        <ele>314</ele>
        <time>2025-10-03T12:29:04.000Z</time>
      </trkpt>
      <trkpt lat="43.55677" lon="3.33555">
        <ele>314</ele>
        <time>2025-10-03T12:29:11.000Z</time>
      </trkpt>
      <trkpt lat="43.55673" lon="3.33568">
        <ele>315</ele>
        <time>2025-10-03T12:29:18.000Z</time>
      </trkpt>
      <trkpt lat="43.55671" lon="3.33581">
        <ele>315</ele>
        <time>2025-10-03T12:29:27.000Z</time>
      </trkpt>
      <trkpt lat="43.5567" lon="3.33594">
        <ele>316</ele>
        <time>2025-10-03T12:29:35.000Z</time>
      </trkpt>
      <trkpt lat="43.55668" lon="3.33607">
        <ele>317</ele>
        <time>2025-10-03T12:29:43.000Z</time>
      </trkpt>
      <trkpt lat="43.55665" lon="3.33621">
        <ele>317</ele>
        <time>2025-10-03T12:29:53.000Z</time>
      </trkpt>
      <trkpt lat="43.55663" lon="3.33634">
        <ele>318</ele>
        <time>2025-10-03T12:30:00.000Z</time>
      </trkpt>
      <trkpt lat="43.55662" lon="3.33647">
        <ele>318</ele>
        <time>2025-10-03T12:30:09.000Z</time>
      </trkpt>
      <trkpt lat="43.5566" lon="3.3366">
        <ele>318</ele>
        <time>2025-10-03T12:30:17.000Z</time>
      </trkpt>
      <trkpt lat="43.55659" lon="3.33674">
        <ele>318</ele>
        <time>2025-10-03T12:30:25.000Z</time>
      </trkpt>
      <trkpt lat="43.55658" lon="3.33686">
        <ele>319</ele>
        <time>2025-10-03T12:30:32.000Z</time>
      </trkpt>
      <trkpt lat="43.55658" lon="3.337">
        <ele>320</ele>
        <time>2025-10-03T12:30:40.000Z</time>
      </trkpt>
      <trkpt lat="43.55658" lon="3.33713">
        <ele>320</ele>
        <time>2025-10-03T12:30:49.000Z</time>
      </trkpt>
      <trkpt lat="43.55658" lon="3.33727">
        <ele>321</ele>
        <time>2025-10-03T12:31:05.000Z</time>
      </trkpt>
      <trkpt lat="43.55657" lon="3.33739">
        <ele>322</ele>
        <time>2025-10-03T12:31:13.000Z</time>
      </trkpt>
      <trkpt lat="43.55655" lon="3.33752">
        <ele>323</ele>
        <time>2025-10-03T12:32:30.000Z</time>
      </trkpt>
      <trkpt lat="43.5565" lon="3.33764">
        <ele>324</ele>
        <time>2025-10-03T12:32:39.000Z</time>
      </trkpt>
      <trkpt lat="43.55646" lon="3.33774">
        <ele>325</ele>
        <time>2025-10-03T12:32:46.000Z</time>
      </trkpt>
      <trkpt lat="43.55642" lon="3.33786">
        <ele>326</ele>
        <time>2025-10-03T12:32:55.000Z</time>
      </trkpt>
      <trkpt lat="43.55639" lon="3.33797">
        <ele>327</ele>
        <time>2025-10-03T12:33:03.000Z</time>
      </trkpt>
      <trkpt lat="43.55637" lon="3.33809">
        <ele>328</ele>
        <time>2025-10-03T12:33:11.000Z</time>
      </trkpt>
      <trkpt lat="43.55632" lon="3.33821">
        <ele>329</ele>
        <time>2025-10-03T12:33:18.000Z</time>
      </trkpt>
      <trkpt lat="43.5563" lon="3.33835">
        <ele>330</ele>
        <time>2025-10-03T12:33:27.000Z</time>
      </trkpt>
      <trkpt lat="43.55628" lon="3.33848">
        <ele>331</ele>
        <time>2025-10-03T12:33:35.000Z</time>
      </trkpt>
      <trkpt lat="43.55628" lon="3.33862">
        <ele>332</ele>
        <time>2025-10-03T12:33:43.000Z</time>
      </trkpt>
      <trkpt lat="43.55627" lon="3.33876">
        <ele>333</ele>
        <time>2025-10-03T12:33:51.000Z</time>
      </trkpt>
      <trkpt lat="43.55624" lon="3.33888">
        <ele>334</ele>
        <time>2025-10-03T12:33:59.000Z</time>
      </trkpt>
      <trkpt lat="43.55624" lon="3.33903">
        <ele>335</ele>
        <time>2025-10-03T12:34:08.000Z</time>
      </trkpt>
      <trkpt lat="43.55622" lon="3.33916">
        <ele>336</ele>
        <time>2025-10-03T12:34:16.000Z</time>
      </trkpt>
      <trkpt lat="43.55622" lon="3.3393">
        <ele>337</ele>
        <time>2025-10-03T12:34:25.000Z</time>
      </trkpt>
      <trkpt lat="43.55623" lon="3.33944">
        <ele>338</ele>
        <time>2025-10-03T12:34:32.000Z</time>
      </trkpt>
      <trkpt lat="43.55621" lon="3.33956">
        <ele>339</ele>
        <time>2025-10-03T12:34:40.000Z</time>
      </trkpt>
      <trkpt lat="43.5562" lon="3.33969">
        <ele>340</ele>
        <time>2025-10-03T12:34:49.000Z</time>
      </trkpt>
      <trkpt lat="43.55617" lon="3.33982">
        <ele>341</ele>
        <time>2025-10-03T12:34:57.000Z</time>
      </trkpt>
      <trkpt lat="43.55615" lon="3.33995">
        <ele>342</ele>
        <time>2025-10-03T12:35:04.000Z</time>
      </trkpt>
      <trkpt lat="43.55614" lon="3.34008">
        <ele>343</ele>
        <time>2025-10-03T12:35:13.000Z</time>
      </trkpt>
      <trkpt lat="43.55613" lon="3.34021">
        <ele>344</ele>
        <time>2025-10-03T12:35:21.000Z</time>
      </trkpt>
      <trkpt lat="43.55611" lon="3.34034">
        <ele>344</ele>
        <time>2025-10-03T12:35:28.000Z</time>
      </trkpt>
      <trkpt lat="43.55612" lon="3.34047">
        <ele>345</ele>
        <time>2025-10-03T12:35:37.000Z</time>
      </trkpt>
      <trkpt lat="43.55616" lon="3.34059">
        <ele>345</ele>
        <time>2025-10-03T12:35:43.000Z</time>
      </trkpt>
      <trkpt lat="43.55621" lon="3.3407">
        <ele>344</ele>
        <time>2025-10-03T12:35:49.000Z</time>
      </trkpt>
      <trkpt lat="43.55627" lon="3.34079">
        <ele>342</ele>
        <time>2025-10-03T12:35:55.000Z</time>
      </trkpt>
      <trkpt lat="43.55632" lon="3.34089">
        <ele>340</ele>
        <time>2025-10-03T12:36:02.000Z</time>
      </trkpt>
      <trkpt lat="43.55639" lon="3.34098">
        <ele>338</ele>
        <time>2025-10-03T12:36:09.000Z</time>
      </trkpt>
      <trkpt lat="43.55646" lon="3.34105">
        <ele>337</ele>
        <time>2025-10-03T12:36:16.000Z</time>
      </trkpt>
      <trkpt lat="43.55654" lon="3.34113">
        <ele>335</ele>
        <time>2025-10-03T12:36:27.000Z</time>
      </trkpt>
      <trkpt lat="43.55664" lon="3.34118">
        <ele>334</ele>
        <time>2025-10-03T12:36:40.000Z</time>
      </trkpt>
      <trkpt lat="43.55672" lon="3.34123">
        <ele>333</ele>
        <time>2025-10-03T12:36:48.000Z</time>
      </trkpt>
      <trkpt lat="43.55681" lon="3.34129">
        <ele>332</ele>
        <time>2025-10-03T12:36:59.000Z</time>
      </trkpt>
      <trkpt lat="43.5569" lon="3.34135">
        <ele>331</ele>
        <time>2025-10-03T12:37:09.000Z</time>
      </trkpt>
      <trkpt lat="43.55698" lon="3.34142">
        <ele>330</ele>
        <time>2025-10-03T12:37:17.000Z</time>
      </trkpt>
      <trkpt lat="43.55707" lon="3.3415">
        <ele>329</ele>
        <time>2025-10-03T12:37:27.000Z</time>
      </trkpt>
      <trkpt lat="43.55714" lon="3.34159">
        <ele>329</ele>
        <time>2025-10-03T12:37:39.000Z</time>
      </trkpt>
      <trkpt lat="43.55721" lon="3.3417">
        <ele>328</ele>
        <time>2025-10-03T12:37:48.000Z</time>
      </trkpt>
      <trkpt lat="43.55729" lon="3.3418">
        <ele>327</ele>
        <time>2025-10-03T12:37:59.000Z</time>
      </trkpt>
      <trkpt lat="43.55734" lon="3.34191">
        <ele>326</ele>
        <time>2025-10-03T12:38:08.000Z</time>
      </trkpt>
      <trkpt lat="43.55737" lon="3.34203">
        <ele>324</ele>
        <time>2025-10-03T12:38:19.000Z</time>
      </trkpt>
      <trkpt lat="43.55742" lon="3.34216">
        <ele>323</ele>
        <time>2025-10-03T12:38:29.000Z</time>
      </trkpt>
      <trkpt lat="43.55745" lon="3.34229">
        <ele>321</ele>
        <time>2025-10-03T12:38:39.000Z</time>
      </trkpt>
      <trkpt lat="43.55747" lon="3.34241">
        <ele>320</ele>
        <time>2025-10-03T12:38:49.000Z</time>
      </trkpt>
      <trkpt lat="43.55749" lon="3.34253">
        <ele>319</ele>
        <time>2025-10-03T12:38:58.000Z</time>
      </trkpt>
      <trkpt lat="43.55753" lon="3.34266">
        <ele>318</ele>
        <time>2025-10-03T12:39:09.000Z</time>
      </trkpt>
      <trkpt lat="43.55756" lon="3.34277">
        <ele>317</ele>
        <time>2025-10-03T12:39:16.000Z</time>
      </trkpt>
      <trkpt lat="43.55759" lon="3.34289">
        <ele>316</ele>
        <time>2025-10-03T12:39:26.000Z</time>
      </trkpt>
      <trkpt lat="43.55761" lon="3.34302">
        <ele>316</ele>
        <time>2025-10-03T12:39:36.000Z</time>
      </trkpt>
      <trkpt lat="43.55764" lon="3.34314">
        <ele>315</ele>
        <time>2025-10-03T12:39:47.000Z</time>
      </trkpt>
      <trkpt lat="43.55767" lon="3.34327">
        <ele>314</ele>
        <time>2025-10-03T12:39:56.000Z</time>
      </trkpt>
      <trkpt lat="43.5577" lon="3.3434">
        <ele>313</ele>
        <time>2025-10-03T12:40:07.000Z</time>
      </trkpt>
      <trkpt lat="43.55773" lon="3.34353">
        <ele>312</ele>
        <time>2025-10-03T12:40:14.000Z</time>
      </trkpt>
      <trkpt lat="43.55775" lon="3.34365">
        <ele>312</ele>
        <time>2025-10-03T12:40:23.000Z</time>
      </trkpt>
      <trkpt lat="43.55778" lon="3.34377">
        <ele>311</ele>
        <time>2025-10-03T12:40:31.000Z</time>
      </trkpt>
      <trkpt lat="43.55779" lon="3.3439">
        <ele>311</ele>
        <time>2025-10-03T12:40:39.000Z</time>
      </trkpt>
      <trkpt lat="43.55781" lon="3.34403">
        <ele>311</ele>
        <time>2025-10-03T12:40:47.000Z</time>
      </trkpt>
      <trkpt lat="43.55783" lon="3.34416">
        <ele>312</ele>
        <time>2025-10-03T12:40:56.000Z</time>
      </trkpt>
      <trkpt lat="43.55785" lon="3.34428">
        <ele>312</ele>
        <time>2025-10-03T12:41:04.000Z</time>
      </trkpt>
      <trkpt lat="43.55788" lon="3.34441">
        <ele>312</ele>
        <time>2025-10-03T12:41:12.000Z</time>
      </trkpt>
      <trkpt lat="43.55789" lon="3.34455">
        <ele>313</ele>
        <time>2025-10-03T12:41:23.000Z</time>
      </trkpt>
      <trkpt lat="43.55791" lon="3.34469">
        <ele>314</ele>
        <time>2025-10-03T12:41:33.000Z</time>
      </trkpt>
      <trkpt lat="43.55791" lon="3.34482">
        <ele>316</ele>
        <time>2025-10-03T12:41:42.000Z</time>
      </trkpt>
      <trkpt lat="43.55794" lon="3.34494">
        <ele>320</ele>
        <time>2025-10-03T12:41:55.000Z</time>
      </trkpt>
      <trkpt lat="43.55794" lon="3.34506">
        <ele>323</ele>
        <time>2025-10-03T12:42:29.000Z</time>
      </trkpt>
      <trkpt lat="43.55794" lon="3.34518">
        <ele>327</ele>
        <time>2025-10-03T12:42:39.000Z</time>
      </trkpt>
      <trkpt lat="43.55797" lon="3.34529">
        <ele>330</ele>
        <time>2025-10-03T12:42:49.000Z</time>
      </trkpt>
      <trkpt lat="43.55797" lon="3.34542">
        <ele>332</ele>
        <time>2025-10-03T12:44:25.000Z</time>
      </trkpt>
      <trkpt lat="43.55801" lon="3.34554">
        <ele>334</ele>
        <time>2025-10-03T12:44:57.000Z</time>
      </trkpt>
      <trkpt lat="43.55804" lon="3.34567">
        <ele>335</ele>
        <time>2025-10-03T12:45:07.000Z</time>
      </trkpt>
      <trkpt lat="43.55806" lon="3.34579">
        <ele>336</ele>
        <time>2025-10-03T12:45:19.000Z</time>
      </trkpt>
      <trkpt lat="43.55811" lon="3.34589">
        <ele>337</ele>
        <time>2025-10-03T12:45:28.000Z</time>
      </trkpt>
      <trkpt lat="43.55814" lon="3.346">
        <ele>337</ele>
        <time>2025-10-03T12:45:45.000Z</time>
      </trkpt>
      <trkpt lat="43.55818" lon="3.34612">
        <ele>337</ele>
        <time>2025-10-03T12:45:56.000Z</time>
      </trkpt>
      <trkpt lat="43.55822" lon="3.34623">
        <ele>337</ele>
        <time>2025-10-03T12:46:17.000Z</time>
      </trkpt>
      <trkpt lat="43.55825" lon="3.34636">
        <ele>337</ele>
        <time>2025-10-03T12:46:43.000Z</time>
      </trkpt>
      <trkpt lat="43.55829" lon="3.34647">
        <ele>337</ele>
        <time>2025-10-03T12:47:01.000Z</time>
      </trkpt>
      <trkpt lat="43.55832" lon="3.34658">
        <ele>336</ele>
        <time>2025-10-03T12:47:13.000Z</time>
      </trkpt>
      <trkpt lat="43.55834" lon="3.3467">
        <ele>336</ele>
        <time>2025-10-03T12:47:39.000Z</time>
      </trkpt>
      <trkpt lat="43.55839" lon="3.3468">
        <ele>335</ele>
        <time>2025-10-03T12:47:52.000Z</time>
      </trkpt>
      <trkpt lat="43.55843" lon="3.34691">
        <ele>334</ele>
        <time>2025-10-03T12:48:37.000Z</time>
      </trkpt>
      <trkpt lat="43.55843" lon="3.34704">
        <ele>333</ele>
        <time>2025-10-03T12:48:53.000Z</time>
      </trkpt>
      <trkpt lat="43.55841" lon="3.34716">
        <ele>333</ele>
        <time>2025-10-03T12:49:11.000Z</time>
      </trkpt>
      <trkpt lat="43.55846" lon="3.34726">
        <ele>332</ele>
        <time>2025-10-03T12:49:23.000Z</time>
      </trkpt>
      <trkpt lat="43.5585" lon="3.34737">
        <ele>332</ele>
        <time>2025-10-03T12:49:35.000Z</time>
      </trkpt>
      <trkpt lat="43.55849" lon="3.3475">
        <ele>331</ele>
        <time>2025-10-03T12:49:55.000Z</time>
      </trkpt>
      <trkpt lat="43.55854" lon="3.34761">
        <ele>331</ele>
        <time>2025-10-03T12:50:05.000Z</time>
      </trkpt>
      <trkpt lat="43.55858" lon="3.34773">
        <ele>330</ele>
        <time>2025-10-03T12:50:15.000Z</time>
      </trkpt>
      <trkpt lat="43.5586" lon="3.34785">
        <ele>330</ele>
        <time>2025-10-03T12:50:25.000Z</time>
      </trkpt>
      <trkpt lat="43.55863" lon="3.34798">
        <ele>329</ele>
        <time>2025-10-03T12:50:41.000Z</time>
      </trkpt>
      <trkpt lat="43.55864" lon="3.3481">
        <ele>329</ele>
        <time>2025-10-03T12:50:51.000Z</time>
      </trkpt>
      <trkpt lat="43.55868" lon="3.34822">
        <ele>328</ele>
        <time>2025-10-03T12:51:02.000Z</time>
      </trkpt>
      <trkpt lat="43.55871" lon="3.34836">
        <ele>328</ele>
        <time>2025-10-03T12:51:13.000Z</time>
      </trkpt>
      <trkpt lat="43.55873" lon="3.34849">
        <ele>327</ele>
        <time>2025-10-03T12:51:23.000Z</time>
      </trkpt>
      <trkpt lat="43.55876" lon="3.34861">
        <ele>327</ele>
        <time>2025-10-03T12:51:41.000Z</time>
      </trkpt>
      <trkpt lat="43.55882" lon="3.3487">
        <ele>327</ele>
        <time>2025-10-03T12:51:55.000Z</time>
      </trkpt>
      <trkpt lat="43.55884" lon="3.34883">
        <ele>327</ele>
        <time>2025-10-03T12:52:15.000Z</time>
      </trkpt>
      <trkpt lat="43.55887" lon="3.34895">
        <ele>327</ele>
        <time>2025-10-03T12:52:24.000Z</time>
      </trkpt>
      <trkpt lat="43.55892" lon="3.34906">
        <ele>327</ele>
        <time>2025-10-03T12:52:35.000Z</time>
      </trkpt>
      <trkpt lat="43.55895" lon="3.34919">
        <ele>327</ele>
        <time>2025-10-03T12:52:47.000Z</time>
      </trkpt>
      <trkpt lat="43.55896" lon="3.34932">
        <ele>326</ele>
        <time>2025-10-03T12:53:03.000Z</time>
      </trkpt>
      <trkpt lat="43.55897" lon="3.34945">
        <ele>326</ele>
        <time>2025-10-03T12:53:13.000Z</time>
      </trkpt>
      <trkpt lat="43.55898" lon="3.34958">
        <ele>325</ele>
        <time>2025-10-03T12:53:20.000Z</time>
      </trkpt>
      <trkpt lat="43.55902" lon="3.3497">
        <ele>325</ele>
        <time>2025-10-03T12:53:33.000Z</time>
      </trkpt>
      <trkpt lat="43.55905" lon="3.34982">
        <ele>325</ele>
        <time>2025-10-03T12:53:43.000Z</time>
      </trkpt>
      <trkpt lat="43.55907" lon="3.34994">
        <ele>325</ele>
        <time>2025-10-03T12:53:51.000Z</time>
      </trkpt>
      <trkpt lat="43.55912" lon="3.35007">
        <ele>324</ele>
        <time>2025-10-03T12:54:04.000Z</time>
      </trkpt>
      <trkpt lat="43.55914" lon="3.3502">
        <ele>324</ele>
        <time>2025-10-03T12:54:16.000Z</time>
      </trkpt>
      <trkpt lat="43.55914" lon="3.35032">
        <ele>324</ele>
        <time>2025-10-03T12:54:30.000Z</time>
      </trkpt>
      <trkpt lat="43.55918" lon="3.35043">
        <ele>324</ele>
        <time>2025-10-03T12:54:39.000Z</time>
      </trkpt>
      <trkpt lat="43.55921" lon="3.35054">
        <ele>324</ele>
        <time>2025-10-03T12:54:53.000Z</time>
      </trkpt>
      <trkpt lat="43.55922" lon="3.35066">
        <ele>324</ele>
        <time>2025-10-03T12:55:07.000Z</time>
      </trkpt>
      <trkpt lat="43.55926" lon="3.35077">
        <ele>323</ele>
        <time>2025-10-03T12:55:20.000Z</time>
      </trkpt>
      <trkpt lat="43.55928" lon="3.3509">
        <ele>323</ele>
        <time>2025-10-03T12:55:31.000Z</time>
      </trkpt>
      <trkpt lat="43.5593" lon="3.35102">
        <ele>322</ele>
        <time>2025-10-03T12:55:41.000Z</time>
      </trkpt>
      <trkpt lat="43.55933" lon="3.35114">
        <ele>321</ele>
        <time>2025-10-03T12:55:50.000Z</time>
      </trkpt>
      <trkpt lat="43.55937" lon="3.35127">
        <ele>320</ele>
        <time>2025-10-03T12:56:03.000Z</time>
      </trkpt>
      <trkpt lat="43.55939" lon="3.3514">
        <ele>318</ele>
        <time>2025-10-03T12:56:14.000Z</time>
      </trkpt>
      <trkpt lat="43.5594" lon="3.35152">
        <ele>317</ele>
        <time>2025-10-03T12:56:26.000Z</time>
      </trkpt>
      <trkpt lat="43.55941" lon="3.35165">
        <ele>316</ele>
        <time>2025-10-03T12:56:41.000Z</time>
      </trkpt>
      <trkpt lat="43.55941" lon="3.35178">
        <ele>315</ele>
        <time>2025-10-03T12:56:55.000Z</time>
      </trkpt>
      <trkpt lat="43.55942" lon="3.35192">
        <ele>314</ele>
        <time>2025-10-03T12:57:05.000Z</time>
      </trkpt>
      <trkpt lat="43.55943" lon="3.35204">
        <ele>313</ele>
        <time>2025-10-03T12:57:17.000Z</time>
      </trkpt>
      <trkpt lat="43.55943" lon="3.35216">
        <ele>312</ele>
        <time>2025-10-03T12:57:27.000Z</time>
      </trkpt>
      <trkpt lat="43.55944" lon="3.35229">
        <ele>312</ele>
        <time>2025-10-03T12:57:36.000Z</time>
      </trkpt>
      <trkpt lat="43.55942" lon="3.35242">
        <ele>312</ele>
        <time>2025-10-03T12:57:47.000Z</time>
      </trkpt>
      <trkpt lat="43.55943" lon="3.35254">
        <ele>312</ele>
        <time>2025-10-03T12:57:54.000Z</time>
      </trkpt>
      <trkpt lat="43.55943" lon="3.35267">
        <ele>312</ele>
        <time>2025-10-03T12:58:13.000Z</time>
      </trkpt>
      <trkpt lat="43.55944" lon="3.35279">
        <ele>312</ele>
        <time>2025-10-03T12:58:27.000Z</time>
      </trkpt>
      <trkpt lat="43.55943" lon="3.35292">
        <ele>312</ele>
        <time>2025-10-03T12:58:39.000Z</time>
      </trkpt>
      <trkpt lat="43.55941" lon="3.35304">
        <ele>311</ele>
        <time>2025-10-03T12:58:50.000Z</time>
      </trkpt>
      <trkpt lat="43.55934" lon="3.35311">
        <ele>309</ele>
        <time>2025-10-03T13:00:49.000Z</time>
      </trkpt>
      <trkpt lat="43.55929" lon="3.35321">
        <ele>306</ele>
        <time>2025-10-03T13:01:03.000Z</time>
      </trkpt>
      <trkpt lat="43.55927" lon="3.35332">
        <ele>303</ele>
        <time>2025-10-03T13:01:17.000Z</time>
      </trkpt>
      <trkpt lat="43.5592" lon="3.3534">
        <ele>300</ele>
        <time>2025-10-03T13:01:44.000Z</time>
      </trkpt>
      <trkpt lat="43.55915" lon="3.3535">
        <ele>296</ele>
        <time>2025-10-03T13:02:23.000Z</time>
      </trkpt>
      <trkpt lat="43.55915" lon="3.35365">
        <ele>294</ele>
        <time>2025-10-03T13:03:19.000Z</time>
      </trkpt>
      <trkpt lat="43.5592" lon="3.35384">
        <ele>292</ele>
        <time>2025-10-03T13:04:13.000Z</time>
      </trkpt>
      <trkpt lat="43.55926" lon="3.35395">
        <ele>290</ele>
        <time>2025-10-03T13:04:35.000Z</time>
      </trkpt>
      <trkpt lat="43.55934" lon="3.35404">
        <ele>288</ele>
        <time>2025-10-03T13:05:01.000Z</time>
      </trkpt>
      <trkpt lat="43.55943" lon="3.3541">
        <ele>286</ele>
        <time>2025-10-03T13:05:09.000Z</time>
      </trkpt>
      <trkpt lat="43.55951" lon="3.35416">
        <ele>284</ele>
        <time>2025-10-03T13:05:23.000Z</time>
      </trkpt>
      <trkpt lat="43.55959" lon="3.35424">
        <ele>282</ele>
        <time>2025-10-03T13:05:32.000Z</time>
      </trkpt>
      <trkpt lat="43.55966" lon="3.35433">
        <ele>281</ele>
        <time>2025-10-03T13:05:45.000Z</time>
      </trkpt>
      <trkpt lat="43.55974" lon="3.35443">
        <ele>281</ele>
        <time>2025-10-03T13:05:55.000Z</time>
      </trkpt>
      <trkpt lat="43.55981" lon="3.35453">
        <ele>280</ele>
        <time>2025-10-03T13:06:09.000Z</time>
      </trkpt>
      <trkpt lat="43.55988" lon="3.3546">
        <ele>280</ele>
        <time>2025-10-03T13:06:15.000Z</time>
      </trkpt>
      <trkpt lat="43.55996" lon="3.35468">
        <ele>280</ele>
        <time>2025-10-03T13:06:27.000Z</time>
      </trkpt>
      <trkpt lat="43.55999" lon="3.35481">
        <ele>279</ele>
        <time>2025-10-03T13:06:36.000Z</time>
      </trkpt>
      <trkpt lat="43.56003" lon="3.35492">
        <ele>279</ele>
        <time>2025-10-03T13:06:47.000Z</time>
      </trkpt>
      <trkpt lat="43.56009" lon="3.35503">
        <ele>279</ele>
        <time>2025-10-03T13:06:54.000Z</time>
      </trkpt>
      <trkpt lat="43.56011" lon="3.35516">
        <ele>280</ele>
        <time>2025-10-03T13:07:02.000Z</time>
      </trkpt>
      <trkpt lat="43.56017" lon="3.35526">
        <ele>281</ele>
        <time>2025-10-03T13:07:13.000Z</time>
      </trkpt>
      <trkpt lat="43.5602" lon="3.35539">
        <ele>282</ele>
        <time>2025-10-03T13:07:23.000Z</time>
      </trkpt>
      <trkpt lat="43.56024" lon="3.3555">
        <ele>284</ele>
        <time>2025-10-03T13:07:31.000Z</time>
      </trkpt>
      <trkpt lat="43.56032" lon="3.35558">
        <ele>286</ele>
        <time>2025-10-03T13:07:40.000Z</time>
      </trkpt>
      <trkpt lat="43.56039" lon="3.35565">
        <ele>288</ele>
        <time>2025-10-03T13:07:53.000Z</time>
      </trkpt>
      <trkpt lat="43.56044" lon="3.35575">
        <ele>290</ele>
        <time>2025-10-03T13:08:09.000Z</time>
      </trkpt>
      <trkpt lat="43.5605" lon="3.35585">
        <ele>292</ele>
        <time>2025-10-03T13:08:59.000Z</time>
      </trkpt>
      <trkpt lat="43.56057" lon="3.35593">
        <ele>294</ele>
        <time>2025-10-03T13:09:09.000Z</time>
      </trkpt>
      <trkpt lat="43.56066" lon="3.356">
        <ele>296</ele>
        <time>2025-10-03T13:09:20.000Z</time>
      </trkpt>
      <trkpt lat="43.56075" lon="3.35608">
        <ele>298</ele>
        <time>2025-10-03T13:09:30.000Z</time>
      </trkpt>
      <trkpt lat="43.56082" lon="3.35617">
        <ele>299</ele>
        <time>2025-10-03T13:09:40.000Z</time>
      </trkpt>
      <trkpt lat="43.56085" lon="3.35628">
        <ele>300</ele>
        <time>2025-10-03T13:09:52.000Z</time>
      </trkpt>
      <trkpt lat="43.56088" lon="3.3564">
        <ele>301</ele>
        <time>2025-10-03T13:10:02.000Z</time>
      </trkpt>
      <trkpt lat="43.56092" lon="3.35651">
        <ele>302</ele>
        <time>2025-10-03T13:10:13.000Z</time>
      </trkpt>
      <trkpt lat="43.56092" lon="3.35664">
        <ele>303</ele>
        <time>2025-10-03T13:10:24.000Z</time>
      </trkpt>
      <trkpt lat="43.56094" lon="3.35676">
        <ele>305</ele>
        <time>2025-10-03T13:10:33.000Z</time>
      </trkpt>
      <trkpt lat="43.56099" lon="3.35685">
        <ele>306</ele>
        <time>2025-10-03T13:10:40.000Z</time>
      </trkpt>
      <trkpt lat="43.56107" lon="3.3569">
        <ele>307</ele>
        <time>2025-10-03T13:10:51.000Z</time>
      </trkpt>
      <trkpt lat="43.56113" lon="3.357">
        <ele>308</ele>
        <time>2025-10-03T13:11:07.000Z</time>
      </trkpt>
      <trkpt lat="43.56116" lon="3.35711">
        <ele>309</ele>
        <time>2025-10-03T13:11:22.000Z</time>
      </trkpt>
      <trkpt lat="43.56122" lon="3.35722">
        <ele>311</ele>
        <time>2025-10-03T13:13:17.000Z</time>
      </trkpt>
      <trkpt lat="43.56125" lon="3.35733">
        <ele>314</ele>
        <time>2025-10-03T13:13:47.000Z</time>
      </trkpt>
      <trkpt lat="43.56122" lon="3.35743">
        <ele>316</ele>
        <time>2025-10-03T13:14:23.000Z</time>
      </trkpt>
      <trkpt lat="43.56124" lon="3.35757">
        <ele>318</ele>
        <time>2025-10-03T13:14:51.000Z</time>
      </trkpt>
      <trkpt lat="43.56124" lon="3.35771">
        <ele>320</ele>
        <time>2025-10-03T13:15:41.000Z</time>
      </trkpt>
      <trkpt lat="43.56127" lon="3.35783">
        <ele>322</ele>
        <time>2025-10-03T13:16:19.000Z</time>
      </trkpt>
      <trkpt lat="43.56132" lon="3.35792">
        <ele>324</ele>
        <time>2025-10-03T13:16:29.000Z</time>
      </trkpt>
      <trkpt lat="43.56138" lon="3.35801">
        <ele>325</ele>
        <time>2025-10-03T13:16:49.000Z</time>
      </trkpt>
      <trkpt lat="43.56142" lon="3.35813">
        <ele>326</ele>
        <time>2025-10-03T13:17:07.000Z</time>
      </trkpt>
      <trkpt lat="43.56148" lon="3.35823">
        <ele>327</ele>
        <time>2025-10-03T13:17:21.000Z</time>
      </trkpt>
      <trkpt lat="43.56151" lon="3.35834">
        <ele>328</ele>
        <time>2025-10-03T13:17:33.000Z</time>
      </trkpt>
      <trkpt lat="43.56155" lon="3.35845">
        <ele>329</ele>
        <time>2025-10-03T13:17:47.000Z</time>
      </trkpt>
      <trkpt lat="43.56159" lon="3.35855">
        <ele>329</ele>
        <time>2025-10-03T13:17:59.000Z</time>
      </trkpt>
      <trkpt lat="43.56163" lon="3.35866">
        <ele>329</ele>
        <time>2025-10-03T13:18:15.000Z</time>
      </trkpt>
      <trkpt lat="43.56167" lon="3.35878">
        <ele>329</ele>
        <time>2025-10-03T13:18:49.000Z</time>
      </trkpt>
      <trkpt lat="43.56172" lon="3.35889">
        <ele>329</ele>
        <time>2025-10-03T13:19:09.000Z</time>
      </trkpt>
      <trkpt lat="43.56175" lon="3.35901">
        <ele>330</ele>
        <time>2025-10-03T13:19:18.000Z</time>
      </trkpt>
      <trkpt lat="43.56178" lon="3.35912">
        <ele>330</ele>
        <time>2025-10-03T13:19:31.000Z</time>
      </trkpt>
      <trkpt lat="43.56182" lon="3.35924">
        <ele>330</ele>
        <time>2025-10-03T13:19:41.000Z</time>
      </trkpt>
      <trkpt lat="43.56187" lon="3.35934">
        <ele>331</ele>
        <time>2025-10-03T13:19:53.000Z</time>
      </trkpt>
      <trkpt lat="43.56194" lon="3.35944">
        <ele>332</ele>
        <time>2025-10-03T13:20:05.000Z</time>
      </trkpt>
      <trkpt lat="43.56198" lon="3.35954">
        <ele>332</ele>
        <time>2025-10-03T13:20:12.000Z</time>
      </trkpt>
      <trkpt lat="43.562" lon="3.35966">
        <ele>333</ele>
        <time>2025-10-03T13:20:40.000Z</time>
      </trkpt>
      <trkpt lat="43.56203" lon="3.35978">
        <ele>334</ele>
        <time>2025-10-03T13:21:03.000Z</time>
      </trkpt>
      <trkpt lat="43.56208" lon="3.35987">
        <ele>335</ele>
        <time>2025-10-03T13:21:15.000Z</time>
      </trkpt>
      <trkpt lat="43.56213" lon="3.35997">
        <ele>335</ele>
        <time>2025-10-03T13:21:28.000Z</time>
      </trkpt>
      <trkpt lat="43.56218" lon="3.36008">
        <ele>335</ele>
        <time>2025-10-03T13:21:45.000Z</time>
      </trkpt>
      <trkpt lat="43.56223" lon="3.36019">
        <ele>334</ele>
        <time>2025-10-03T13:22:23.000Z</time>
      </trkpt>
      <trkpt lat="43.56228" lon="3.36029">
        <ele>332</ele>
        <time>2025-10-03T13:27:05.000Z</time>
      </trkpt>
      <trkpt lat="43.56235" lon="3.36035">
        <ele>329</ele>
        <time>2025-10-03T13:27:47.000Z</time>
      </trkpt>
      <trkpt lat="43.56244" lon="3.36037">
        <ele>326</ele>
        <time>2025-10-03T13:28:37.000Z</time>
      </trkpt>
      <trkpt lat="43.56255" lon="3.3604">
        <ele>322</ele>
        <time>2025-10-03T13:29:17.000Z</time>
      </trkpt>
      <trkpt lat="43.56264" lon="3.3604">
        <ele>317</ele>
        <time>2025-10-03T13:29:44.000Z</time>
      </trkpt>
      <trkpt lat="43.56273" lon="3.36042">
        <ele>313</ele>
        <time>2025-10-03T13:30:27.000Z</time>
      </trkpt>
      <trkpt lat="43.56282" lon="3.36039">
        <ele>309</ele>
        <time>2025-10-03T13:31:13.000Z</time>
      </trkpt>
      <trkpt lat="43.56291" lon="3.36041">
        <ele>305</ele>
        <time>2025-10-03T13:31:51.000Z</time>
      </trkpt>
      <trkpt lat="43.56301" lon="3.36044">
        <ele>301</ele>
        <time>2025-10-03T13:32:46.000Z</time>
      </trkpt>
      <trkpt lat="43.56309" lon="3.36046">
        <ele>298</ele>
        <time>2025-10-03T13:33:09.000Z</time>
      </trkpt>
      <trkpt lat="43.56315" lon="3.36039">
        <ele>295</ele>
        <time>2025-10-03T13:33:23.000Z</time>
      </trkpt>
      <trkpt lat="43.56319" lon="3.3603">
        <ele>292</ele>
        <time>2025-10-03T13:33:43.000Z</time>
      </trkpt>
      <trkpt lat="43.56325" lon="3.36036">
        <ele>290</ele>
        <time>2025-10-03T13:34:01.000Z</time>
      </trkpt>
      <trkpt lat="43.5633" lon="3.36047">
        <ele>287</ele>
        <time>2025-10-03T13:34:15.000Z</time>
      </trkpt>
      <trkpt lat="43.56335" lon="3.36054">
        <ele>285</ele>
        <time>2025-10-03T13:34:29.000Z</time>
      </trkpt>
      <trkpt lat="43.5634" lon="3.36047">
        <ele>282</ele>
        <time>2025-10-03T13:34:43.000Z</time>
      </trkpt>
      <trkpt lat="43.5634" lon="3.36036">
        <ele>279</ele>
        <time>2025-10-03T13:34:55.000Z</time>
      </trkpt>
      <trkpt lat="43.56339" lon="3.36025">
        <ele>275</ele>
        <time>2025-10-03T13:35:05.000Z</time>
      </trkpt>
      <trkpt lat="43.56346" lon="3.36023">
        <ele>272</ele>
        <time>2025-10-03T13:35:36.000Z</time>
      </trkpt>
      <trkpt lat="43.56353" lon="3.3603">
        <ele>268</ele>
        <time>2025-10-03T13:35:51.000Z</time>
      </trkpt>
      <trkpt lat="43.56362" lon="3.3603">
        <ele>265</ele>
        <time>2025-10-03T13:36:49.000Z</time>
      </trkpt>
      <trkpt lat="43.5637" lon="3.36032">
        <ele>263</ele>
        <time>2025-10-03T13:37:21.000Z</time>
      </trkpt>
      <trkpt lat="43.56376" lon="3.36025">
        <ele>260</ele>
        <time>2025-10-03T13:37:35.000Z</time>
      </trkpt>
      <trkpt lat="43.5638" lon="3.36014">
        <ele>257</ele>
        <time>2025-10-03T13:37:45.000Z</time>
      </trkpt>
      <trkpt lat="43.56382" lon="3.36002">
        <ele>254</ele>
        <time>2025-10-03T13:38:01.000Z</time>
      </trkpt>
      <trkpt lat="43.56382" lon="3.3599">
        <ele>252</ele>
        <time>2025-10-03T13:38:15.000Z</time>
      </trkpt>
      <trkpt lat="43.56383" lon="3.35978">
        <ele>249</ele>
        <time>2025-10-03T13:38:32.000Z</time>
      </trkpt>
      <trkpt lat="43.56383" lon="3.35965">
        <ele>247</ele>
        <time>2025-10-03T13:40:02.000Z</time>
      </trkpt>
      <trkpt lat="43.56382" lon="3.35951">
        <ele>245</ele>
        <time>2025-10-03T13:40:12.000Z</time>
      </trkpt>
      <trkpt lat="43.56381" lon="3.35937">
        <ele>244</ele>
        <time>2025-10-03T13:40:25.000Z</time>
      </trkpt>
      <trkpt lat="43.56382" lon="3.35923">
        <ele>242</ele>
        <time>2025-10-03T13:40:38.000Z</time>
      </trkpt>
      <trkpt lat="43.56383" lon="3.35909">
        <ele>240</ele>
        <time>2025-10-03T13:40:48.000Z</time>
      </trkpt>
      <trkpt lat="43.56386" lon="3.35897">
        <ele>238</ele>
        <time>2025-10-03T13:41:01.000Z</time>
      </trkpt>
      <trkpt lat="43.56387" lon="3.35885">
        <ele>235</ele>
        <time>2025-10-03T13:41:13.000Z</time>
      </trkpt>
      <trkpt lat="43.56388" lon="3.35873">
        <ele>232</ele>
        <time>2025-10-03T13:41:34.000Z</time>
      </trkpt>
      <trkpt lat="43.5639" lon="3.35861">
        <ele>228</ele>
        <time>2025-10-03T13:42:01.000Z</time>
      </trkpt>
      <trkpt lat="43.56394" lon="3.3585">
        <ele>224</ele>
        <time>2025-10-03T13:42:32.000Z</time>
      </trkpt>
      <trkpt lat="43.56398" lon="3.3584">
        <ele>220</ele>
        <time>2025-10-03T13:42:55.000Z</time>
      </trkpt>
      <trkpt lat="43.56396" lon="3.35827">
        <ele>217</ele>
        <time>2025-10-03T13:43:23.000Z</time>
      </trkpt>
      <trkpt lat="43.56392" lon="3.35812">
        <ele>214</ele>
        <time>2025-10-03T13:44:11.000Z</time>
      </trkpt>
      <trkpt lat="43.56393" lon="3.35801">
        <ele>211</ele>
        <time>2025-10-03T13:44:36.000Z</time>
      </trkpt>
      <trkpt lat="43.56401" lon="3.35798">
        <ele>207</ele>
        <time>2025-10-03T13:44:55.000Z</time>
      </trkpt>
      <trkpt lat="43.56407" lon="3.3579">
        <ele>204</ele>
        <time>2025-10-03T13:45:17.000Z</time>
      </trkpt>
      <trkpt lat="43.56405" lon="3.35781">
        <ele>201</ele>
        <time>2025-10-03T13:45:31.000Z</time>
      </trkpt>
      <trkpt lat="43.56411" lon="3.35775">
        <ele>198</ele>
        <time>2025-10-03T13:46:04.000Z</time>
      </trkpt>
      <trkpt lat="43.56418" lon="3.35767">
        <ele>196</ele>
        <time>2025-10-03T13:46:25.000Z</time>
      </trkpt>
      <trkpt lat="43.56424" lon="3.35758">
        <ele>194</ele>
        <time>2025-10-03T13:46:56.000Z</time>
      </trkpt>
      <trkpt lat="43.56428" lon="3.35749">
        <ele>192</ele>
        <time>2025-10-03T13:47:09.000Z</time>
      </trkpt>
      <trkpt lat="43.56424" lon="3.35738">
        <ele>191</ele>
        <time>2025-10-03T13:47:23.000Z</time>
      </trkpt>
      <trkpt lat="43.5642" lon="3.35726">
        <ele>190</ele>
        <time>2025-10-03T13:47:35.000Z</time>
      </trkpt>
      <trkpt lat="43.56416" lon="3.35715">
        <ele>188</ele>
        <time>2025-10-03T13:47:45.000Z</time>
      </trkpt>
      <trkpt lat="43.56407" lon="3.35711">
        <ele>187</ele>
        <time>2025-10-03T13:47:53.000Z</time>
      </trkpt>
      <trkpt lat="43.56402" lon="3.35701">
        <ele>185</ele>
        <time>2025-10-03T13:48:06.000Z</time>
      </trkpt>
      <trkpt lat="43.56398" lon="3.3569">
        <ele>183</ele>
        <time>2025-10-03T13:48:26.000Z</time>
      </trkpt>
      <trkpt lat="43.56404" lon="3.35682">
        <ele>182</ele>
        <time>2025-10-03T13:49:09.000Z</time>
      </trkpt>
      <trkpt lat="43.56412" lon="3.35677">
        <ele>181</ele>
        <time>2025-10-03T13:49:21.000Z</time>
      </trkpt>
      <trkpt lat="43.5642" lon="3.35672">
        <ele>179</ele>
        <time>2025-10-03T13:49:41.000Z</time>
      </trkpt>
      <trkpt lat="43.56427" lon="3.35675">
        <ele>177</ele>
        <time>2025-10-03T13:49:51.000Z</time>
      </trkpt>
      <trkpt lat="43.56436" lon="3.3568">
        <ele>175</ele>
        <time>2025-10-03T13:50:01.000Z</time>
      </trkpt>
      <trkpt lat="43.56446" lon="3.35679">
        <ele>173</ele>
        <time>2025-10-03T13:50:13.000Z</time>
      </trkpt>
      <trkpt lat="43.56455" lon="3.35674">
        <ele>171</ele>
        <time>2025-10-03T13:50:24.000Z</time>
      </trkpt>
      <trkpt lat="43.56465" lon="3.35676">
        <ele>169</ele>
        <time>2025-10-03T13:50:43.000Z</time>
      </trkpt>
      <trkpt lat="43.56474" lon="3.35681">
        <ele>167</ele>
        <time>2025-10-03T13:53:02.000Z</time>
      </trkpt>
      <trkpt lat="43.5648" lon="3.35689">
        <ele>164</ele>
        <time>2025-10-03T13:53:13.000Z</time>
      </trkpt>
      <trkpt lat="43.56487" lon="3.35696">
        <ele>162</ele>
        <time>2025-10-03T13:53:25.000Z</time>
      </trkpt>
      <trkpt lat="43.56495" lon="3.35695">
        <ele>160</ele>
        <time>2025-10-03T13:53:35.000Z</time>
      </trkpt>
      <trkpt lat="43.565" lon="3.35685">
        <ele>158</ele>
        <time>2025-10-03T13:53:46.000Z</time>
      </trkpt>
      <trkpt lat="43.56502" lon="3.35671">
        <ele>157</ele>
        <time>2025-10-03T13:54:03.000Z</time>
      </trkpt>
      <trkpt lat="43.56499" lon="3.35659">
        <ele>156</ele>
        <time>2025-10-03T13:54:08.000Z</time>
      </trkpt>
      <trkpt lat="43.56503" lon="3.35648">
        <ele>155</ele>
        <time>2025-10-03T13:54:21.000Z</time>
      </trkpt>
      <trkpt lat="43.5651" lon="3.3564">
        <ele>154</ele>
        <time>2025-10-03T13:54:29.000Z</time>
      </trkpt>
      <trkpt lat="43.56519" lon="3.35639">
        <ele>154</ele>
        <time>2025-10-03T13:54:43.000Z</time>
      </trkpt>
      <trkpt lat="43.56528" lon="3.35638">
        <ele>154</ele>
        <time>2025-10-03T13:55:05.000Z</time>
      </trkpt>
      <trkpt lat="43.56533" lon="3.35648">
        <ele>153</ele>
        <time>2025-10-03T13:55:25.000Z</time>
      </trkpt>
      <trkpt lat="43.56539" lon="3.35658">
        <ele>153</ele>
        <time>2025-10-03T13:55:32.000Z</time>
      </trkpt>
      <trkpt lat="43.56545" lon="3.35669">
        <ele>153</ele>
        <time>2025-10-03T13:55:41.000Z</time>
      </trkpt>
      <trkpt lat="43.5655" lon="3.3568">
        <ele>153</ele>
        <time>2025-10-03T13:55:49.000Z</time>
      </trkpt>
      <trkpt lat="43.56556" lon="3.35689">
        <ele>152</ele>
        <time>2025-10-03T13:55:58.000Z</time>
      </trkpt>
      <trkpt lat="43.56561" lon="3.35701">
        <ele>152</ele>
        <time>2025-10-03T13:56:09.000Z</time>
      </trkpt>
      <trkpt lat="43.56564" lon="3.35712">
        <ele>152</ele>
        <time>2025-10-03T13:56:17.000Z</time>
      </trkpt>
      <trkpt lat="43.56567" lon="3.35725">
        <ele>151</ele>
        <time>2025-10-03T13:56:27.000Z</time>
      </trkpt>
      <trkpt lat="43.5657" lon="3.35737">
        <ele>152</ele>
        <time>2025-10-03T13:56:34.000Z</time>
      </trkpt>
      <trkpt lat="43.56572" lon="3.35749">
        <ele>152</ele>
        <time>2025-10-03T13:56:42.000Z</time>
      </trkpt>
      <trkpt lat="43.56575" lon="3.35762">
        <ele>153</ele>
        <time>2025-10-03T13:56:50.000Z</time>
      </trkpt>
      <trkpt lat="43.56577" lon="3.35774">
        <ele>153</ele>
        <time>2025-10-03T13:57:13.000Z</time>
      </trkpt>
      <trkpt lat="43.56577" lon="3.35787">
        <ele>154</ele>
        <time>2025-10-03T13:57:23.000Z</time>
      </trkpt>
      <trkpt lat="43.56577" lon="3.35802">
        <ele>154</ele>
        <time>2025-10-03T13:57:35.000Z</time>
      </trkpt>
      <trkpt lat="43.56578" lon="3.35816">
        <ele>154</ele>
        <time>2025-10-03T13:57:42.000Z</time>
      </trkpt>
      <trkpt lat="43.56579" lon="3.35829">
        <ele>154</ele>
        <time>2025-10-03T13:57:50.000Z</time>
      </trkpt>
      <trkpt lat="43.56581" lon="3.35843">
        <ele>154</ele>
        <time>2025-10-03T13:58:01.000Z</time>
      </trkpt>
      <trkpt lat="43.56586" lon="3.35858">
        <ele>153</ele>
        <time>2025-10-03T13:58:09.000Z</time>
      </trkpt>
      <trkpt lat="43.56591" lon="3.35869">
        <ele>153</ele>
        <time>2025-10-03T13:58:17.000Z</time>
      </trkpt>
      <trkpt lat="43.56597" lon="3.3588">
        <ele>153</ele>
        <time>2025-10-03T13:58:24.000Z</time>
      </trkpt>
      <trkpt lat="43.56603" lon="3.35891">
        <ele>153</ele>
        <time>2025-10-03T13:58:35.000Z</time>
      </trkpt>
      <trkpt lat="43.56609" lon="3.35902">
        <ele>152</ele>
        <time>2025-10-03T13:58:44.000Z</time>
      </trkpt>
      <trkpt lat="43.56615" lon="3.35911">
        <ele>152</ele>
        <time>2025-10-03T13:58:52.000Z</time>
      </trkpt>
      <trkpt lat="43.56622" lon="3.35923">
        <ele>152</ele>
        <time>2025-10-03T13:59:03.000Z</time>
      </trkpt>
      <trkpt lat="43.56629" lon="3.35933">
        <ele>152</ele>
        <time>2025-10-03T13:59:10.000Z</time>
      </trkpt>
      <trkpt lat="43.56638" lon="3.3594">
        <ele>152</ele>
        <time>2025-10-03T13:59:22.000Z</time>
      </trkpt>
      <trkpt lat="43.56648" lon="3.35948">
        <ele>152</ele>
        <time>2025-10-03T13:59:33.000Z</time>
      </trkpt>
      <trkpt lat="43.56657" lon="3.35955">
        <ele>153</ele>
        <time>2025-10-03T13:59:41.000Z</time>
      </trkpt>
      <trkpt lat="43.56665" lon="3.35964">
        <ele>154</ele>
        <time>2025-10-03T13:59:50.000Z</time>
      </trkpt>
      <trkpt lat="43.56673" lon="3.35971">
        <ele>155</ele>
        <time>2025-10-03T13:59:59.000Z</time>
      </trkpt>
      <trkpt lat="43.56681" lon="3.35978">
        <ele>156</ele>
        <time>2025-10-03T14:00:09.000Z</time>
      </trkpt>
      <trkpt lat="43.56689" lon="3.35985">
        <ele>157</ele>
        <time>2025-10-03T14:00:17.000Z</time>
      </trkpt>
      <trkpt lat="43.56695" lon="3.35994">
        <ele>158</ele>
        <time>2025-10-03T14:00:24.000Z</time>
      </trkpt>
      <trkpt lat="43.56702" lon="3.36003">
        <ele>159</ele>
        <time>2025-10-03T14:00:32.000Z</time>
      </trkpt>
      <trkpt lat="43.5671" lon="3.36012">
        <ele>160</ele>
        <time>2025-10-03T14:00:43.000Z</time>
      </trkpt>
      <trkpt lat="43.56718" lon="3.36022">
        <ele>161</ele>
        <time>2025-10-03T14:00:53.000Z</time>
      </trkpt>
      <trkpt lat="43.56726" lon="3.3603">
        <ele>161</ele>
        <time>2025-10-03T14:01:05.000Z</time>
      </trkpt>
      <trkpt lat="43.56734" lon="3.36039">
        <ele>162</ele>
        <time>2025-10-03T14:01:15.000Z</time>
      </trkpt>
      <trkpt lat="43.56743" lon="3.36043">
        <ele>163</ele>
        <time>2025-10-03T14:01:23.000Z</time>
      </trkpt>
      <trkpt lat="43.56752" lon="3.36047">
        <ele>164</ele>
        <time>2025-10-03T14:01:33.000Z</time>
      </trkpt>
      <trkpt lat="43.56762" lon="3.36051">
        <ele>164</ele>
        <time>2025-10-03T14:01:43.000Z</time>
      </trkpt>
      <trkpt lat="43.56769" lon="3.36061">
        <ele>165</ele>
        <time>2025-10-03T14:01:53.000Z</time>
      </trkpt>
      <trkpt lat="43.56773" lon="3.36074">
        <ele>166</ele>
        <time>2025-10-03T14:02:02.000Z</time>
      </trkpt>
      <trkpt lat="43.56774" lon="3.36086">
        <ele>166</ele>
        <time>2025-10-03T14:02:11.000Z</time>
      </trkpt>
      <trkpt lat="43.56774" lon="3.36098">
        <ele>166</ele>
        <time>2025-10-03T14:02:19.000Z</time>
      </trkpt>
      <trkpt lat="43.56775" lon="3.3611">
        <ele>166</ele>
        <time>2025-10-03T14:02:27.000Z</time>
      </trkpt>
      <trkpt lat="43.56776" lon="3.36123">
        <ele>166</ele>
        <time>2025-10-03T14:02:35.000Z</time>
      </trkpt>
      <trkpt lat="43.56779" lon="3.36134">
        <ele>166</ele>
        <time>2025-10-03T14:02:43.000Z</time>
      </trkpt>
      <trkpt lat="43.56782" lon="3.36147">
        <ele>166</ele>
        <time>2025-10-03T14:02:51.000Z</time>
      </trkpt>
      <trkpt lat="43.56788" lon="3.36159">
        <ele>167</ele>
        <time>2025-10-03T14:03:01.000Z</time>
      </trkpt>
      <trkpt lat="43.56795" lon="3.36169">
        <ele>168</ele>
        <time>2025-10-03T14:03:09.000Z</time>
      </trkpt>
      <trkpt lat="43.56802" lon="3.36179">
        <ele>168</ele>
        <time>2025-10-03T14:03:18.000Z</time>
      </trkpt>
      <trkpt lat="43.56807" lon="3.36191">
        <ele>168</ele>
        <time>2025-10-03T14:03:26.000Z</time>
      </trkpt>
      <trkpt lat="43.56813" lon="3.36202">
        <ele>168</ele>
        <time>2025-10-03T14:03:37.000Z</time>
      </trkpt>
      <trkpt lat="43.56819" lon="3.36212">
        <ele>168</ele>
        <time>2025-10-03T14:03:47.000Z</time>
      </trkpt>
      <trkpt lat="43.56825" lon="3.36223">
        <ele>168</ele>
        <time>2025-10-03T14:03:54.000Z</time>
      </trkpt>
      <trkpt lat="43.56833" lon="3.36231">
        <ele>168</ele>
        <time>2025-10-03T14:04:05.000Z</time>
      </trkpt>
      <trkpt lat="43.56841" lon="3.36236">
        <ele>168</ele>
        <time>2025-10-03T14:04:15.000Z</time>
      </trkpt>
      <trkpt lat="43.5685" lon="3.36241">
        <ele>167</ele>
        <time>2025-10-03T14:04:24.000Z</time>
      </trkpt>
      <trkpt lat="43.5686" lon="3.36248">
        <ele>167</ele>
        <time>2025-10-03T14:04:34.000Z</time>
      </trkpt>
      <trkpt lat="43.5687" lon="3.36255">
        <ele>167</ele>
        <time>2025-10-03T14:04:44.000Z</time>
      </trkpt>
      <trkpt lat="43.56879" lon="3.36263">
        <ele>166</ele>
        <time>2025-10-03T14:04:55.000Z</time>
      </trkpt>
      <trkpt lat="43.56888" lon="3.3627">
        <ele>165</ele>
        <time>2025-10-03T14:05:04.000Z</time>
      </trkpt>
      <trkpt lat="43.56896" lon="3.36277">
        <ele>164</ele>
        <time>2025-10-03T14:05:13.000Z</time>
      </trkpt>
      <trkpt lat="43.56905" lon="3.36279">
        <ele>163</ele>
        <time>2025-10-03T14:05:23.000Z</time>
      </trkpt>
      <trkpt lat="43.56915" lon="3.3628">
        <ele>162</ele>
        <time>2025-10-03T14:05:32.000Z</time>
      </trkpt>
      <trkpt lat="43.56924" lon="3.36278">
        <ele>161</ele>
        <time>2025-10-03T14:05:41.000Z</time>
      </trkpt>
      <trkpt lat="43.56933" lon="3.36277">
        <ele>160</ele>
        <time>2025-10-03T14:05:50.000Z</time>
      </trkpt>
      <trkpt lat="43.56942" lon="3.36271">
        <ele>160</ele>
        <time>2025-10-03T14:06:00.000Z</time>
      </trkpt>
      <trkpt lat="43.56951" lon="3.36266">
        <ele>160</ele>
        <time>2025-10-03T14:06:11.000Z</time>
      </trkpt>
      <trkpt lat="43.56961" lon="3.36262">
        <ele>160</ele>
        <time>2025-10-03T14:06:22.000Z</time>
      </trkpt>
      <trkpt lat="43.56971" lon="3.36259">
        <ele>161</ele>
        <time>2025-10-03T14:06:39.000Z</time>
      </trkpt>
      <trkpt lat="43.5698" lon="3.36257">
        <ele>161</ele>
        <time>2025-10-03T14:06:49.000Z</time>
      </trkpt>
      <trkpt lat="43.5699" lon="3.36258">
        <ele>162</ele>
        <time>2025-10-03T14:07:01.000Z</time>
      </trkpt>
      <trkpt lat="43.57" lon="3.36259">
        <ele>162</ele>
        <time>2025-10-03T14:07:11.000Z</time>
      </trkpt>
      <trkpt lat="43.57009" lon="3.36261">
        <ele>162</ele>
        <time>2025-10-03T14:07:21.000Z</time>
      </trkpt>
      <trkpt lat="43.57019" lon="3.36262">
        <ele>162</ele>
        <time>2025-10-03T14:07:30.000Z</time>
      </trkpt>
      <trkpt lat="43.57028" lon="3.36264">
        <ele>163</ele>
        <time>2025-10-03T14:07:41.000Z</time>
      </trkpt>
      <trkpt lat="43.57037" lon="3.36264">
        <ele>163</ele>
        <time>2025-10-03T14:07:49.000Z</time>
      </trkpt>
      <trkpt lat="43.57046" lon="3.36264">
        <ele>163</ele>
        <time>2025-10-03T14:07:57.000Z</time>
      </trkpt>
      <trkpt lat="43.57055" lon="3.36268">
        <ele>163</ele>
        <time>2025-10-03T14:08:07.000Z</time>
      </trkpt>
      <trkpt lat="43.57064" lon="3.36269">
        <ele>162</ele>
        <time>2025-10-03T14:08:17.000Z</time>
      </trkpt>
      <trkpt lat="43.57073" lon="3.36272">
        <ele>162</ele>
        <time>2025-10-03T14:08:26.000Z</time>
      </trkpt>
      <trkpt lat="43.57082" lon="3.36275">
        <ele>161</ele>
        <time>2025-10-03T14:08:37.000Z</time>
      </trkpt>
      <trkpt lat="43.57092" lon="3.36278">
        <ele>160</ele>
        <time>2025-10-03T14:08:47.000Z</time>
      </trkpt>
      <trkpt lat="43.57101" lon="3.36282">
        <ele>159</ele>
        <time>2025-10-03T14:08:57.000Z</time>
      </trkpt>
      <trkpt lat="43.5711" lon="3.36286">
        <ele>159</ele>
        <time>2025-10-03T14:09:07.000Z</time>
      </trkpt>
      <trkpt lat="43.57118" lon="3.36293">
        <ele>158</ele>
        <time>2025-10-03T14:09:16.000Z</time>
      </trkpt>
      <trkpt lat="43.57127" lon="3.36299">
        <ele>158</ele>
        <time>2025-10-03T14:09:27.000Z</time>
      </trkpt>
      <trkpt lat="43.57134" lon="3.36307">
        <ele>158</ele>
        <time>2025-10-03T14:09:37.000Z</time>
      </trkpt>
      <trkpt lat="43.57142" lon="3.36311">
        <ele>158</ele>
        <time>2025-10-03T14:09:47.000Z</time>
      </trkpt>
      <trkpt lat="43.57151" lon="3.36311">
        <ele>158</ele>
        <time>2025-10-03T14:10:11.000Z</time>
      </trkpt>
      <trkpt lat="43.5716" lon="3.36316">
        <ele>158</ele>
        <time>2025-10-03T14:12:50.000Z</time>
      </trkpt>
      <trkpt lat="43.57167" lon="3.36323">
        <ele>158</ele>
        <time>2025-10-03T14:13:03.000Z</time>
      </trkpt>
      <trkpt lat="43.57176" lon="3.36324">
        <ele>157</ele>
        <time>2025-10-03T14:13:10.000Z</time>
      </trkpt>
      <trkpt lat="43.57186" lon="3.36326">
        <ele>157</ele>
        <time>2025-10-03T14:13:20.000Z</time>
      </trkpt>
      <trkpt lat="43.57197" lon="3.36328">
        <ele>157</ele>
        <time>2025-10-03T14:13:33.000Z</time>
      </trkpt>
      <trkpt lat="43.57206" lon="3.36329">
        <ele>157</ele>
        <time>2025-10-03T14:13:40.000Z</time>
      </trkpt>
      <trkpt lat="43.57216" lon="3.36331">
        <ele>158</ele>
        <time>2025-10-03T14:13:51.000Z</time>
      </trkpt>
      <trkpt lat="43.57226" lon="3.36336">
        <ele>158</ele>
        <time>2025-10-03T14:14:00.000Z</time>
      </trkpt>
      <trkpt lat="43.57235" lon="3.36339">
        <ele>158</ele>
        <time>2025-10-03T14:14:08.000Z</time>
      </trkpt>
      <trkpt lat="43.57244" lon="3.36342">
        <ele>159</ele>
        <time>2025-10-03T14:14:19.000Z</time>
      </trkpt>
      <trkpt lat="43.57253" lon="3.36345">
        <ele>159</ele>
        <time>2025-10-03T14:14:28.000Z</time>
      </trkpt>
      <trkpt lat="43.57261" lon="3.36346">
        <ele>159</ele>
        <time>2025-10-03T14:14:37.000Z</time>
      </trkpt>
      <trkpt lat="43.57272" lon="3.36347">
        <ele>158</ele>
        <time>2025-10-03T14:14:46.000Z</time>
      </trkpt>
      <trkpt lat="43.57282" lon="3.3635">
        <ele>163</ele>
        <time>2025-10-03T14:14:54.000Z</time>
      </trkpt>
      <trkpt lat="43.57291" lon="3.36352">
        <ele>158</ele>
        <time>2025-10-03T14:15:04.000Z</time>
      </trkpt>
      <trkpt lat="43.57299" lon="3.36359">
        <ele>158</ele>
        <time>2025-10-03T14:15:17.000Z</time>
      </trkpt>
    </trkseg>
  </trk>
</gpx>